<?xml version='1.0' encoding='UTF-8'?>
<gpx version="1.1" creator="https://www.komoot.de" xmlns="http://www.topografix.com/GPX/1/1" xmlns:xsi="http://www.w3.org/2001/XMLSchema-instance" xsi:schemaLocation="http://www.topografix.com/GPX/1/1 http://www.topografix.com/GPX/1/1/gpx.xsd">
  <metadata>
    <name>Sen2026/6 Unterschneidheim-Bartholomä</name>
    <author>
      <link href="https://www.komoot.de">
        <text>komoot</text>
        <type>text/html</type>
      </link>
    </author>
  </metadata>
  <wpt lat="48.940112" lon="10.313609">
    <name>Jagstquelle</name>
    <sym>Flag, Blue</sym>
  </wpt>
  <wpt lat="48.861501" lon="10.316351">
    <name>Schöner Abschnitt zwischen Aufhausen und Röttingen</name>
    <sym>Flag, Blue</sym>
  </wpt>
  <wpt lat="48.858119" lon="10.301940">
    <name>Egerquelle</name>
    <sym>Flag, Blue</sym>
  </wpt>
  <wpt lat="48.786850" lon="10.299205">
    <name>Dossinger Staudamm und Picknickplatz</name>
    <sym>Picnic Area</sym>
  </wpt>
  <wpt lat="48.753338" lon="10.331965">
    <name>Egau-Quelle</name>
    <sym>Flag, Blue</sym>
  </wpt>
  <wpt lat="48.742968" lon="10.206970">
    <name>Wurschtbixahaise</name>
    <sym>Picnic Area</sym>
  </wpt>
  <wpt lat="48.737946" lon="10.113882">
    <name>Alte Hammerschmiede am Brenztopf</name>
    <sym>Flag, Blue</sym>
  </wpt>
  <wpt lat="48.772151" lon="10.095609">
    <name>Quelle des Schwarzen Kochers</name>
    <sym>Flag, Blue</sym>
  </wpt>
  <wpt lat="48.769619" lon="10.067768">
    <name>Hubertusquelle</name>
    <sym>Flag, Blue</sym>
  </wpt>
  <wpt lat="48.778139" lon="10.039020">
    <name>Waldschenke Tauchenweiler</name>
    <sym>Restaurant</sym>
  </wpt>
  <wpt lat="48.759336" lon="10.006560">
    <name>Blick auf Bartholomä</name>
    <sym>Flag, Blue</sym>
  </wpt>
  <trk>
    <name>Sen2026/6 Unterschneidheim-Bartholomä</name>
    <trkseg>
      <trkpt lat="48.940057" lon="10.362996">
        <ele>478.589583</ele>
        <time>2026-04-26T14:45:34.773Z</time>
      </trkpt>
      <trkpt lat="48.940198" lon="10.363272">
        <ele>478.589583</ele>
        <time>2026-04-26T14:45:39.490Z</time>
      </trkpt>
      <trkpt lat="48.940437" lon="10.363046">
        <ele>478.589583</ele>
        <time>2026-04-26T14:45:45.464Z</time>
      </trkpt>
      <trkpt lat="48.940679" lon="10.362949">
        <ele>478.589583</ele>
        <time>2026-04-26T14:45:50.878Z</time>
      </trkpt>
      <trkpt lat="48.940824" lon="10.362825">
        <ele>478.629425</ele>
        <time>2026-04-26T14:45:54.592Z</time>
      </trkpt>
      <trkpt lat="48.940951" lon="10.362555">
        <ele>478.937047</ele>
        <time>2026-04-26T14:45:59.533Z</time>
      </trkpt>
      <trkpt lat="48.941013" lon="10.362311">
        <ele>479.179392</ele>
        <time>2026-04-26T14:46:03.499Z</time>
      </trkpt>
      <trkpt lat="48.941018" lon="10.362288">
        <ele>479.201834</ele>
        <time>2026-04-26T14:46:03.869Z</time>
      </trkpt>
      <trkpt lat="48.941038" lon="10.362106">
        <ele>479.372767</ele>
        <time>2026-04-26T14:46:06.710Z</time>
      </trkpt>
      <trkpt lat="48.941029" lon="10.361831">
        <ele>479.627820</ele>
        <time>2026-04-26T14:46:10.954Z</time>
      </trkpt>
      <trkpt lat="48.940957" lon="10.361671">
        <ele>479.807477</ele>
        <time>2026-04-26T14:46:13.958Z</time>
      </trkpt>
      <trkpt lat="48.940918" lon="10.360940">
        <ele>480.486846</ele>
        <time>2026-04-26T14:46:25.450Z</time>
      </trkpt>
      <trkpt lat="48.940511" lon="10.360049">
        <ele>481.683209</ele>
        <time>2026-04-26T14:46:42.710Z</time>
      </trkpt>
      <trkpt lat="48.940450" lon="10.359874">
        <ele>481.962521</ele>
        <time>2026-04-26T14:46:45.868Z</time>
      </trkpt>
      <trkpt lat="48.940207" lon="10.359843">
        <ele>482.485924</ele>
        <time>2026-04-26T14:46:51.750Z</time>
      </trkpt>
      <trkpt lat="48.940441" lon="10.357913">
        <ele>485.347311</ele>
        <time>2026-04-26T14:47:22.722Z</time>
      </trkpt>
      <trkpt lat="48.940494" lon="10.357455">
        <ele>486.235543</ele>
        <time>2026-04-26T14:47:30.226Z</time>
      </trkpt>
      <trkpt lat="48.940532" lon="10.357031">
        <ele>487.052867</ele>
        <time>2026-04-26T14:47:37.199Z</time>
      </trkpt>
      <trkpt lat="48.940574" lon="10.355626">
        <ele>489.739129</ele>
        <time>2026-04-26T14:48:00.437Z</time>
      </trkpt>
      <trkpt lat="48.940562" lon="10.355156">
        <ele>490.599092</ele>
        <time>2026-04-26T14:48:08.170Z</time>
      </trkpt>
      <trkpt lat="48.940403" lon="10.350875">
        <ele>497.820176</ele>
        <time>2026-04-26T14:49:16.889Z</time>
      </trkpt>
      <trkpt lat="48.940381" lon="10.349802">
        <ele>499.555491</ele>
        <time>2026-04-26T14:49:33.991Z</time>
      </trkpt>
      <trkpt lat="48.940390" lon="10.348997">
        <ele>500.899474</ele>
        <time>2026-04-26T14:49:46.860Z</time>
      </trkpt>
      <trkpt lat="48.940601" lon="10.346737">
        <ele>504.603516</ele>
        <time>2026-04-26T14:50:23.658Z</time>
      </trkpt>
      <trkpt lat="48.940889" lon="10.343576">
        <ele>507.029768</ele>
        <time>2026-04-26T14:51:14.220Z</time>
      </trkpt>
      <trkpt lat="48.941219" lon="10.338550">
        <ele>498.490977</ele>
        <time>2026-04-26T14:52:10.600Z</time>
      </trkpt>
      <trkpt lat="48.941356" lon="10.336334">
        <ele>494.452221</ele>
        <time>2026-04-26T14:52:35.675Z</time>
      </trkpt>
      <trkpt lat="48.941350" lon="10.335984">
        <ele>494.647292</ele>
        <time>2026-04-26T14:52:40.410Z</time>
      </trkpt>
      <trkpt lat="48.941304" lon="10.335789">
        <ele>494.810103</ele>
        <time>2026-04-26T14:52:43.361Z</time>
      </trkpt>
      <trkpt lat="48.940996" lon="10.334706">
        <ele>495.737458</ele>
        <time>2026-04-26T14:53:01.610Z</time>
      </trkpt>
      <trkpt lat="48.940905" lon="10.334257">
        <ele>496.106692</ele>
        <time>2026-04-26T14:53:09.228Z</time>
      </trkpt>
      <trkpt lat="48.940860" lon="10.333845">
        <ele>496.434885</ele>
        <time>2026-04-26T14:53:16.075Z</time>
      </trkpt>
      <trkpt lat="48.940844" lon="10.333447">
        <ele>497.010847</ele>
        <time>2026-04-26T14:53:22.582Z</time>
      </trkpt>
      <trkpt lat="48.940896" lon="10.329462">
        <ele>504.404575</ele>
        <time>2026-04-26T14:54:26.970Z</time>
      </trkpt>
      <trkpt lat="48.940846" lon="10.328649">
        <ele>505.970337</ele>
        <time>2026-04-26T14:54:40.321Z</time>
      </trkpt>
      <trkpt lat="48.940817" lon="10.327979">
        <ele>507.315157</ele>
        <time>2026-04-26T14:54:51.420Z</time>
      </trkpt>
      <trkpt lat="48.940853" lon="10.327697">
        <ele>507.931396</ele>
        <time>2026-04-26T14:54:56.185Z</time>
      </trkpt>
      <trkpt lat="48.941022" lon="10.326861">
        <ele>509.807711</ele>
        <time>2026-04-26T14:55:10.731Z</time>
      </trkpt>
      <trkpt lat="48.941059" lon="10.326146">
        <ele>511.346207</ele>
        <time>2026-04-26T14:55:22.594Z</time>
      </trkpt>
      <trkpt lat="48.941034" lon="10.325488">
        <ele>512.748626</ele>
        <time>2026-04-26T14:55:33.373Z</time>
      </trkpt>
      <trkpt lat="48.940959" lon="10.323917">
        <ele>515.779682</ele>
        <time>2026-04-26T14:55:58.921Z</time>
      </trkpt>
      <trkpt lat="48.941031" lon="10.323071">
        <ele>517.421252</ele>
        <time>2026-04-26T14:56:12.776Z</time>
      </trkpt>
      <trkpt lat="48.941163" lon="10.322139">
        <ele>518.898811</ele>
        <time>2026-04-26T14:56:28.339Z</time>
      </trkpt>
      <trkpt lat="48.941292" lon="10.321987">
        <ele>519.249094</ele>
        <time>2026-04-26T14:56:32.269Z</time>
      </trkpt>
      <trkpt lat="48.941361" lon="10.321906">
        <ele>519.436193</ele>
        <time>2026-04-26T14:56:34.355Z</time>
      </trkpt>
      <trkpt lat="48.941572" lon="10.321656">
        <ele>520.010329</ele>
        <time>2026-04-26T14:56:40.700Z</time>
      </trkpt>
      <trkpt lat="48.941612" lon="10.321609">
        <ele>520.118829</ele>
        <time>2026-04-26T14:56:41.869Z</time>
      </trkpt>
      <trkpt lat="48.941682" lon="10.321526">
        <ele>520.309354</ele>
        <time>2026-04-26T14:56:43.943Z</time>
      </trkpt>
      <trkpt lat="48.941708" lon="10.321496">
        <ele>520.379408</ele>
        <time>2026-04-26T14:56:44.703Z</time>
      </trkpt>
      <trkpt lat="48.942082" lon="10.321062">
        <ele>521.389210</ele>
        <time>2026-04-26T14:56:55.423Z</time>
      </trkpt>
      <trkpt lat="48.942175" lon="10.320969">
        <ele>521.628141</ele>
        <time>2026-04-26T14:56:57.924Z</time>
      </trkpt>
      <trkpt lat="48.942377" lon="10.320758">
        <ele>522.088962</ele>
        <time>2026-04-26T14:57:03.488Z</time>
      </trkpt>
      <trkpt lat="48.942451" lon="10.320680">
        <ele>522.248463</ele>
        <time>2026-04-26T14:57:05.549Z</time>
      </trkpt>
      <trkpt lat="48.942659" lon="10.320463">
        <ele>522.695310</ele>
        <time>2026-04-26T14:57:11.350Z</time>
      </trkpt>
      <trkpt lat="48.942942" lon="10.320174">
        <ele>523.299199</ele>
        <time>2026-04-26T14:57:19.286Z</time>
      </trkpt>
      <trkpt lat="48.943056" lon="10.320076">
        <ele>523.531205</ele>
        <time>2026-04-26T14:57:22.359Z</time>
      </trkpt>
      <trkpt lat="48.943169" lon="10.320014">
        <ele>523.744066</ele>
        <time>2026-04-26T14:57:25.156Z</time>
      </trkpt>
      <trkpt lat="48.943055" lon="10.319535">
        <ele>524.337081</ele>
        <time>2026-04-26T14:57:33.200Z</time>
      </trkpt>
      <trkpt lat="48.943018" lon="10.319475">
        <ele>524.432877</ele>
        <time>2026-04-26T14:57:34.497Z</time>
      </trkpt>
      <trkpt lat="48.942883" lon="10.319254">
        <ele>524.784172</ele>
        <time>2026-04-26T14:57:39.290Z</time>
      </trkpt>
      <trkpt lat="48.942594" lon="10.318698">
        <ele>524.999300</ele>
        <time>2026-04-26T14:57:50.479Z</time>
      </trkpt>
      <trkpt lat="48.942503" lon="10.318295">
        <ele>525.023213</ele>
        <time>2026-04-26T14:57:57.059Z</time>
      </trkpt>
      <trkpt lat="48.942185" lon="10.316808">
        <ele>525.110964</ele>
        <time>2026-04-26T14:58:18.549Z</time>
      </trkpt>
      <trkpt lat="48.942128" lon="10.316624">
        <ele>525.115934</ele>
        <time>2026-04-26T14:58:21.081Z</time>
      </trkpt>
      <trkpt lat="48.940668" lon="10.313103">
        <ele>520.876028</ele>
        <time>2026-04-26T14:59:12.552Z</time>
      </trkpt>
      <trkpt lat="48.940100" lon="10.313576">
        <ele>519.953540</ele>
        <time>2026-04-26T14:59:25.708Z</time>
      </trkpt>
      <trkpt lat="48.940668" lon="10.313103">
        <ele>519.125995</ele>
        <time>2026-04-26T14:59:38.694Z</time>
      </trkpt>
      <trkpt lat="48.940180" lon="10.312036">
        <ele>518.094964</ele>
        <time>2026-04-26T14:59:55.160Z</time>
      </trkpt>
      <trkpt lat="48.940016" lon="10.311674">
        <ele>517.746241</ele>
        <time>2026-04-26T15:00:04.546Z</time>
      </trkpt>
      <trkpt lat="48.939889" lon="10.311295">
        <ele>517.498597</ele>
        <time>2026-04-26T15:00:13.859Z</time>
      </trkpt>
      <trkpt lat="48.939721" lon="10.310638">
        <ele>517.632017</ele>
        <time>2026-04-26T15:00:29.862Z</time>
      </trkpt>
      <trkpt lat="48.939542" lon="10.310745">
        <ele>517.687420</ele>
        <time>2026-04-26T15:00:36.526Z</time>
      </trkpt>
      <trkpt lat="48.939288" lon="10.310836">
        <ele>517.762597</ele>
        <time>2026-04-26T15:00:45.514Z</time>
      </trkpt>
      <trkpt lat="48.937092" lon="10.310929">
        <ele>518.871949</ele>
        <time>2026-04-26T15:02:00.166Z</time>
      </trkpt>
      <trkpt lat="48.936321" lon="10.311055">
        <ele>518.700158</ele>
        <time>2026-04-26T15:02:27.021Z</time>
      </trkpt>
      <trkpt lat="48.935451" lon="10.311008">
        <ele>517.607610</ele>
        <time>2026-04-26T15:02:55.101Z</time>
      </trkpt>
      <trkpt lat="48.935277" lon="10.311086">
        <ele>517.379966</ele>
        <time>2026-04-26T15:03:00.817Z</time>
      </trkpt>
      <trkpt lat="48.935141" lon="10.311254">
        <ele>517.160158</ele>
        <time>2026-04-26T15:03:06.370Z</time>
      </trkpt>
      <trkpt lat="48.934986" lon="10.311527">
        <ele>516.866941</ele>
        <time>2026-04-26T15:03:10.869Z</time>
      </trkpt>
      <trkpt lat="48.934833" lon="10.311776">
        <ele>516.642656</ele>
        <time>2026-04-26T15:03:15.204Z</time>
      </trkpt>
      <trkpt lat="48.934615" lon="10.311952">
        <ele>516.395553</ele>
        <time>2026-04-26T15:03:20.160Z</time>
      </trkpt>
      <trkpt lat="48.934379" lon="10.312060">
        <ele>516.148779</ele>
        <time>2026-04-26T15:03:25.193Z</time>
      </trkpt>
      <trkpt lat="48.933726" lon="10.312359">
        <ele>515.465935</ele>
        <time>2026-04-26T15:03:39.428Z</time>
      </trkpt>
      <trkpt lat="48.933622" lon="10.312437">
        <ele>515.349836</ele>
        <time>2026-04-26T15:03:41.881Z</time>
      </trkpt>
      <trkpt lat="48.933477" lon="10.312623">
        <ele>515.159955</ele>
        <time>2026-04-26T15:03:45.860Z</time>
      </trkpt>
      <trkpt lat="48.933173" lon="10.313538">
        <ele>514.054140</ele>
        <time>2026-04-26T15:03:59.237Z</time>
      </trkpt>
      <trkpt lat="48.933046" lon="10.313708">
        <ele>513.762491</ele>
        <time>2026-04-26T15:04:02.382Z</time>
      </trkpt>
      <trkpt lat="48.932273" lon="10.314075">
        <ele>512.366104</ele>
        <time>2026-04-26T15:04:16.881Z</time>
      </trkpt>
      <trkpt lat="48.931975" lon="10.314282">
        <ele>511.899494</ele>
        <time>2026-04-26T15:04:22.911Z</time>
      </trkpt>
      <trkpt lat="48.931664" lon="10.314587">
        <ele>511.610490</ele>
        <time>2026-04-26T15:04:30.052Z</time>
      </trkpt>
      <trkpt lat="48.931269" lon="10.314957">
        <ele>511.248180</ele>
        <time>2026-04-26T15:04:39.604Z</time>
      </trkpt>
      <trkpt lat="48.931170" lon="10.315006">
        <ele>511.166858</ele>
        <time>2026-04-26T15:04:41.839Z</time>
      </trkpt>
      <trkpt lat="48.931016" lon="10.314990">
        <ele>511.046277</ele>
        <time>2026-04-26T15:04:45.182Z</time>
      </trkpt>
      <trkpt lat="48.930113" lon="10.317907">
        <ele>510.110535</ele>
        <time>2026-04-26T15:05:29.549Z</time>
      </trkpt>
      <trkpt lat="48.929753" lon="10.318777">
        <ele>509.554512</ele>
        <time>2026-04-26T15:05:42.491Z</time>
      </trkpt>
      <trkpt lat="48.929585" lon="10.319112">
        <ele>509.223907</ele>
        <time>2026-04-26T15:05:47.667Z</time>
      </trkpt>
      <trkpt lat="48.929355" lon="10.319546">
        <ele>508.786494</ele>
        <time>2026-04-26T15:05:54.297Z</time>
      </trkpt>
      <trkpt lat="48.929251" lon="10.319685">
        <ele>508.621236</ele>
        <time>2026-04-26T15:05:56.838Z</time>
      </trkpt>
      <trkpt lat="48.929213" lon="10.319730">
        <ele>508.563748</ele>
        <time>2026-04-26T15:05:57.722Z</time>
      </trkpt>
      <trkpt lat="48.928994" lon="10.319985">
        <ele>508.234516</ele>
        <time>2026-04-26T15:06:02.949Z</time>
      </trkpt>
      <trkpt lat="48.928540" lon="10.320471">
        <ele>507.617102</ele>
        <time>2026-04-26T15:06:13.786Z</time>
      </trkpt>
      <trkpt lat="48.928492" lon="10.320521">
        <ele>507.557989</ele>
        <time>2026-04-26T15:06:14.900Z</time>
      </trkpt>
      <trkpt lat="48.928274" lon="10.320826">
        <ele>507.257058</ele>
        <time>2026-04-26T15:06:20.611Z</time>
      </trkpt>
      <trkpt lat="48.928201" lon="10.321182">
        <ele>507.008045</ele>
        <time>2026-04-26T15:06:25.326Z</time>
      </trkpt>
      <trkpt lat="48.928065" lon="10.320955">
        <ele>506.802917</ele>
        <time>2026-04-26T15:06:29.192Z</time>
      </trkpt>
      <trkpt lat="48.927786" lon="10.320203">
        <ele>506.226267</ele>
        <time>2026-04-26T15:06:40.147Z</time>
      </trkpt>
      <trkpt lat="48.927666" lon="10.319966">
        <ele>506.023205</ele>
        <time>2026-04-26T15:06:43.987Z</time>
      </trkpt>
      <trkpt lat="48.927529" lon="10.319752">
        <ele>505.793768</ele>
        <time>2026-04-26T15:06:47.824Z</time>
      </trkpt>
      <trkpt lat="48.927240" lon="10.319420">
        <ele>505.370586</ele>
        <time>2026-04-26T15:06:54.916Z</time>
      </trkpt>
      <trkpt lat="48.927036" lon="10.319298">
        <ele>505.114416</ele>
        <time>2026-04-26T15:06:59.184Z</time>
      </trkpt>
      <trkpt lat="48.926132" lon="10.319110">
        <ele>504.048046</ele>
        <time>2026-04-26T15:07:16.535Z</time>
      </trkpt>
      <trkpt lat="48.925945" lon="10.319047">
        <ele>503.742841</ele>
        <time>2026-04-26T15:07:20.123Z</time>
      </trkpt>
      <trkpt lat="48.925770" lon="10.318900">
        <ele>503.353333</ele>
        <time>2026-04-26T15:07:23.741Z</time>
      </trkpt>
      <trkpt lat="48.925185" lon="10.318189">
        <ele>501.894481</ele>
        <time>2026-04-26T15:07:36.710Z</time>
      </trkpt>
      <trkpt lat="48.925001" lon="10.317994">
        <ele>501.457562</ele>
        <time>2026-04-26T15:07:40.523Z</time>
      </trkpt>
      <trkpt lat="48.924486" lon="10.317649">
        <ele>500.434070</ele>
        <time>2026-04-26T15:07:50.269Z</time>
      </trkpt>
      <trkpt lat="48.924091" lon="10.317512">
        <ele>500.364287</ele>
        <time>2026-04-26T15:07:57.592Z</time>
      </trkpt>
      <trkpt lat="48.923737" lon="10.317481">
        <ele>500.303209</ele>
        <time>2026-04-26T15:08:04.583Z</time>
      </trkpt>
      <trkpt lat="48.923425" lon="10.317517">
        <ele>500.249313</ele>
        <time>2026-04-26T15:08:11.200Z</time>
      </trkpt>
      <trkpt lat="48.923136" lon="10.317614">
        <ele>500.198336</ele>
        <time>2026-04-26T15:08:17.787Z</time>
      </trkpt>
      <trkpt lat="48.922730" lon="10.317860">
        <ele>500.225401</ele>
        <time>2026-04-26T15:08:27.738Z</time>
      </trkpt>
      <trkpt lat="48.922086" lon="10.318333">
        <ele>501.627055</ele>
        <time>2026-04-26T15:08:44.393Z</time>
      </trkpt>
      <trkpt lat="48.921844" lon="10.318468">
        <ele>502.132276</ele>
        <time>2026-04-26T15:08:50.459Z</time>
      </trkpt>
      <trkpt lat="48.921661" lon="10.318505">
        <ele>502.494135</ele>
        <time>2026-04-26T15:08:54.801Z</time>
      </trkpt>
      <trkpt lat="48.920769" lon="10.318386">
        <ele>504.151866</ele>
        <time>2026-04-26T15:09:15.943Z</time>
      </trkpt>
      <trkpt lat="48.919688" lon="10.318376">
        <ele>505.922307</ele>
        <time>2026-04-26T15:09:41.151Z</time>
      </trkpt>
      <trkpt lat="48.919219" lon="10.318335">
        <ele>506.632562</ele>
        <time>2026-04-26T15:09:51.637Z</time>
      </trkpt>
      <trkpt lat="48.918954" lon="10.318270">
        <ele>506.780197</ele>
        <time>2026-04-26T15:09:57.421Z</time>
      </trkpt>
      <trkpt lat="48.918125" lon="10.318092">
        <ele>507.240676</ele>
        <time>2026-04-26T15:10:14.890Z</time>
      </trkpt>
      <trkpt lat="48.917908" lon="10.318067">
        <ele>507.360371</ele>
        <time>2026-04-26T15:10:19.596Z</time>
      </trkpt>
      <trkpt lat="48.917772" lon="10.318085">
        <ele>507.435455</ele>
        <time>2026-04-26T15:10:22.580Z</time>
      </trkpt>
      <trkpt lat="48.917621" lon="10.318134">
        <ele>507.520375</ele>
        <time>2026-04-26T15:10:26.033Z</time>
      </trkpt>
      <trkpt lat="48.917241" lon="10.318366">
        <ele>508.202368</ele>
        <time>2026-04-26T15:10:35.458Z</time>
      </trkpt>
      <trkpt lat="48.916395" lon="10.319021">
        <ele>510.276820</ele>
        <time>2026-04-26T15:10:58.340Z</time>
      </trkpt>
      <trkpt lat="48.916010" lon="10.319235">
        <ele>511.172599</ele>
        <time>2026-04-26T15:11:08.125Z</time>
      </trkpt>
      <trkpt lat="48.915816" lon="10.319298">
        <ele>511.536214</ele>
        <time>2026-04-26T15:11:12.771Z</time>
      </trkpt>
      <trkpt lat="48.915347" lon="10.319366">
        <ele>511.701802</ele>
        <time>2026-04-26T15:11:23.453Z</time>
      </trkpt>
      <trkpt lat="48.915090" lon="10.319367">
        <ele>511.792131</ele>
        <time>2026-04-26T15:11:29.070Z</time>
      </trkpt>
      <trkpt lat="48.914500" lon="10.319326">
        <ele>511.999717</ele>
        <time>2026-04-26T15:11:41.233Z</time>
      </trkpt>
      <trkpt lat="48.914089" lon="10.319242">
        <ele>512.145471</ele>
        <time>2026-04-26T15:11:49.517Z</time>
      </trkpt>
      <trkpt lat="48.913614" lon="10.319072">
        <ele>511.924220</ele>
        <time>2026-04-26T15:11:59.307Z</time>
      </trkpt>
      <trkpt lat="48.912172" lon="10.318407">
        <ele>511.122883</ele>
        <time>2026-04-26T15:12:29.909Z</time>
      </trkpt>
      <trkpt lat="48.911804" lon="10.318298">
        <ele>510.831233</ele>
        <time>2026-04-26T15:12:37.384Z</time>
      </trkpt>
      <trkpt lat="48.911481" lon="10.318282">
        <ele>510.579831</ele>
        <time>2026-04-26T15:12:43.774Z</time>
      </trkpt>
      <trkpt lat="48.910502" lon="10.318335">
        <ele>509.971028</ele>
        <time>2026-04-26T15:13:02.282Z</time>
      </trkpt>
      <trkpt lat="48.909679" lon="10.318360">
        <ele>511.955998</ele>
        <time>2026-04-26T15:13:19.939Z</time>
      </trkpt>
      <trkpt lat="48.909184" lon="10.318310">
        <ele>513.152263</ele>
        <time>2026-04-26T15:13:31.935Z</time>
      </trkpt>
      <trkpt lat="48.908315" lon="10.318180">
        <ele>517.706020</ele>
        <time>2026-04-26T15:13:57.231Z</time>
      </trkpt>
      <trkpt lat="48.908107" lon="10.318185">
        <ele>519.360240</ele>
        <time>2026-04-26T15:14:03.956Z</time>
      </trkpt>
      <trkpt lat="48.907768" lon="10.318258">
        <ele>522.082831</ele>
        <time>2026-04-26T15:14:15.164Z</time>
      </trkpt>
      <trkpt lat="48.906869" lon="10.318519">
        <ele>529.746248</ele>
        <time>2026-04-26T15:14:45.507Z</time>
      </trkpt>
      <trkpt lat="48.906616" lon="10.318553">
        <ele>532.665725</ele>
        <time>2026-04-26T15:14:54.652Z</time>
      </trkpt>
      <trkpt lat="48.906301" lon="10.318458">
        <ele>536.357003</ele>
        <time>2026-04-26T15:15:06.778Z</time>
      </trkpt>
      <trkpt lat="48.906092" lon="10.318333">
        <ele>538.938360</ele>
        <time>2026-04-26T15:15:15.658Z</time>
      </trkpt>
      <trkpt lat="48.905888" lon="10.318134">
        <ele>541.723897</ele>
        <time>2026-04-26T15:15:25.504Z</time>
      </trkpt>
      <trkpt lat="48.905756" lon="10.317937">
        <ele>543.849359</ele>
        <time>2026-04-26T15:15:33.309Z</time>
      </trkpt>
      <trkpt lat="48.905653" lon="10.317725">
        <ele>545.841184</ele>
        <time>2026-04-26T15:15:40.802Z</time>
      </trkpt>
      <trkpt lat="48.905209" lon="10.316562">
        <ele>554.834052</ele>
        <time>2026-04-26T15:16:19.304Z</time>
      </trkpt>
      <trkpt lat="48.905050" lon="10.315913">
        <ele>559.171989</ele>
        <time>2026-04-26T15:16:36.006Z</time>
      </trkpt>
      <trkpt lat="48.905030" lon="10.315455">
        <ele>562.046834</ele>
        <time>2026-04-26T15:16:46.159Z</time>
      </trkpt>
      <trkpt lat="48.905128" lon="10.314523">
        <ele>566.173085</ele>
        <time>2026-04-26T15:17:03.864Z</time>
      </trkpt>
      <trkpt lat="48.905117" lon="10.314124">
        <ele>565.968110</ele>
        <time>2026-04-26T15:17:10.006Z</time>
      </trkpt>
      <trkpt lat="48.905051" lon="10.313747">
        <ele>565.767862</ele>
        <time>2026-04-26T15:17:15.044Z</time>
      </trkpt>
      <trkpt lat="48.905224" lon="10.313582">
        <ele>565.608421</ele>
        <time>2026-04-26T15:17:18.597Z</time>
      </trkpt>
      <trkpt lat="48.905245" lon="10.313552">
        <ele>565.585926</ele>
        <time>2026-04-26T15:17:19.088Z</time>
      </trkpt>
      <trkpt lat="48.905272" lon="10.313515">
        <ele>565.557551</ele>
        <time>2026-04-26T15:17:19.697Z</time>
      </trkpt>
      <trkpt lat="48.905288" lon="10.313492">
        <ele>565.540362</ele>
        <time>2026-04-26T15:17:20.069Z</time>
      </trkpt>
      <trkpt lat="48.905363" lon="10.313378">
        <ele>565.457576</ele>
        <time>2026-04-26T15:17:21.829Z</time>
      </trkpt>
      <trkpt lat="48.905427" lon="10.313249">
        <ele>565.374621</ele>
        <time>2026-04-26T15:17:23.586Z</time>
      </trkpt>
      <trkpt lat="48.905512" lon="10.313044">
        <ele>565.250216</ele>
        <time>2026-04-26T15:17:26.153Z</time>
      </trkpt>
      <trkpt lat="48.905536" lon="10.312993">
        <ele>565.218022</ele>
        <time>2026-04-26T15:17:26.805Z</time>
      </trkpt>
      <trkpt lat="48.905576" lon="10.312880">
        <ele>565.152148</ele>
        <time>2026-04-26T15:17:28.123Z</time>
      </trkpt>
      <trkpt lat="48.905660" lon="10.312482">
        <ele>564.937596</ele>
        <time>2026-04-26T15:17:32.366Z</time>
      </trkpt>
      <trkpt lat="48.905695" lon="10.312195">
        <ele>564.767427</ele>
        <time>2026-04-26T15:17:35.281Z</time>
      </trkpt>
      <trkpt lat="48.905750" lon="10.311160">
        <ele>564.140996</ele>
        <time>2026-04-26T15:17:46.128Z</time>
      </trkpt>
      <trkpt lat="48.905764" lon="10.309492">
        <ele>563.903250</ele>
        <time>2026-04-26T15:18:10.916Z</time>
      </trkpt>
      <trkpt lat="48.905858" lon="10.307960">
        <ele>569.003817</ele>
        <time>2026-04-26T15:18:36.920Z</time>
      </trkpt>
      <trkpt lat="48.905931" lon="10.306874">
        <ele>572.876578</ele>
        <time>2026-04-26T15:18:58.376Z</time>
      </trkpt>
      <trkpt lat="48.906078" lon="10.304919">
        <ele>584.948022</ele>
        <time>2026-04-26T15:19:44.512Z</time>
      </trkpt>
      <trkpt lat="48.906212" lon="10.303942">
        <ele>590.134103</ele>
        <time>2026-04-26T15:20:08.920Z</time>
      </trkpt>
      <trkpt lat="48.906413" lon="10.302800">
        <ele>593.920481</ele>
        <time>2026-04-26T15:20:32.685Z</time>
      </trkpt>
      <trkpt lat="48.906415" lon="10.302553">
        <ele>594.711614</ele>
        <time>2026-04-26T15:20:36.799Z</time>
      </trkpt>
      <trkpt lat="48.906370" lon="10.302378">
        <ele>595.313456</ele>
        <time>2026-04-26T15:20:39.791Z</time>
      </trkpt>
      <trkpt lat="48.906274" lon="10.302212">
        <ele>596.021597</ele>
        <time>2026-04-26T15:20:43.181Z</time>
      </trkpt>
      <trkpt lat="48.905244" lon="10.301457">
        <ele>595.751388</ele>
        <time>2026-04-26T15:21:04.698Z</time>
      </trkpt>
      <trkpt lat="48.905091" lon="10.301273">
        <ele>595.208481</ele>
        <time>2026-04-26T15:21:07.843Z</time>
      </trkpt>
      <trkpt lat="48.904943" lon="10.301058">
        <ele>594.638833</ele>
        <time>2026-04-26T15:21:11.100Z</time>
      </trkpt>
      <trkpt lat="48.904849" lon="10.300830">
        <ele>594.146375</ele>
        <time>2026-04-26T15:21:13.894Z</time>
      </trkpt>
      <trkpt lat="48.904763" lon="10.300536">
        <ele>593.557558</ele>
        <time>2026-04-26T15:21:17.217Z</time>
      </trkpt>
      <trkpt lat="48.904711" lon="10.300183">
        <ele>592.895627</ele>
        <time>2026-04-26T15:21:20.890Z</time>
      </trkpt>
      <trkpt lat="48.904702" lon="10.299781">
        <ele>591.525362</ele>
        <time>2026-04-26T15:21:24.928Z</time>
      </trkpt>
      <trkpt lat="48.904760" lon="10.298593">
        <ele>587.394476</ele>
        <time>2026-04-26T15:21:36.475Z</time>
      </trkpt>
      <trkpt lat="48.904735" lon="10.298046">
        <ele>585.493107</ele>
        <time>2026-04-26T15:21:41.749Z</time>
      </trkpt>
      <trkpt lat="48.904649" lon="10.297514">
        <ele>583.593360</ele>
        <time>2026-04-26T15:21:47.069Z</time>
      </trkpt>
      <trkpt lat="48.904246" lon="10.296618">
        <ele>582.073407</ele>
        <time>2026-04-26T15:21:58.222Z</time>
      </trkpt>
      <trkpt lat="48.904000" lon="10.296069">
        <ele>581.225919</ele>
        <time>2026-04-26T15:22:06.119Z</time>
      </trkpt>
      <trkpt lat="48.903823" lon="10.295747">
        <ele>580.690514</ele>
        <time>2026-04-26T15:22:11.703Z</time>
      </trkpt>
      <trkpt lat="48.903629" lon="10.295503">
        <ele>580.202067</ele>
        <time>2026-04-26T15:22:17.067Z</time>
      </trkpt>
      <trkpt lat="48.903448" lon="10.295343">
        <ele>579.968354</ele>
        <time>2026-04-26T15:22:21.673Z</time>
      </trkpt>
      <trkpt lat="48.902594" lon="10.294852">
        <ele>581.465911</ele>
        <time>2026-04-26T15:22:43.000Z</time>
      </trkpt>
      <trkpt lat="48.902311" lon="10.294575">
        <ele>582.017914</ele>
        <time>2026-04-26T15:22:50.766Z</time>
      </trkpt>
      <trkpt lat="48.902127" lon="10.294314">
        <ele>582.430588</ele>
        <time>2026-04-26T15:22:56.576Z</time>
      </trkpt>
      <trkpt lat="48.901919" lon="10.293797">
        <ele>583.347802</ele>
        <time>2026-04-26T15:23:05.801Z</time>
      </trkpt>
      <trkpt lat="48.901848" lon="10.293515">
        <ele>584.024559</ele>
        <time>2026-04-26T15:23:10.401Z</time>
      </trkpt>
      <trkpt lat="48.901778" lon="10.292061">
        <ele>587.291837</ele>
        <time>2026-04-26T15:23:33.355Z</time>
      </trkpt>
      <trkpt lat="48.901711" lon="10.291675">
        <ele>588.186550</ele>
        <time>2026-04-26T15:23:40.258Z</time>
      </trkpt>
      <trkpt lat="48.901582" lon="10.291265">
        <ele>589.367882</ele>
        <time>2026-04-26T15:23:48.682Z</time>
      </trkpt>
      <trkpt lat="48.901271" lon="10.290705">
        <ele>592.155614</ele>
        <time>2026-04-26T15:24:03.268Z</time>
      </trkpt>
      <trkpt lat="48.900766" lon="10.289888">
        <ele>596.420173</ele>
        <time>2026-04-26T15:24:25.430Z</time>
      </trkpt>
      <trkpt lat="48.900531" lon="10.289520">
        <ele>598.371171</ele>
        <time>2026-04-26T15:24:34.682Z</time>
      </trkpt>
      <trkpt lat="48.900252" lon="10.289225">
        <ele>599.455919</ele>
        <time>2026-04-26T15:24:43.317Z</time>
      </trkpt>
      <trkpt lat="48.900024" lon="10.289111">
        <ele>599.570612</ele>
        <time>2026-04-26T15:24:49.003Z</time>
      </trkpt>
      <trkpt lat="48.899421" lon="10.288892">
        <ele>599.866876</ele>
        <time>2026-04-26T15:25:02.385Z</time>
      </trkpt>
      <trkpt lat="48.899049" lon="10.288672">
        <ele>600.057612</ele>
        <time>2026-04-26T15:25:09.880Z</time>
      </trkpt>
      <trkpt lat="48.898230" lon="10.288076">
        <ele>600.102050</ele>
        <time>2026-04-26T15:25:26.089Z</time>
      </trkpt>
      <trkpt lat="48.897984" lon="10.287984">
        <ele>600.038468</ele>
        <time>2026-04-26T15:25:30.991Z</time>
      </trkpt>
      <trkpt lat="48.897866" lon="10.287975">
        <ele>600.008814</ele>
        <time>2026-04-26T15:25:33.355Z</time>
      </trkpt>
      <trkpt lat="48.897611" lon="10.288037">
        <ele>599.944000</ele>
        <time>2026-04-26T15:25:38.654Z</time>
      </trkpt>
      <trkpt lat="48.895838" lon="10.289167">
        <ele>601.260127</ele>
        <time>2026-04-26T15:26:22.623Z</time>
      </trkpt>
      <trkpt lat="48.895391" lon="10.289426">
        <ele>601.808186</ele>
        <time>2026-04-26T15:26:33.579Z</time>
      </trkpt>
      <trkpt lat="48.894537" lon="10.289897">
        <ele>600.084017</ele>
        <time>2026-04-26T15:26:52.300Z</time>
      </trkpt>
      <trkpt lat="48.894118" lon="10.290019">
        <ele>599.225966</ele>
        <time>2026-04-26T15:26:59.482Z</time>
      </trkpt>
      <trkpt lat="48.893754" lon="10.290043">
        <ele>598.493154</ele>
        <time>2026-04-26T15:27:05.161Z</time>
      </trkpt>
      <trkpt lat="48.893331" lon="10.289968">
        <ele>596.692592</ele>
        <time>2026-04-26T15:27:11.436Z</time>
      </trkpt>
      <trkpt lat="48.892947" lon="10.289835">
        <ele>594.635796</ele>
        <time>2026-04-26T15:27:17.172Z</time>
      </trkpt>
      <trkpt lat="48.892402" lon="10.289670">
        <ele>591.733671</ele>
        <time>2026-04-26T15:27:25.336Z</time>
      </trkpt>
      <trkpt lat="48.891984" lon="10.289663">
        <ele>589.550516</ele>
        <time>2026-04-26T15:27:31.679Z</time>
      </trkpt>
      <trkpt lat="48.891648" lon="10.289798">
        <ele>588.011807</ele>
        <time>2026-04-26T15:27:37.109Z</time>
      </trkpt>
      <trkpt lat="48.890978" lon="10.290265">
        <ele>585.130458</ele>
        <time>2026-04-26T15:27:49.095Z</time>
      </trkpt>
      <trkpt lat="48.890789" lon="10.290366">
        <ele>584.347273</ele>
        <time>2026-04-26T15:27:52.347Z</time>
      </trkpt>
      <trkpt lat="48.890538" lon="10.290429">
        <ele>583.352708</ele>
        <time>2026-04-26T15:27:56.395Z</time>
      </trkpt>
      <trkpt lat="48.890270" lon="10.290429">
        <ele>582.304953</ele>
        <time>2026-04-26T15:28:00.593Z</time>
      </trkpt>
      <trkpt lat="48.889872" lon="10.290348">
        <ele>580.357071</ele>
        <time>2026-04-26T15:28:06.732Z</time>
      </trkpt>
      <trkpt lat="48.889060" lon="10.290115">
        <ele>575.982469</ele>
        <time>2026-04-26T15:28:19.025Z</time>
      </trkpt>
      <trkpt lat="48.887932" lon="10.290277">
        <ele>570.502398</ele>
        <time>2026-04-26T15:28:35.789Z</time>
      </trkpt>
      <trkpt lat="48.887445" lon="10.290245">
        <ele>568.504143</ele>
        <time>2026-04-26T15:28:43.115Z</time>
      </trkpt>
      <trkpt lat="48.886907" lon="10.290115">
        <ele>566.271019</ele>
        <time>2026-04-26T15:28:51.652Z</time>
      </trkpt>
      <trkpt lat="48.886393" lon="10.289878">
        <ele>564.742620</ele>
        <time>2026-04-26T15:29:01.271Z</time>
      </trkpt>
      <trkpt lat="48.886346" lon="10.289855">
        <ele>564.702880</ele>
        <time>2026-04-26T15:29:02.232Z</time>
      </trkpt>
      <trkpt lat="48.886051" lon="10.289750">
        <ele>564.459019</ele>
        <time>2026-04-26T15:29:08.339Z</time>
      </trkpt>
      <trkpt lat="48.886001" lon="10.289743">
        <ele>564.418604</ele>
        <time>2026-04-26T15:29:09.391Z</time>
      </trkpt>
      <trkpt lat="48.885814" lon="10.289717">
        <ele>564.267460</ele>
        <time>2026-04-26T15:29:13.351Z</time>
      </trkpt>
      <trkpt lat="48.885478" lon="10.289714">
        <ele>563.997010</ele>
        <time>2026-04-26T15:29:20.536Z</time>
      </trkpt>
      <trkpt lat="48.885329" lon="10.289777">
        <ele>563.872532</ele>
        <time>2026-04-26T15:29:23.877Z</time>
      </trkpt>
      <trkpt lat="48.885202" lon="10.289882">
        <ele>563.756180</ele>
        <time>2026-04-26T15:29:27.023Z</time>
      </trkpt>
      <trkpt lat="48.885038" lon="10.290155">
        <ele>563.560468</ele>
        <time>2026-04-26T15:29:32.193Z</time>
      </trkpt>
      <trkpt lat="48.884422" lon="10.291237">
        <ele>561.252689</ele>
        <time>2026-04-26T15:29:48.527Z</time>
      </trkpt>
      <trkpt lat="48.884297" lon="10.291564">
        <ele>560.579706</ele>
        <time>2026-04-26T15:29:52.494Z</time>
      </trkpt>
      <trkpt lat="48.884228" lon="10.291798">
        <ele>560.123415</ele>
        <time>2026-04-26T15:29:55.180Z</time>
      </trkpt>
      <trkpt lat="48.884116" lon="10.292112">
        <ele>559.487828</ele>
        <time>2026-04-26T15:29:58.913Z</time>
      </trkpt>
      <trkpt lat="48.883894" lon="10.292534">
        <ele>558.517084</ele>
        <time>2026-04-26T15:30:04.603Z</time>
      </trkpt>
      <trkpt lat="48.883541" lon="10.293236">
        <ele>556.727331</ele>
        <time>2026-04-26T15:30:14.011Z</time>
      </trkpt>
      <trkpt lat="48.883350" lon="10.293494">
        <ele>555.940534</ele>
        <time>2026-04-26T15:30:18.260Z</time>
      </trkpt>
      <trkpt lat="48.883038" lon="10.293425">
        <ele>554.969530</ele>
        <time>2026-04-26T15:30:23.517Z</time>
      </trkpt>
      <trkpt lat="48.882682" lon="10.293191">
        <ele>553.775084</ele>
        <time>2026-04-26T15:30:29.935Z</time>
      </trkpt>
      <trkpt lat="48.882476" lon="10.293091">
        <ele>553.109104</ele>
        <time>2026-04-26T15:30:33.523Z</time>
      </trkpt>
      <trkpt lat="48.882253" lon="10.293039">
        <ele>552.436871</ele>
        <time>2026-04-26T15:30:37.261Z</time>
      </trkpt>
      <trkpt lat="48.882041" lon="10.293107">
        <ele>551.793178</ele>
        <time>2026-04-26T15:30:40.815Z</time>
      </trkpt>
      <trkpt lat="48.881765" lon="10.293406">
        <ele>550.786401</ele>
        <time>2026-04-26T15:30:46.354Z</time>
      </trkpt>
      <trkpt lat="48.881571" lon="10.293942">
        <ele>549.591074</ele>
        <time>2026-04-26T15:30:53.008Z</time>
      </trkpt>
      <trkpt lat="48.881395" lon="10.294379">
        <ele>548.589902</ele>
        <time>2026-04-26T15:30:58.618Z</time>
      </trkpt>
      <trkpt lat="48.881301" lon="10.294859">
        <ele>547.602952</ele>
        <time>2026-04-26T15:31:04.087Z</time>
      </trkpt>
      <trkpt lat="48.881136" lon="10.295445">
        <ele>546.250291</ele>
        <time>2026-04-26T15:31:10.992Z</time>
      </trkpt>
      <trkpt lat="48.880984" lon="10.295754">
        <ele>545.431459</ele>
        <time>2026-04-26T15:31:15.085Z</time>
      </trkpt>
      <trkpt lat="48.880831" lon="10.296029">
        <ele>544.667093</ele>
        <time>2026-04-26T15:31:18.873Z</time>
      </trkpt>
      <trkpt lat="48.880617" lon="10.296278">
        <ele>543.797610</ele>
        <time>2026-04-26T15:31:23.177Z</time>
      </trkpt>
      <trkpt lat="48.880235" lon="10.296638">
        <ele>542.347469</ele>
        <time>2026-04-26T15:31:30.433Z</time>
      </trkpt>
      <trkpt lat="48.879800" lon="10.296981">
        <ele>541.184328</ele>
        <time>2026-04-26T15:31:38.480Z</time>
      </trkpt>
      <trkpt lat="48.879726" lon="10.297048">
        <ele>541.008359</ele>
        <time>2026-04-26T15:31:39.934Z</time>
      </trkpt>
      <trkpt lat="48.879498" lon="10.297245">
        <ele>540.472558</ele>
        <time>2026-04-26T15:31:44.427Z</time>
      </trkpt>
      <trkpt lat="48.879076" lon="10.297763">
        <ele>539.364454</ele>
        <time>2026-04-26T15:31:54.223Z</time>
      </trkpt>
      <trkpt lat="48.878811" lon="10.297978">
        <ele>538.750757</ele>
        <time>2026-04-26T15:31:59.926Z</time>
      </trkpt>
      <trkpt lat="48.878624" lon="10.298192">
        <ele>538.272563</ele>
        <time>2026-04-26T15:32:04.373Z</time>
      </trkpt>
      <trkpt lat="48.878483" lon="10.298450">
        <ele>537.910627</ele>
        <time>2026-04-26T15:32:08.506Z</time>
      </trkpt>
      <trkpt lat="48.877829" lon="10.300809">
        <ele>535.242151</ele>
        <time>2026-04-26T15:32:38.933Z</time>
      </trkpt>
      <trkpt lat="48.877728" lon="10.301097">
        <ele>534.961000</ele>
        <time>2026-04-26T15:32:42.768Z</time>
      </trkpt>
      <trkpt lat="48.877214" lon="10.302031">
        <ele>533.911928</ele>
        <time>2026-04-26T15:32:57.750Z</time>
      </trkpt>
      <trkpt lat="48.877187" lon="10.302095">
        <ele>533.846429</ele>
        <time>2026-04-26T15:32:58.723Z</time>
      </trkpt>
      <trkpt lat="48.877111" lon="10.302269">
        <ele>533.666499</ele>
        <time>2026-04-26T15:33:01.389Z</time>
      </trkpt>
      <trkpt lat="48.876635" lon="10.303725">
        <ele>531.855379</ele>
        <time>2026-04-26T15:33:21.919Z</time>
      </trkpt>
      <trkpt lat="48.876491" lon="10.304149">
        <ele>531.213826</ele>
        <time>2026-04-26T15:33:27.906Z</time>
      </trkpt>
      <trkpt lat="48.875550" lon="10.307515">
        <ele>524.923270</ele>
        <time>2026-04-26T15:34:10.022Z</time>
      </trkpt>
      <trkpt lat="48.875072" lon="10.309225">
        <ele>521.154247</ele>
        <time>2026-04-26T15:34:30.488Z</time>
      </trkpt>
      <trkpt lat="48.875034" lon="10.309407">
        <ele>520.761938</ele>
        <time>2026-04-26T15:34:32.605Z</time>
      </trkpt>
      <trkpt lat="48.875019" lon="10.309938">
        <ele>519.669988</ele>
        <time>2026-04-26T15:34:38.525Z</time>
      </trkpt>
      <trkpt lat="48.871362" lon="10.311142">
        <ele>510.612200</ele>
        <time>2026-04-26T15:35:46.567Z</time>
      </trkpt>
      <trkpt lat="48.871129" lon="10.311335">
        <ele>509.963135</ele>
        <time>2026-04-26T15:35:51.140Z</time>
      </trkpt>
      <trkpt lat="48.870999" lon="10.311532">
        <ele>509.353269</ele>
        <time>2026-04-26T15:35:54.252Z</time>
      </trkpt>
      <trkpt lat="48.870551" lon="10.312506">
        <ele>506.713469</ele>
        <time>2026-04-26T15:36:07.219Z</time>
      </trkpt>
      <trkpt lat="48.870429" lon="10.312633">
        <ele>506.214187</ele>
        <time>2026-04-26T15:36:09.660Z</time>
      </trkpt>
      <trkpt lat="48.870322" lon="10.312649">
        <ele>505.851132</ele>
        <time>2026-04-26T15:36:11.450Z</time>
      </trkpt>
      <trkpt lat="48.870208" lon="10.312605">
        <ele>505.453971</ele>
        <time>2026-04-26T15:36:13.407Z</time>
      </trkpt>
      <trkpt lat="48.869280" lon="10.311887">
        <ele>502.714717</ele>
        <time>2026-04-26T15:36:31.422Z</time>
      </trkpt>
      <trkpt lat="48.868977" lon="10.311769">
        <ele>502.084624</ele>
        <time>2026-04-26T15:36:37.241Z</time>
      </trkpt>
      <trkpt lat="48.868817" lon="10.311746">
        <ele>501.760871</ele>
        <time>2026-04-26T15:36:40.299Z</time>
      </trkpt>
      <trkpt lat="48.868624" lon="10.311774">
        <ele>501.370312</ele>
        <time>2026-04-26T15:36:44.033Z</time>
      </trkpt>
      <trkpt lat="48.867533" lon="10.312118">
        <ele>499.439637</ele>
        <time>2026-04-26T15:37:06.012Z</time>
      </trkpt>
      <trkpt lat="48.867098" lon="10.312302">
        <ele>498.786251</ele>
        <time>2026-04-26T15:37:14.742Z</time>
      </trkpt>
      <trkpt lat="48.866307" lon="10.312728">
        <ele>497.558667</ele>
        <time>2026-04-26T15:37:30.824Z</time>
      </trkpt>
      <trkpt lat="48.865923" lon="10.312977">
        <ele>496.832343</ele>
        <time>2026-04-26T15:37:38.790Z</time>
      </trkpt>
      <trkpt lat="48.865283" lon="10.313495">
        <ele>495.570881</ele>
        <time>2026-04-26T15:37:52.384Z</time>
      </trkpt>
      <trkpt lat="48.864850" lon="10.313867">
        <ele>494.705561</ele>
        <time>2026-04-26T15:38:01.680Z</time>
      </trkpt>
      <trkpt lat="48.864643" lon="10.313937">
        <ele>494.421203</ele>
        <time>2026-04-26T15:38:05.651Z</time>
      </trkpt>
      <trkpt lat="48.864523" lon="10.313940">
        <ele>494.315384</ele>
        <time>2026-04-26T15:38:07.881Z</time>
      </trkpt>
      <trkpt lat="48.864394" lon="10.313963">
        <ele>494.200864</ele>
        <time>2026-04-26T15:38:10.296Z</time>
      </trkpt>
      <trkpt lat="48.864269" lon="10.314039">
        <ele>494.082163</ele>
        <time>2026-04-26T15:38:12.790Z</time>
      </trkpt>
      <trkpt lat="48.863755" lon="10.314588">
        <ele>493.528279</ele>
        <time>2026-04-26T15:38:24.967Z</time>
      </trkpt>
      <trkpt lat="48.863597" lon="10.314639">
        <ele>493.385864</ele>
        <time>2026-04-26T15:38:28.349Z</time>
      </trkpt>
      <trkpt lat="48.863136" lon="10.314572">
        <ele>492.977546</ele>
        <time>2026-04-26T15:38:38.970Z</time>
      </trkpt>
      <trkpt lat="48.862465" lon="10.314632">
        <ele>492.715544</ele>
        <time>2026-04-26T15:38:54.032Z</time>
      </trkpt>
      <trkpt lat="48.862095" lon="10.314786">
        <ele>492.585434</ele>
        <time>2026-04-26T15:39:01.968Z</time>
      </trkpt>
      <trkpt lat="48.861980" lon="10.314908">
        <ele>492.537870</ele>
        <time>2026-04-26T15:39:04.864Z</time>
      </trkpt>
      <trkpt lat="48.861979" lon="10.315219">
        <ele>492.468476</ele>
        <time>2026-04-26T15:39:09.015Z</time>
      </trkpt>
      <trkpt lat="48.861649" lon="10.316052">
        <ele>492.403172</ele>
        <time>2026-04-26T15:39:22.211Z</time>
      </trkpt>
      <trkpt lat="48.861496" lon="10.316345">
        <ele>492.528265</ele>
        <time>2026-04-26T15:39:27.665Z</time>
      </trkpt>
      <trkpt lat="48.861354" lon="10.316619">
        <ele>492.644907</ele>
        <time>2026-04-26T15:39:32.731Z</time>
      </trkpt>
      <trkpt lat="48.861212" lon="10.316745">
        <ele>492.728485</ele>
        <time>2026-04-26T15:39:36.406Z</time>
      </trkpt>
      <trkpt lat="48.860895" lon="10.316370">
        <ele>492.932665</ele>
        <time>2026-04-26T15:39:45.497Z</time>
      </trkpt>
      <trkpt lat="48.860805" lon="10.316278">
        <ele>492.987795</ele>
        <time>2026-04-26T15:39:48.025Z</time>
      </trkpt>
      <trkpt lat="48.860698" lon="10.316222">
        <ele>493.045318</ele>
        <time>2026-04-26T15:39:50.644Z</time>
      </trkpt>
      <trkpt lat="48.860451" lon="10.316573">
        <ele>493.217192</ele>
        <time>2026-04-26T15:39:58.234Z</time>
      </trkpt>
      <trkpt lat="48.860420" lon="10.316613">
        <ele>493.225398</ele>
        <time>2026-04-26T15:39:59.115Z</time>
      </trkpt>
      <trkpt lat="48.859868" lon="10.317346">
        <ele>493.190449</ele>
        <time>2026-04-26T15:40:15.044Z</time>
      </trkpt>
      <trkpt lat="48.859630" lon="10.317558">
        <ele>493.177296</ele>
        <time>2026-04-26T15:40:20.121Z</time>
      </trkpt>
      <trkpt lat="48.859470" lon="10.317687">
        <ele>493.168660</ele>
        <time>2026-04-26T15:40:23.622Z</time>
      </trkpt>
      <trkpt lat="48.859382" lon="10.317782">
        <ele>493.163514</ele>
        <time>2026-04-26T15:40:25.729Z</time>
      </trkpt>
      <trkpt lat="48.859234" lon="10.317925">
        <ele>493.155152</ele>
        <time>2026-04-26T15:40:29.227Z</time>
      </trkpt>
      <trkpt lat="48.858914" lon="10.317540">
        <ele>493.290671</ele>
        <time>2026-04-26T15:40:37.844Z</time>
      </trkpt>
      <trkpt lat="48.858725" lon="10.317308">
        <ele>493.637138</ele>
        <time>2026-04-26T15:40:43.199Z</time>
      </trkpt>
      <trkpt lat="48.858526" lon="10.317001">
        <ele>494.041517</ele>
        <time>2026-04-26T15:40:49.622Z</time>
      </trkpt>
      <trkpt lat="48.858290" lon="10.316688">
        <ele>494.488209</ele>
        <time>2026-04-26T15:40:56.851Z</time>
      </trkpt>
      <trkpt lat="48.858103" lon="10.316518">
        <ele>494.798964</ele>
        <time>2026-04-26T15:41:01.944Z</time>
      </trkpt>
      <trkpt lat="48.857853" lon="10.316406">
        <ele>495.170668</ele>
        <time>2026-04-26T15:41:07.990Z</time>
      </trkpt>
      <trkpt lat="48.857374" lon="10.316321">
        <ele>495.973957</ele>
        <time>2026-04-26T15:41:19.306Z</time>
      </trkpt>
      <trkpt lat="48.857124" lon="10.316190">
        <ele>496.636616</ele>
        <time>2026-04-26T15:41:25.648Z</time>
      </trkpt>
      <trkpt lat="48.857004" lon="10.316253">
        <ele>496.954756</ele>
        <time>2026-04-26T15:41:28.707Z</time>
      </trkpt>
      <trkpt lat="48.856942" lon="10.316118">
        <ele>497.226196</ele>
        <time>2026-04-26T15:41:31.302Z</time>
      </trkpt>
      <trkpt lat="48.856789" lon="10.315767">
        <ele>497.920383</ele>
        <time>2026-04-26T15:41:37.995Z</time>
      </trkpt>
      <trkpt lat="48.856709" lon="10.315593">
        <ele>498.270367</ele>
        <time>2026-04-26T15:41:41.342Z</time>
      </trkpt>
      <trkpt lat="48.856599" lon="10.315345">
        <ele>498.763490</ele>
        <time>2026-04-26T15:41:45.997Z</time>
      </trkpt>
      <trkpt lat="48.856475" lon="10.315043">
        <ele>499.350413</ele>
        <time>2026-04-26T15:41:51.470Z</time>
      </trkpt>
      <trkpt lat="48.856161" lon="10.314395">
        <ele>500.553949</ele>
        <time>2026-04-26T15:42:04.031Z</time>
      </trkpt>
      <trkpt lat="48.855775" lon="10.313659">
        <ele>501.693491</ele>
        <time>2026-04-26T15:42:19.139Z</time>
      </trkpt>
      <trkpt lat="48.855657" lon="10.313337">
        <ele>502.139736</ele>
        <time>2026-04-26T15:42:24.715Z</time>
      </trkpt>
      <trkpt lat="48.855546" lon="10.312964">
        <ele>502.635382</ele>
        <time>2026-04-26T15:42:30.621Z</time>
      </trkpt>
      <trkpt lat="48.855519" lon="10.312877">
        <ele>502.751845</ele>
        <time>2026-04-26T15:42:31.949Z</time>
      </trkpt>
      <trkpt lat="48.855327" lon="10.312459">
        <ele>503.369056</ele>
        <time>2026-04-26T15:42:39.139Z</time>
      </trkpt>
      <trkpt lat="48.855388" lon="10.312326">
        <ele>503.580513</ele>
        <time>2026-04-26T15:42:41.554Z</time>
      </trkpt>
      <trkpt lat="48.855657" lon="10.311442">
        <ele>505.180067</ele>
        <time>2026-04-26T15:42:56.625Z</time>
      </trkpt>
      <trkpt lat="48.855673" lon="10.311239">
        <ele>505.515839</ele>
        <time>2026-04-26T15:42:59.772Z</time>
      </trkpt>
      <trkpt lat="48.855640" lon="10.311000">
        <ele>505.916901</ele>
        <time>2026-04-26T15:43:03.524Z</time>
      </trkpt>
      <trkpt lat="48.855587" lon="10.310585">
        <ele>506.611181</ele>
        <time>2026-04-26T15:43:12.843Z</time>
      </trkpt>
      <trkpt lat="48.855579" lon="10.310215">
        <ele>507.219164</ele>
        <time>2026-04-26T15:43:21.065Z</time>
      </trkpt>
      <trkpt lat="48.855624" lon="10.309966">
        <ele>507.643245</ele>
        <time>2026-04-26T15:43:26.901Z</time>
      </trkpt>
      <trkpt lat="48.855697" lon="10.309748">
        <ele>508.052988</ele>
        <time>2026-04-26T15:43:32.534Z</time>
      </trkpt>
      <trkpt lat="48.855821" lon="10.309420">
        <ele>508.826891</ele>
        <time>2026-04-26T15:43:41.360Z</time>
      </trkpt>
      <trkpt lat="48.857203" lon="10.306818">
        <ele>514.738275</ele>
        <time>2026-04-26T15:44:55.183Z</time>
      </trkpt>
      <trkpt lat="48.857544" lon="10.306242">
        <ele>515.609096</ele>
        <time>2026-04-26T15:45:12.466Z</time>
      </trkpt>
      <trkpt lat="48.857861" lon="10.305607">
        <ele>516.504913</ele>
        <time>2026-04-26T15:45:30.481Z</time>
      </trkpt>
      <trkpt lat="48.858119" lon="10.304952">
        <ele>517.923046</ele>
        <time>2026-04-26T15:45:47.562Z</time>
      </trkpt>
      <trkpt lat="48.858272" lon="10.304450">
        <ele>519.052814</ele>
        <time>2026-04-26T15:45:59.739Z</time>
      </trkpt>
      <trkpt lat="48.858370" lon="10.304022">
        <ele>519.978232</ele>
        <time>2026-04-26T15:46:09.866Z</time>
      </trkpt>
      <trkpt lat="48.858427" lon="10.303605">
        <ele>520.847954</ele>
        <time>2026-04-26T15:46:19.939Z</time>
      </trkpt>
      <trkpt lat="48.858428" lon="10.303259">
        <ele>521.554512</ele>
        <time>2026-04-26T15:46:28.393Z</time>
      </trkpt>
      <trkpt lat="48.858290" lon="10.302826">
        <ele>522.190277</ele>
        <time>2026-04-26T15:46:39.511Z</time>
      </trkpt>
      <trkpt lat="48.858118" lon="10.302449">
        <ele>521.955000</ele>
        <time>2026-04-26T15:46:49.656Z</time>
      </trkpt>
      <trkpt lat="48.858095" lon="10.302361">
        <ele>521.906440</ele>
        <time>2026-04-26T15:46:51.758Z</time>
      </trkpt>
      <trkpt lat="48.858093" lon="10.302219">
        <ele>521.833600</ele>
        <time>2026-04-26T15:46:54.898Z</time>
      </trkpt>
      <trkpt lat="48.858122" lon="10.302087">
        <ele>521.762231</ele>
        <time>2026-04-26T15:46:58.020Z</time>
      </trkpt>
      <trkpt lat="48.858166" lon="10.301988">
        <ele>521.700962</ele>
        <time>2026-04-26T15:47:00.726Z</time>
      </trkpt>
      <trkpt lat="48.858122" lon="10.302087">
        <ele>521.639692</ele>
        <time>2026-04-26T15:47:03.441Z</time>
      </trkpt>
      <trkpt lat="48.858093" lon="10.302219">
        <ele>521.568323</ele>
        <time>2026-04-26T15:47:06.521Z</time>
      </trkpt>
      <trkpt lat="48.858095" lon="10.302361">
        <ele>521.495483</ele>
        <time>2026-04-26T15:47:09.534Z</time>
      </trkpt>
      <trkpt lat="48.858118" lon="10.302449">
        <ele>521.446923</ele>
        <time>2026-04-26T15:47:11.471Z</time>
      </trkpt>
      <trkpt lat="48.858290" lon="10.302826">
        <ele>521.211646</ele>
        <time>2026-04-26T15:47:20.427Z</time>
      </trkpt>
      <trkpt lat="48.858428" lon="10.303259">
        <ele>520.964907</ele>
        <time>2026-04-26T15:47:29.194Z</time>
      </trkpt>
      <trkpt lat="48.858427" lon="10.303605">
        <ele>520.626291</ele>
        <time>2026-04-26T15:47:35.220Z</time>
      </trkpt>
      <trkpt lat="48.858370" lon="10.304022">
        <ele>519.907892</ele>
        <time>2026-04-26T15:47:42.783Z</time>
      </trkpt>
      <trkpt lat="48.858272" lon="10.304450">
        <ele>519.143486</ele>
        <time>2026-04-26T15:47:51.458Z</time>
      </trkpt>
      <trkpt lat="48.858119" lon="10.304952">
        <ele>518.210285</ele>
        <time>2026-04-26T15:48:02.843Z</time>
      </trkpt>
      <trkpt lat="48.857861" lon="10.305607">
        <ele>516.922580</ele>
        <time>2026-04-26T15:48:19.705Z</time>
      </trkpt>
      <trkpt lat="48.857544" lon="10.306242">
        <ele>515.718330</ele>
        <time>2026-04-26T15:48:37.846Z</time>
      </trkpt>
      <trkpt lat="48.857203" lon="10.306818">
        <ele>514.685583</ele>
        <time>2026-04-26T15:48:54.769Z</time>
      </trkpt>
      <trkpt lat="48.855821" lon="10.309420">
        <ele>508.874782</ele>
        <time>2026-04-26T15:50:00.912Z</time>
      </trkpt>
      <trkpt lat="48.855697" lon="10.309748">
        <ele>508.083105</ele>
        <time>2026-04-26T15:50:07.708Z</time>
      </trkpt>
      <trkpt lat="48.855624" lon="10.309966">
        <ele>507.571188</ele>
        <time>2026-04-26T15:50:12.172Z</time>
      </trkpt>
      <trkpt lat="48.855579" lon="10.310215">
        <ele>507.030782</ele>
        <time>2026-04-26T15:50:17.001Z</time>
      </trkpt>
      <trkpt lat="48.855587" lon="10.310585">
        <ele>507.045941</ele>
        <time>2026-04-26T15:50:24.163Z</time>
      </trkpt>
      <trkpt lat="48.855640" lon="10.311000">
        <ele>507.277811</ele>
        <time>2026-04-26T15:50:32.823Z</time>
      </trkpt>
      <trkpt lat="48.855673" lon="10.311239">
        <ele>507.411755</ele>
        <time>2026-04-26T15:50:35.839Z</time>
      </trkpt>
      <trkpt lat="48.855657" lon="10.311442">
        <ele>507.523894</ele>
        <time>2026-04-26T15:50:38.491Z</time>
      </trkpt>
      <trkpt lat="48.855388" lon="10.312326">
        <ele>508.058101</ele>
        <time>2026-04-26T15:50:53.232Z</time>
      </trkpt>
      <trkpt lat="48.855327" lon="10.312459">
        <ele>508.147025</ele>
        <time>2026-04-26T15:50:56.091Z</time>
      </trkpt>
      <trkpt lat="48.854925" lon="10.311928">
        <ele>509.797306</ele>
        <time>2026-04-26T15:51:10.860Z</time>
      </trkpt>
      <trkpt lat="48.854586" lon="10.311308">
        <ele>512.782688</ele>
        <time>2026-04-26T15:51:26.110Z</time>
      </trkpt>
      <trkpt lat="48.854436" lon="10.311023">
        <ele>514.134267</ele>
        <time>2026-04-26T15:51:33.109Z</time>
      </trkpt>
      <trkpt lat="48.854369" lon="10.310907">
        <ele>514.705891</ele>
        <time>2026-04-26T15:51:36.097Z</time>
      </trkpt>
      <trkpt lat="48.854302" lon="10.310822">
        <ele>515.197112</ele>
        <time>2026-04-26T15:51:38.615Z</time>
      </trkpt>
      <trkpt lat="48.854146" lon="10.310773">
        <ele>516.093701</ele>
        <time>2026-04-26T15:51:43.202Z</time>
      </trkpt>
      <trkpt lat="48.853788" lon="10.310817">
        <ele>518.115253</ele>
        <time>2026-04-26T15:51:53.172Z</time>
      </trkpt>
      <trkpt lat="48.853620" lon="10.310851">
        <ele>518.924772</ele>
        <time>2026-04-26T15:51:57.623Z</time>
      </trkpt>
      <trkpt lat="48.853367" lon="10.310819">
        <ele>519.988071</ele>
        <time>2026-04-26T15:52:04.149Z</time>
      </trkpt>
      <trkpt lat="48.851483" lon="10.310020">
        <ele>529.589113</ele>
        <time>2026-04-26T15:52:53.427Z</time>
      </trkpt>
      <trkpt lat="48.851008" lon="10.309786">
        <ele>533.055831</ele>
        <time>2026-04-26T15:53:07.767Z</time>
      </trkpt>
      <trkpt lat="48.850862" lon="10.309670">
        <ele>534.199636</ele>
        <time>2026-04-26T15:53:12.947Z</time>
      </trkpt>
      <trkpt lat="48.850608" lon="10.309375">
        <ele>536.419099</ele>
        <time>2026-04-26T15:53:23.733Z</time>
      </trkpt>
      <trkpt lat="48.849690" lon="10.307467">
        <ele>551.051713</ele>
        <time>2026-04-26T15:54:21.839Z</time>
      </trkpt>
      <trkpt lat="48.849320" lon="10.306841">
        <ele>556.580088</ele>
        <time>2026-04-26T15:54:41.261Z</time>
      </trkpt>
      <trkpt lat="48.849182" lon="10.306714">
        <ele>557.924640</ele>
        <time>2026-04-26T15:54:46.677Z</time>
      </trkpt>
      <trkpt lat="48.848803" lon="10.306469">
        <ele>561.357148</ele>
        <time>2026-04-26T15:54:59.978Z</time>
      </trkpt>
      <trkpt lat="48.848279" lon="10.305829">
        <ele>566.959871</ele>
        <time>2026-04-26T15:55:21.250Z</time>
      </trkpt>
      <trkpt lat="48.847425" lon="10.305030">
        <ele>575.052623</ele>
        <time>2026-04-26T15:55:54.028Z</time>
      </trkpt>
      <trkpt lat="48.846847" lon="10.304246">
        <ele>581.059491</ele>
        <time>2026-04-26T15:56:19.865Z</time>
      </trkpt>
      <trkpt lat="48.846786" lon="10.304025">
        <ele>582.282230</ele>
        <time>2026-04-26T15:56:25.009Z</time>
      </trkpt>
      <trkpt lat="48.846797" lon="10.302626">
        <ele>587.951133</ele>
        <time>2026-04-26T15:56:50.722Z</time>
      </trkpt>
      <trkpt lat="48.846700" lon="10.301970">
        <ele>590.109819</ele>
        <time>2026-04-26T15:57:01.700Z</time>
      </trkpt>
      <trkpt lat="48.846558" lon="10.301518">
        <ele>591.717912</ele>
        <time>2026-04-26T15:57:09.904Z</time>
      </trkpt>
      <trkpt lat="48.846381" lon="10.301003">
        <ele>593.583314</ele>
        <time>2026-04-26T15:57:19.656Z</time>
      </trkpt>
      <trkpt lat="48.846194" lon="10.300551">
        <ele>596.132267</ele>
        <time>2026-04-26T15:57:29.190Z</time>
      </trkpt>
      <trkpt lat="48.845991" lon="10.300243">
        <ele>598.628441</ele>
        <time>2026-04-26T15:57:37.853Z</time>
      </trkpt>
      <trkpt lat="48.844904" lon="10.298878">
        <ele>611.006878</ele>
        <time>2026-04-26T15:58:28.976Z</time>
      </trkpt>
      <trkpt lat="48.844492" lon="10.298249">
        <ele>616.629349</ele>
        <time>2026-04-26T15:58:50.112Z</time>
      </trkpt>
      <trkpt lat="48.844286" lon="10.298045">
        <ele>618.996486</ele>
        <time>2026-04-26T15:58:58.976Z</time>
      </trkpt>
      <trkpt lat="48.842790" lon="10.297280">
        <ele>631.586563</ele>
        <time>2026-04-26T15:59:53.334Z</time>
      </trkpt>
      <trkpt lat="48.842339" lon="10.297049">
        <ele>634.461364</ele>
        <time>2026-04-26T16:00:06.735Z</time>
      </trkpt>
      <trkpt lat="48.842255" lon="10.297100">
        <ele>635.007759</ele>
        <time>2026-04-26T16:00:09.077Z</time>
      </trkpt>
      <trkpt lat="48.842157" lon="10.297246">
        <ele>635.836779</ele>
        <time>2026-04-26T16:00:12.579Z</time>
      </trkpt>
      <trkpt lat="48.841766" lon="10.297930">
        <ele>638.158503</ele>
        <time>2026-04-26T16:00:26.588Z</time>
      </trkpt>
      <trkpt lat="48.841584" lon="10.298217">
        <ele>638.268631</ele>
        <time>2026-04-26T16:00:32.378Z</time>
      </trkpt>
      <trkpt lat="48.841358" lon="10.298503">
        <ele>638.392119</ele>
        <time>2026-04-26T16:00:38.629Z</time>
      </trkpt>
      <trkpt lat="48.840937" lon="10.298830">
        <ele>638.590634</ele>
        <time>2026-04-26T16:00:48.432Z</time>
      </trkpt>
      <trkpt lat="48.840542" lon="10.298990">
        <ele>638.762268</ele>
        <time>2026-04-26T16:00:56.775Z</time>
      </trkpt>
      <trkpt lat="48.840240" lon="10.299012">
        <ele>638.654079</ele>
        <time>2026-04-26T16:01:02.900Z</time>
      </trkpt>
      <trkpt lat="48.839378" lon="10.298956">
        <ele>637.819203</ele>
        <time>2026-04-26T16:01:20.091Z</time>
      </trkpt>
      <trkpt lat="48.839146" lon="10.298987">
        <ele>637.593842</ele>
        <time>2026-04-26T16:01:24.607Z</time>
      </trkpt>
      <trkpt lat="48.838860" lon="10.299100">
        <ele>637.307890</ele>
        <time>2026-04-26T16:01:30.173Z</time>
      </trkpt>
      <trkpt lat="48.838394" lon="10.299499">
        <ele>636.443724</ele>
        <time>2026-04-26T16:01:39.816Z</time>
      </trkpt>
      <trkpt lat="48.838053" lon="10.300011">
        <ele>635.420229</ele>
        <time>2026-04-26T16:01:48.077Z</time>
      </trkpt>
      <trkpt lat="48.837459" lon="10.300882">
        <ele>633.657849</ele>
        <time>2026-04-26T16:02:02.005Z</time>
      </trkpt>
      <trkpt lat="48.837253" lon="10.301110">
        <ele>633.225073</ele>
        <time>2026-04-26T16:02:06.444Z</time>
      </trkpt>
      <trkpt lat="48.836896" lon="10.301348">
        <ele>633.139938</ele>
        <time>2026-04-26T16:02:13.414Z</time>
      </trkpt>
      <trkpt lat="48.836725" lon="10.301420">
        <ele>633.101188</ele>
        <time>2026-04-26T16:02:16.679Z</time>
      </trkpt>
      <trkpt lat="48.835611" lon="10.301652">
        <ele>632.855643</ele>
        <time>2026-04-26T16:02:40.824Z</time>
      </trkpt>
      <trkpt lat="48.835165" lon="10.301815">
        <ele>633.931616</ele>
        <time>2026-04-26T16:02:51.741Z</time>
      </trkpt>
      <trkpt lat="48.834909" lon="10.301954">
        <ele>634.652324</ele>
        <time>2026-04-26T16:02:58.332Z</time>
      </trkpt>
      <trkpt lat="48.834283" lon="10.302490">
        <ele>636.557304</ele>
        <time>2026-04-26T16:03:15.998Z</time>
      </trkpt>
      <trkpt lat="48.833540" lon="10.303310">
        <ele>638.801136</ele>
        <time>2026-04-26T16:03:38.065Z</time>
      </trkpt>
      <trkpt lat="48.832042" lon="10.304904">
        <ele>643.349056</ele>
        <time>2026-04-26T16:04:20.834Z</time>
      </trkpt>
      <trkpt lat="48.831702" lon="10.305202">
        <ele>644.509814</ele>
        <time>2026-04-26T16:04:30.363Z</time>
      </trkpt>
      <trkpt lat="48.831320" lon="10.305459">
        <ele>645.745252</ele>
        <time>2026-04-26T16:04:40.761Z</time>
      </trkpt>
      <trkpt lat="48.830468" lon="10.305915">
        <ele>647.502780</ele>
        <time>2026-04-26T16:05:03.434Z</time>
      </trkpt>
      <trkpt lat="48.830417" lon="10.305943">
        <ele>647.556657</ele>
        <time>2026-04-26T16:05:04.736Z</time>
      </trkpt>
      <trkpt lat="48.830179" lon="10.306070">
        <ele>647.807275</ele>
        <time>2026-04-26T16:05:10.713Z</time>
      </trkpt>
      <trkpt lat="48.829961" lon="10.306173">
        <ele>648.034094</ele>
        <time>2026-04-26T16:05:15.950Z</time>
      </trkpt>
      <trkpt lat="48.829739" lon="10.306252">
        <ele>648.260624</ele>
        <time>2026-04-26T16:05:21.011Z</time>
      </trkpt>
      <trkpt lat="48.829565" lon="10.306303">
        <ele>648.436682</ele>
        <time>2026-04-26T16:05:24.678Z</time>
      </trkpt>
      <trkpt lat="48.829419" lon="10.306343">
        <ele>648.584075</ele>
        <time>2026-04-26T16:05:27.546Z</time>
      </trkpt>
      <trkpt lat="48.829073" lon="10.306407">
        <ele>648.366747</ele>
        <time>2026-04-26T16:05:33.535Z</time>
      </trkpt>
      <trkpt lat="48.828952" lon="10.306429">
        <ele>647.824878</ele>
        <time>2026-04-26T16:05:35.517Z</time>
      </trkpt>
      <trkpt lat="48.828932" lon="10.306433">
        <ele>647.735180</ele>
        <time>2026-04-26T16:05:35.844Z</time>
      </trkpt>
      <trkpt lat="48.828725" lon="10.306467">
        <ele>646.809386</ele>
        <time>2026-04-26T16:05:39.118Z</time>
      </trkpt>
      <trkpt lat="48.828394" lon="10.306516">
        <ele>645.330616</ele>
        <time>2026-04-26T16:05:44.205Z</time>
      </trkpt>
      <trkpt lat="48.828280" lon="10.306579">
        <ele>644.791209</ele>
        <time>2026-04-26T16:05:46.029Z</time>
      </trkpt>
      <trkpt lat="48.828142" lon="10.306763">
        <ele>643.974735</ele>
        <time>2026-04-26T16:05:48.760Z</time>
      </trkpt>
      <trkpt lat="48.828066" lon="10.307107">
        <ele>642.912575</ele>
        <time>2026-04-26T16:05:52.276Z</time>
      </trkpt>
      <trkpt lat="48.827974" lon="10.307528">
        <ele>641.614085</ele>
        <time>2026-04-26T16:05:56.574Z</time>
      </trkpt>
      <trkpt lat="48.827848" lon="10.307868">
        <ele>640.656288</ele>
        <time>2026-04-26T16:06:00.394Z</time>
      </trkpt>
      <trkpt lat="48.827750" lon="10.308002">
        <ele>640.372050</ele>
        <time>2026-04-26T16:06:02.376Z</time>
      </trkpt>
      <trkpt lat="48.827591" lon="10.308101">
        <ele>640.001622</ele>
        <time>2026-04-26T16:06:05.006Z</time>
      </trkpt>
      <trkpt lat="48.827443" lon="10.308170">
        <ele>639.667894</ele>
        <time>2026-04-26T16:06:07.446Z</time>
      </trkpt>
      <trkpt lat="48.827169" lon="10.308297">
        <ele>639.050355</ele>
        <time>2026-04-26T16:06:12.089Z</time>
      </trkpt>
      <trkpt lat="48.826628" lon="10.308301">
        <ele>637.884125</ele>
        <time>2026-04-26T16:06:21.537Z</time>
      </trkpt>
      <trkpt lat="48.825810" lon="10.308181">
        <ele>638.524958</ele>
        <time>2026-04-26T16:06:40.199Z</time>
      </trkpt>
      <trkpt lat="48.825822" lon="10.308351">
        <ele>638.979263</ele>
        <time>2026-04-26T16:06:42.950Z</time>
      </trkpt>
      <trkpt lat="48.824898" lon="10.308641">
        <ele>642.787377</ele>
        <time>2026-04-26T16:07:08.951Z</time>
      </trkpt>
      <trkpt lat="48.824390" lon="10.308757">
        <ele>644.185395</ele>
        <time>2026-04-26T16:07:23.417Z</time>
      </trkpt>
      <trkpt lat="48.824102" lon="10.308785">
        <ele>644.137780</ele>
        <time>2026-04-26T16:07:30.773Z</time>
      </trkpt>
      <trkpt lat="48.823483" lon="10.308665">
        <ele>644.034821</ele>
        <time>2026-04-26T16:07:45.079Z</time>
      </trkpt>
      <trkpt lat="48.822829" lon="10.307980">
        <ele>643.416407</ele>
        <time>2026-04-26T16:07:57.464Z</time>
      </trkpt>
      <trkpt lat="48.822354" lon="10.307349">
        <ele>638.864912</ele>
        <time>2026-04-26T16:08:06.345Z</time>
      </trkpt>
      <trkpt lat="48.822070" lon="10.307159">
        <ele>636.626621</ele>
        <time>2026-04-26T16:08:10.685Z</time>
      </trkpt>
      <trkpt lat="48.821699" lon="10.306989">
        <ele>633.831616</ele>
        <time>2026-04-26T16:08:16.086Z</time>
      </trkpt>
      <trkpt lat="48.819952" lon="10.306379">
        <ele>621.708044</ele>
        <time>2026-04-26T16:08:41.708Z</time>
      </trkpt>
      <trkpt lat="48.818616" lon="10.305834">
        <ele>614.175328</ele>
        <time>2026-04-26T16:09:02.423Z</time>
      </trkpt>
      <trkpt lat="48.817561" lon="10.305206">
        <ele>609.054304</ele>
        <time>2026-04-26T16:09:19.807Z</time>
      </trkpt>
      <trkpt lat="48.817177" lon="10.304973">
        <ele>607.656294</ele>
        <time>2026-04-26T16:09:26.323Z</time>
      </trkpt>
      <trkpt lat="48.816232" lon="10.304500">
        <ele>604.292387</ele>
        <time>2026-04-26T16:09:42.802Z</time>
      </trkpt>
      <trkpt lat="48.815759" lon="10.304382">
        <ele>603.155673</ele>
        <time>2026-04-26T16:09:51.045Z</time>
      </trkpt>
      <trkpt lat="48.815442" lon="10.304453">
        <ele>602.459571</ele>
        <time>2026-04-26T16:09:56.565Z</time>
      </trkpt>
      <trkpt lat="48.815203" lon="10.304583">
        <ele>601.908067</ele>
        <time>2026-04-26T16:10:00.960Z</time>
      </trkpt>
      <trkpt lat="48.815031" lon="10.304743">
        <ele>601.469884</ele>
        <time>2026-04-26T16:10:04.442Z</time>
      </trkpt>
      <trkpt lat="48.813988" lon="10.305367">
        <ele>599.415088</ele>
        <time>2026-04-26T16:10:24.534Z</time>
      </trkpt>
      <trkpt lat="48.813513" lon="10.305445">
        <ele>598.741671</ele>
        <time>2026-04-26T16:10:33.336Z</time>
      </trkpt>
      <trkpt lat="48.813065" lon="10.305360">
        <ele>598.105304</ele>
        <time>2026-04-26T16:10:41.955Z</time>
      </trkpt>
      <trkpt lat="48.812946" lon="10.305312">
        <ele>597.931757</ele>
        <time>2026-04-26T16:10:44.349Z</time>
      </trkpt>
      <trkpt lat="48.811490" lon="10.304719">
        <ele>596.332958</ele>
        <time>2026-04-26T16:11:12.973Z</time>
      </trkpt>
      <trkpt lat="48.810606" lon="10.303189">
        <ele>594.744459</ele>
        <time>2026-04-26T16:11:39.831Z</time>
      </trkpt>
      <trkpt lat="48.810344" lon="10.302860">
        <ele>594.297451</ele>
        <time>2026-04-26T16:11:46.368Z</time>
      </trkpt>
      <trkpt lat="48.809886" lon="10.302799">
        <ele>593.692961</ele>
        <time>2026-04-26T16:11:54.630Z</time>
      </trkpt>
      <trkpt lat="48.809117" lon="10.302376">
        <ele>591.228676</ele>
        <time>2026-04-26T16:12:08.406Z</time>
      </trkpt>
      <trkpt lat="48.808680" lon="10.302135">
        <ele>589.577074</ele>
        <time>2026-04-26T16:12:15.623Z</time>
      </trkpt>
      <trkpt lat="48.808073" lon="10.301218">
        <ele>586.601427</ele>
        <time>2026-04-26T16:12:28.926Z</time>
      </trkpt>
      <trkpt lat="48.807859" lon="10.301078">
        <ele>585.881132</ele>
        <time>2026-04-26T16:12:32.599Z</time>
      </trkpt>
      <trkpt lat="48.807741" lon="10.301055">
        <ele>585.513381</ele>
        <time>2026-04-26T16:12:34.472Z</time>
      </trkpt>
      <trkpt lat="48.807487" lon="10.301014">
        <ele>584.723801</ele>
        <time>2026-04-26T16:12:38.542Z</time>
      </trkpt>
      <trkpt lat="48.805742" lon="10.300955">
        <ele>579.973163</ele>
        <time>2026-04-26T16:13:08.353Z</time>
      </trkpt>
      <trkpt lat="48.804887" lon="10.300955">
        <ele>578.120634</ele>
        <time>2026-04-26T16:13:23.457Z</time>
      </trkpt>
      <trkpt lat="48.804461" lon="10.300993">
        <ele>577.222577</ele>
        <time>2026-04-26T16:13:30.864Z</time>
      </trkpt>
      <trkpt lat="48.803980" lon="10.301168">
        <ele>576.223617</ele>
        <time>2026-04-26T16:13:39.379Z</time>
      </trkpt>
      <trkpt lat="48.803173" lon="10.301546">
        <ele>574.517948</ele>
        <time>2026-04-26T16:13:54.153Z</time>
      </trkpt>
      <trkpt lat="48.802898" lon="10.301643">
        <ele>573.947953</ele>
        <time>2026-04-26T16:13:59.257Z</time>
      </trkpt>
      <trkpt lat="48.801931" lon="10.302128">
        <ele>571.952472</ele>
        <time>2026-04-26T16:14:17.712Z</time>
      </trkpt>
      <trkpt lat="48.801639" lon="10.302329">
        <ele>571.324256</ele>
        <time>2026-04-26T16:14:23.321Z</time>
      </trkpt>
      <trkpt lat="48.800709" lon="10.303391">
        <ele>568.777085</ele>
        <time>2026-04-26T16:14:43.073Z</time>
      </trkpt>
      <trkpt lat="48.799424" lon="10.304747">
        <ele>565.534029</ele>
        <time>2026-04-26T16:15:10.013Z</time>
      </trkpt>
      <trkpt lat="48.799024" lon="10.305058">
        <ele>564.876451</ele>
        <time>2026-04-26T16:15:18.268Z</time>
      </trkpt>
      <trkpt lat="48.798673" lon="10.305206">
        <ele>564.343421</ele>
        <time>2026-04-26T16:15:25.248Z</time>
      </trkpt>
      <trkpt lat="48.797205" lon="10.305386">
        <ele>562.398856</ele>
        <time>2026-04-26T16:15:54.236Z</time>
      </trkpt>
      <trkpt lat="48.796859" lon="10.305490">
        <ele>561.959943</ele>
        <time>2026-04-26T16:16:00.864Z</time>
      </trkpt>
      <trkpt lat="48.796528" lon="10.305649">
        <ele>561.527926</ele>
        <time>2026-04-26T16:16:07.095Z</time>
      </trkpt>
      <trkpt lat="48.795963" lon="10.306005">
        <ele>560.673583</ele>
        <time>2026-04-26T16:16:17.871Z</time>
      </trkpt>
      <trkpt lat="48.795974" lon="10.305492">
        <ele>560.186500</ele>
        <time>2026-04-26T16:16:23.652Z</time>
      </trkpt>
      <trkpt lat="48.795967" lon="10.305122">
        <ele>559.835234</ele>
        <time>2026-04-26T16:16:27.840Z</time>
      </trkpt>
      <trkpt lat="48.795501" lon="10.304895">
        <ele>559.130204</ele>
        <time>2026-04-26T16:16:37.319Z</time>
      </trkpt>
      <trkpt lat="48.795199" lon="10.304620">
        <ele>558.639994</ele>
        <time>2026-04-26T16:16:44.801Z</time>
      </trkpt>
      <trkpt lat="48.795185" lon="10.304556">
        <ele>558.583644</ele>
        <time>2026-04-26T16:16:46.047Z</time>
      </trkpt>
      <trkpt lat="48.795071" lon="10.304045">
        <ele>558.132833</ele>
        <time>2026-04-26T16:16:55.860Z</time>
      </trkpt>
      <trkpt lat="48.795008" lon="10.303596">
        <ele>557.749233</ele>
        <time>2026-04-26T16:17:02.027Z</time>
      </trkpt>
      <trkpt lat="48.794908" lon="10.302507">
        <ele>556.830466</ele>
        <time>2026-04-26T16:17:15.827Z</time>
      </trkpt>
      <trkpt lat="48.794907" lon="10.301901">
        <ele>556.048400</ele>
        <time>2026-04-26T16:17:22.356Z</time>
      </trkpt>
      <trkpt lat="48.794877" lon="10.301284">
        <ele>554.643677</ele>
        <time>2026-04-26T16:17:28.646Z</time>
      </trkpt>
      <trkpt lat="48.794822" lon="10.300882">
        <ele>553.711449</ele>
        <time>2026-04-26T16:17:32.829Z</time>
      </trkpt>
      <trkpt lat="48.794730" lon="10.300504">
        <ele>552.796486</ele>
        <time>2026-04-26T16:17:36.954Z</time>
      </trkpt>
      <trkpt lat="48.794384" lon="10.299584">
        <ele>550.391148</ele>
        <time>2026-04-26T16:17:48.267Z</time>
      </trkpt>
      <trkpt lat="48.794105" lon="10.299111">
        <ele>550.239752</ele>
        <time>2026-04-26T16:17:55.376Z</time>
      </trkpt>
      <trkpt lat="48.793808" lon="10.298866">
        <ele>550.200032</ele>
        <time>2026-04-26T16:18:01.434Z</time>
      </trkpt>
      <trkpt lat="48.793459" lon="10.298730">
        <ele>550.157693</ele>
        <time>2026-04-26T16:18:09.199Z</time>
      </trkpt>
      <trkpt lat="48.793302" lon="10.298756">
        <ele>550.139134</ele>
        <time>2026-04-26T16:18:12.824Z</time>
      </trkpt>
      <trkpt lat="48.792922" lon="10.298825">
        <ele>550.094163</ele>
        <time>2026-04-26T16:18:21.811Z</time>
      </trkpt>
      <trkpt lat="48.792741" lon="10.298912">
        <ele>550.080449</ele>
        <time>2026-04-26T16:18:26.347Z</time>
      </trkpt>
      <trkpt lat="48.792609" lon="10.298914">
        <ele>550.128930</ele>
        <time>2026-04-26T16:18:29.468Z</time>
      </trkpt>
      <trkpt lat="48.792493" lon="10.298869">
        <ele>550.172903</ele>
        <time>2026-04-26T16:18:32.294Z</time>
      </trkpt>
      <trkpt lat="48.792327" lon="10.298721">
        <ele>550.243607</ele>
        <time>2026-04-26T16:18:36.843Z</time>
      </trkpt>
      <trkpt lat="48.792179" lon="10.298538">
        <ele>550.313714</ele>
        <time>2026-04-26T16:18:41.304Z</time>
      </trkpt>
      <trkpt lat="48.791898" lon="10.298036">
        <ele>550.473098</ele>
        <time>2026-04-26T16:18:51.313Z</time>
      </trkpt>
      <trkpt lat="48.791517" lon="10.297620">
        <ele>550.645467</ele>
        <time>2026-04-26T16:19:00.606Z</time>
      </trkpt>
      <trkpt lat="48.790684" lon="10.296926">
        <ele>548.827654</ele>
        <time>2026-04-26T16:19:15.932Z</time>
      </trkpt>
      <trkpt lat="48.790025" lon="10.296961">
        <ele>547.051063</ele>
        <time>2026-04-26T16:19:26.605Z</time>
      </trkpt>
      <trkpt lat="48.789622" lon="10.297217">
        <ele>545.884015</ele>
        <time>2026-04-26T16:19:34.236Z</time>
      </trkpt>
      <trkpt lat="48.789141" lon="10.297581">
        <ele>545.432302</ele>
        <time>2026-04-26T16:19:44.663Z</time>
      </trkpt>
      <trkpt lat="48.788532" lon="10.298357">
        <ele>544.764019</ele>
        <time>2026-04-26T16:20:00.568Z</time>
      </trkpt>
      <trkpt lat="48.788370" lon="10.298412">
        <ele>544.624502</ele>
        <time>2026-04-26T16:20:03.862Z</time>
      </trkpt>
      <trkpt lat="48.788185" lon="10.298316">
        <ele>544.460183</ele>
        <time>2026-04-26T16:20:07.843Z</time>
      </trkpt>
      <trkpt lat="48.787956" lon="10.298107">
        <ele>544.248970</ele>
        <time>2026-04-26T16:20:13.399Z</time>
      </trkpt>
      <trkpt lat="48.787785" lon="10.298027">
        <ele>544.112808</ele>
        <time>2026-04-26T16:20:17.118Z</time>
      </trkpt>
      <trkpt lat="48.787638" lon="10.298061">
        <ele>543.999659</ele>
        <time>2026-04-26T16:20:20.248Z</time>
      </trkpt>
      <trkpt lat="48.787481" lon="10.298244">
        <ele>543.849027</ele>
        <time>2026-04-26T16:20:24.333Z</time>
      </trkpt>
      <trkpt lat="48.786870" lon="10.299234">
        <ele>543.168942</ele>
        <time>2026-04-26T16:20:42.119Z</time>
      </trkpt>
      <trkpt lat="48.786847" lon="10.299271">
        <ele>543.143439</ele>
        <time>2026-04-26T16:20:42.763Z</time>
      </trkpt>
      <trkpt lat="48.786694" lon="10.299385">
        <ele>543.013743</ele>
        <time>2026-04-26T16:20:46.024Z</time>
      </trkpt>
      <trkpt lat="48.786536" lon="10.299385">
        <ele>542.542352</ele>
        <time>2026-04-26T16:20:48.936Z</time>
      </trkpt>
      <trkpt lat="48.786330" lon="10.299322">
        <ele>541.892894</ele>
        <time>2026-04-26T16:20:52.628Z</time>
      </trkpt>
      <trkpt lat="48.785704" lon="10.298943">
        <ele>539.809938</ele>
        <time>2026-04-26T16:21:03.323Z</time>
      </trkpt>
      <trkpt lat="48.785529" lon="10.298878">
        <ele>539.253124</ele>
        <time>2026-04-26T16:21:06.070Z</time>
      </trkpt>
      <trkpt lat="48.785471" lon="10.298876">
        <ele>539.073824</ele>
        <time>2026-04-26T16:21:06.959Z</time>
      </trkpt>
      <trkpt lat="48.785381" lon="10.298922">
        <ele>538.780322</ele>
        <time>2026-04-26T16:21:08.416Z</time>
      </trkpt>
      <trkpt lat="48.785296" lon="10.299064">
        <ele>538.389650</ele>
        <time>2026-04-26T16:21:10.367Z</time>
      </trkpt>
      <trkpt lat="48.784966" lon="10.300200">
        <ele>536.270110</ele>
        <time>2026-04-26T16:21:24.035Z</time>
      </trkpt>
      <trkpt lat="48.784625" lon="10.300941">
        <ele>534.903194</ele>
        <time>2026-04-26T16:21:34.524Z</time>
      </trkpt>
      <trkpt lat="48.784483" lon="10.301168">
        <ele>534.429814</ele>
        <time>2026-04-26T16:21:38.185Z</time>
      </trkpt>
      <trkpt lat="48.784319" lon="10.301355">
        <ele>533.958985</ele>
        <time>2026-04-26T16:21:42.049Z</time>
      </trkpt>
      <trkpt lat="48.783624" lon="10.301945">
        <ele>532.002090</ele>
        <time>2026-04-26T16:21:55.957Z</time>
      </trkpt>
      <trkpt lat="48.783364" lon="10.302171">
        <ele>531.239758</ele>
        <time>2026-04-26T16:22:00.822Z</time>
      </trkpt>
      <trkpt lat="48.782968" lon="10.302572">
        <ele>530.028532</ele>
        <time>2026-04-26T16:22:08.611Z</time>
      </trkpt>
      <trkpt lat="48.781794" lon="10.303843">
        <ele>526.919545</ele>
        <time>2026-04-26T16:22:33.417Z</time>
      </trkpt>
      <trkpt lat="48.781471" lon="10.304190">
        <ele>526.149119</ele>
        <time>2026-04-26T16:22:40.526Z</time>
      </trkpt>
      <trkpt lat="48.781084" lon="10.304598">
        <ele>525.235065</ele>
        <time>2026-04-26T16:22:49.162Z</time>
      </trkpt>
      <trkpt lat="48.779816" lon="10.306356">
        <ele>522.871388</ele>
        <time>2026-04-26T16:23:21.528Z</time>
      </trkpt>
      <trkpt lat="48.779256" lon="10.306941">
        <ele>521.938333</ele>
        <time>2026-04-26T16:23:34.041Z</time>
      </trkpt>
      <trkpt lat="48.778795" lon="10.307325">
        <ele>521.216846</ele>
        <time>2026-04-26T16:23:43.732Z</time>
      </trkpt>
      <trkpt lat="48.778230" lon="10.307806">
        <ele>520.328043</ele>
        <time>2026-04-26T16:23:55.808Z</time>
      </trkpt>
      <trkpt lat="48.777712" lon="10.308270">
        <ele>520.012430</ele>
        <time>2026-04-26T16:24:07.265Z</time>
      </trkpt>
      <trkpt lat="48.777185" lon="10.308811">
        <ele>519.697519</ele>
        <time>2026-04-26T16:24:19.743Z</time>
      </trkpt>
      <trkpt lat="48.777345" lon="10.309723">
        <ele>519.411217</ele>
        <time>2026-04-26T16:24:33.280Z</time>
      </trkpt>
      <trkpt lat="48.777403" lon="10.310082">
        <ele>519.419588</ele>
        <time>2026-04-26T16:24:38.764Z</time>
      </trkpt>
      <trkpt lat="48.777417" lon="10.310189">
        <ele>519.422059</ele>
        <time>2026-04-26T16:24:40.393Z</time>
      </trkpt>
      <trkpt lat="48.777445" lon="10.310402">
        <ele>519.426978</ele>
        <time>2026-04-26T16:24:43.620Z</time>
      </trkpt>
      <trkpt lat="48.777435" lon="10.310528">
        <ele>519.429852</ele>
        <time>2026-04-26T16:24:45.521Z</time>
      </trkpt>
      <trkpt lat="48.777376" lon="10.310601">
        <ele>519.432468</ele>
        <time>2026-04-26T16:24:47.245Z</time>
      </trkpt>
      <trkpt lat="48.777115" lon="10.310776">
        <ele>519.442274</ele>
        <time>2026-04-26T16:24:53.633Z</time>
      </trkpt>
      <trkpt lat="48.776742" lon="10.310980">
        <ele>519.455900</ele>
        <time>2026-04-26T16:25:02.097Z</time>
      </trkpt>
      <trkpt lat="48.776360" lon="10.311267">
        <ele>519.470549</ele>
        <time>2026-04-26T16:25:10.294Z</time>
      </trkpt>
      <trkpt lat="48.776093" lon="10.311508">
        <ele>518.904465</ele>
        <time>2026-04-26T16:25:15.910Z</time>
      </trkpt>
      <trkpt lat="48.775977" lon="10.311565">
        <ele>518.656702</ele>
        <time>2026-04-26T16:25:18.066Z</time>
      </trkpt>
      <trkpt lat="48.775763" lon="10.311583">
        <ele>518.221185</ele>
        <time>2026-04-26T16:25:21.745Z</time>
      </trkpt>
      <trkpt lat="48.775520" lon="10.311588">
        <ele>517.727361</ele>
        <time>2026-04-26T16:25:25.818Z</time>
      </trkpt>
      <trkpt lat="48.775403" lon="10.311591">
        <ele>517.489583</ele>
        <time>2026-04-26T16:25:27.751Z</time>
      </trkpt>
      <trkpt lat="48.775418" lon="10.311337">
        <ele>517.148084</ele>
        <time>2026-04-26T16:25:30.669Z</time>
      </trkpt>
      <trkpt lat="48.775366" lon="10.311331">
        <ele>517.042114</ele>
        <time>2026-04-26T16:25:31.540Z</time>
      </trkpt>
      <trkpt lat="48.775076" lon="10.311543">
        <ele>516.388013</ele>
        <time>2026-04-26T16:25:36.985Z</time>
      </trkpt>
      <trkpt lat="48.774928" lon="10.311652">
        <ele>516.053724</ele>
        <time>2026-04-26T16:25:39.881Z</time>
      </trkpt>
      <trkpt lat="48.774780" lon="10.311766">
        <ele>515.756603</ele>
        <time>2026-04-26T16:25:43.026Z</time>
      </trkpt>
      <trkpt lat="48.774650" lon="10.311892">
        <ele>515.568586</ele>
        <time>2026-04-26T16:25:45.989Z</time>
      </trkpt>
      <trkpt lat="48.774158" lon="10.312394">
        <ele>514.845943</ele>
        <time>2026-04-26T16:25:57.324Z</time>
      </trkpt>
      <trkpt lat="48.774123" lon="10.312443">
        <ele>514.787899</ele>
        <time>2026-04-26T16:25:58.212Z</time>
      </trkpt>
      <trkpt lat="48.773626" lon="10.313033">
        <ele>514.018765</ele>
        <time>2026-04-26T16:26:10.344Z</time>
      </trkpt>
      <trkpt lat="48.773571" lon="10.313093">
        <ele>513.936200</ele>
        <time>2026-04-26T16:26:11.643Z</time>
      </trkpt>
      <trkpt lat="48.773204" lon="10.313566">
        <ele>513.367705</ele>
        <time>2026-04-26T16:26:20.999Z</time>
      </trkpt>
      <trkpt lat="48.772840" lon="10.313897">
        <ele>512.885072</ele>
        <time>2026-04-26T16:26:29.188Z</time>
      </trkpt>
      <trkpt lat="48.771778" lon="10.314568">
        <ele>511.576647</ele>
        <time>2026-04-26T16:26:51.106Z</time>
      </trkpt>
      <trkpt lat="48.770562" lon="10.315204">
        <ele>510.071749</ele>
        <time>2026-04-26T16:27:15.353Z</time>
      </trkpt>
      <trkpt lat="48.769284" lon="10.315985">
        <ele>508.926718</ele>
        <time>2026-04-26T16:27:42.294Z</time>
      </trkpt>
      <trkpt lat="48.768611" lon="10.316400">
        <ele>508.467927</ele>
        <time>2026-04-26T16:27:56.995Z</time>
      </trkpt>
      <trkpt lat="48.768325" lon="10.316531">
        <ele>508.321779</ele>
        <time>2026-04-26T16:28:03.126Z</time>
      </trkpt>
      <trkpt lat="48.767492" lon="10.316776">
        <ele>508.170596</ele>
        <time>2026-04-26T16:28:20.389Z</time>
      </trkpt>
      <trkpt lat="48.766830" lon="10.316930">
        <ele>508.051266</ele>
        <time>2026-04-26T16:28:34.499Z</time>
      </trkpt>
      <trkpt lat="48.766324" lon="10.316932">
        <ele>508.080935</ele>
        <time>2026-04-26T16:28:45.388Z</time>
      </trkpt>
      <trkpt lat="48.766252" lon="10.317056">
        <ele>508.102391</ele>
        <time>2026-04-26T16:28:47.843Z</time>
      </trkpt>
      <trkpt lat="48.766078" lon="10.317170">
        <ele>508.139725</ele>
        <time>2026-04-26T16:28:52.010Z</time>
      </trkpt>
      <trkpt lat="48.765566" lon="10.317336">
        <ele>508.242858</ele>
        <time>2026-04-26T16:29:03.577Z</time>
      </trkpt>
      <trkpt lat="48.765352" lon="10.317479">
        <ele>508.288920</ele>
        <time>2026-04-26T16:29:08.776Z</time>
      </trkpt>
      <trkpt lat="48.764928" lon="10.317892">
        <ele>508.743336</ele>
        <time>2026-04-26T16:29:19.785Z</time>
      </trkpt>
      <trkpt lat="48.764297" lon="10.318756">
        <ele>512.661764</ele>
        <time>2026-04-26T16:29:39.482Z</time>
      </trkpt>
      <trkpt lat="48.763782" lon="10.319550">
        <ele>516.046661</ele>
        <time>2026-04-26T16:30:01.239Z</time>
      </trkpt>
      <trkpt lat="48.762839" lon="10.320949">
        <ele>531.593509</ele>
        <time>2026-04-26T16:30:59.507Z</time>
      </trkpt>
      <trkpt lat="48.762473" lon="10.321518">
        <ele>538.195627</ele>
        <time>2026-04-26T16:31:23.866Z</time>
      </trkpt>
      <trkpt lat="48.762232" lon="10.321887">
        <ele>540.823281</ele>
        <time>2026-04-26T16:31:37.675Z</time>
      </trkpt>
      <trkpt lat="48.762175" lon="10.321975">
        <ele>541.305624</ele>
        <time>2026-04-26T16:31:40.701Z</time>
      </trkpt>
      <trkpt lat="48.761974" lon="10.322102">
        <ele>542.597016</ele>
        <time>2026-04-26T16:31:48.285Z</time>
      </trkpt>
      <trkpt lat="48.761749" lon="10.322311">
        <ele>544.161777</ele>
        <time>2026-04-26T16:31:56.423Z</time>
      </trkpt>
      <trkpt lat="48.761455" lon="10.322512">
        <ele>546.074380</ele>
        <time>2026-04-26T16:32:05.132Z</time>
      </trkpt>
      <trkpt lat="48.761453" lon="10.322687">
        <ele>546.758674</ele>
        <time>2026-04-26T16:32:07.975Z</time>
      </trkpt>
      <trkpt lat="48.761430" lon="10.322978">
        <ele>547.904536</ele>
        <time>2026-04-26T16:32:12.588Z</time>
      </trkpt>
      <trkpt lat="48.761411" lon="10.323067">
        <ele>548.270289</ele>
        <time>2026-04-26T16:32:14.000Z</time>
      </trkpt>
      <trkpt lat="48.761375" lon="10.323194">
        <ele>548.810778</ele>
        <time>2026-04-26T16:32:16.095Z</time>
      </trkpt>
      <trkpt lat="48.761276" lon="10.323502">
        <ele>549.909903</ele>
        <time>2026-04-26T16:32:20.972Z</time>
      </trkpt>
      <trkpt lat="48.761167" lon="10.323811">
        <ele>549.212431</ele>
        <time>2026-04-26T16:32:25.506Z</time>
      </trkpt>
      <trkpt lat="48.760893" lon="10.323445">
        <ele>548.110221</ele>
        <time>2026-04-26T16:32:31.977Z</time>
      </trkpt>
      <trkpt lat="48.760610" lon="10.323158">
        <ele>547.082487</ele>
        <time>2026-04-26T16:32:37.574Z</time>
      </trkpt>
      <trkpt lat="48.760579" lon="10.323139">
        <ele>546.981546</ele>
        <time>2026-04-26T16:32:38.111Z</time>
      </trkpt>
      <trkpt lat="48.760495" lon="10.323081">
        <ele>546.702910</ele>
        <time>2026-04-26T16:32:39.599Z</time>
      </trkpt>
      <trkpt lat="48.760358" lon="10.323044">
        <ele>546.282795</ele>
        <time>2026-04-26T16:32:41.791Z</time>
      </trkpt>
      <trkpt lat="48.760300" lon="10.323028">
        <ele>546.104818</ele>
        <time>2026-04-26T16:32:42.699Z</time>
      </trkpt>
      <trkpt lat="48.760081" lon="10.323044">
        <ele>545.442877</ele>
        <time>2026-04-26T16:32:46.030Z</time>
      </trkpt>
      <trkpt lat="48.760046" lon="10.323048">
        <ele>545.336911</ele>
        <time>2026-04-26T16:32:46.549Z</time>
      </trkpt>
      <trkpt lat="48.760009" lon="10.323058">
        <ele>545.223446</ele>
        <time>2026-04-26T16:32:47.102Z</time>
      </trkpt>
      <trkpt lat="48.759762" lon="10.323124">
        <ele>544.337988</ele>
        <time>2026-04-26T16:32:50.818Z</time>
      </trkpt>
      <trkpt lat="48.759707" lon="10.323151">
        <ele>543.926783</ele>
        <time>2026-04-26T16:32:51.659Z</time>
      </trkpt>
      <trkpt lat="48.759552" lon="10.323213">
        <ele>542.786542</ele>
        <time>2026-04-26T16:32:54.009Z</time>
      </trkpt>
      <trkpt lat="48.759421" lon="10.323264">
        <ele>541.824507</ele>
        <time>2026-04-26T16:32:55.998Z</time>
      </trkpt>
      <trkpt lat="48.759229" lon="10.323378">
        <ele>540.357869</ele>
        <time>2026-04-26T16:32:58.939Z</time>
      </trkpt>
      <trkpt lat="48.758993" lon="10.323517">
        <ele>538.557042</ele>
        <time>2026-04-26T16:33:02.524Z</time>
      </trkpt>
      <trkpt lat="48.758876" lon="10.323607">
        <ele>537.623901</ele>
        <time>2026-04-26T16:33:04.354Z</time>
      </trkpt>
      <trkpt lat="48.758786" lon="10.323681">
        <ele>536.895711</ele>
        <time>2026-04-26T16:33:05.786Z</time>
      </trkpt>
      <trkpt lat="48.758467" lon="10.323992">
        <ele>534.198345</ele>
        <time>2026-04-26T16:33:11.123Z</time>
      </trkpt>
      <trkpt lat="48.758266" lon="10.324188">
        <ele>532.498645</ele>
        <time>2026-04-26T16:33:14.489Z</time>
      </trkpt>
      <trkpt lat="48.758050" lon="10.324367">
        <ele>530.741927</ele>
        <time>2026-04-26T16:33:17.981Z</time>
      </trkpt>
      <trkpt lat="48.757832" lon="10.324644">
        <ele>528.707326</ele>
        <time>2026-04-26T16:33:22.034Z</time>
      </trkpt>
      <trkpt lat="48.757489" lon="10.325084">
        <ele>525.493425</ele>
        <time>2026-04-26T16:33:28.395Z</time>
      </trkpt>
      <trkpt lat="48.757472" lon="10.325106">
        <ele>525.333548</ele>
        <time>2026-04-26T16:33:28.701Z</time>
      </trkpt>
      <trkpt lat="48.757384" lon="10.325240">
        <ele>524.441436</ele>
        <time>2026-04-26T16:33:30.477Z</time>
      </trkpt>
      <trkpt lat="48.757124" lon="10.325700">
        <ele>521.583506</ele>
        <time>2026-04-26T16:33:36.193Z</time>
      </trkpt>
      <trkpt lat="48.756954" lon="10.326032">
        <ele>519.600704</ele>
        <time>2026-04-26T16:33:40.202Z</time>
      </trkpt>
      <trkpt lat="48.756865" lon="10.326206">
        <ele>518.609242</ele>
        <time>2026-04-26T16:33:42.302Z</time>
      </trkpt>
      <trkpt lat="48.756839" lon="10.326267">
        <ele>518.314833</ele>
        <time>2026-04-26T16:33:42.991Z</time>
      </trkpt>
      <trkpt lat="48.756688" lon="10.326624">
        <ele>516.595686</ele>
        <time>2026-04-26T16:33:47.025Z</time>
      </trkpt>
      <trkpt lat="48.756665" lon="10.326677">
        <ele>516.338511</ele>
        <time>2026-04-26T16:33:47.615Z</time>
      </trkpt>
      <trkpt lat="48.756297" lon="10.327646">
        <ele>511.806020</ele>
        <time>2026-04-26T16:33:58.372Z</time>
      </trkpt>
      <trkpt lat="48.756241" lon="10.327787">
        <ele>511.138839</ele>
        <time>2026-04-26T16:33:59.965Z</time>
      </trkpt>
      <trkpt lat="48.756131" lon="10.328070">
        <ele>509.807288</ele>
        <time>2026-04-26T16:34:03.170Z</time>
      </trkpt>
      <trkpt lat="48.755889" lon="10.328592">
        <ele>507.384455</ele>
        <time>2026-04-26T16:34:09.372Z</time>
      </trkpt>
      <trkpt lat="48.755653" lon="10.328881">
        <ele>506.012432</ele>
        <time>2026-04-26T16:34:13.859Z</time>
      </trkpt>
      <trkpt lat="48.755475" lon="10.329053">
        <ele>505.057746</ele>
        <time>2026-04-26T16:34:17.023Z</time>
      </trkpt>
      <trkpt lat="48.755214" lon="10.329281">
        <ele>503.695315</ele>
        <time>2026-04-26T16:34:21.554Z</time>
      </trkpt>
      <trkpt lat="48.755133" lon="10.329304">
        <ele>503.322547</ele>
        <time>2026-04-26T16:34:22.792Z</time>
      </trkpt>
      <trkpt lat="48.755009" lon="10.329321">
        <ele>502.759347</ele>
        <time>2026-04-26T16:34:24.678Z</time>
      </trkpt>
      <trkpt lat="48.754940" lon="10.329311">
        <ele>502.445805</ele>
        <time>2026-04-26T16:34:25.724Z</time>
      </trkpt>
      <trkpt lat="48.754850" lon="10.329856">
        <ele>500.770265</ele>
        <time>2026-04-26T16:34:31.532Z</time>
      </trkpt>
      <trkpt lat="48.754759" lon="10.330272">
        <ele>499.628949</ele>
        <time>2026-04-26T16:34:36.266Z</time>
      </trkpt>
      <trkpt lat="48.754723" lon="10.330416">
        <ele>499.485833</ele>
        <time>2026-04-26T16:34:37.995Z</time>
      </trkpt>
      <trkpt lat="48.754698" lon="10.330507">
        <ele>499.394220</ele>
        <time>2026-04-26T16:34:39.163Z</time>
      </trkpt>
      <trkpt lat="48.754599" lon="10.330879">
        <ele>499.021422</ele>
        <time>2026-04-26T16:34:44.251Z</time>
      </trkpt>
      <trkpt lat="48.754538" lon="10.331096">
        <ele>498.802200</ele>
        <time>2026-04-26T16:34:47.556Z</time>
      </trkpt>
      <trkpt lat="48.754480" lon="10.331291">
        <ele>498.603400</ele>
        <time>2026-04-26T16:34:50.446Z</time>
      </trkpt>
      <trkpt lat="48.754242" lon="10.332078">
        <ele>497.798775</ele>
        <time>2026-04-26T16:35:01.352Z</time>
      </trkpt>
      <trkpt lat="48.754141" lon="10.332507">
        <ele>497.375449</ele>
        <time>2026-04-26T16:35:07.144Z</time>
      </trkpt>
      <trkpt lat="48.754119" lon="10.332617">
        <ele>497.268626</ele>
        <time>2026-04-26T16:35:08.622Z</time>
      </trkpt>
      <trkpt lat="48.753538" lon="10.332374">
        <ele>497.355170</ele>
        <time>2026-04-26T16:35:20.323Z</time>
      </trkpt>
      <trkpt lat="48.753304" lon="10.332322">
        <ele>497.438075</ele>
        <time>2026-04-26T16:35:24.906Z</time>
      </trkpt>
      <trkpt lat="48.753009" lon="10.332257">
        <ele>497.542574</ele>
        <time>2026-04-26T16:35:30.862Z</time>
      </trkpt>
      <trkpt lat="48.752732" lon="10.332185">
        <ele>497.641092</ele>
        <time>2026-04-26T16:35:37.328Z</time>
      </trkpt>
      <trkpt lat="48.752612" lon="10.332147">
        <ele>497.684066</ele>
        <time>2026-04-26T16:35:40.328Z</time>
      </trkpt>
      <trkpt lat="48.752555" lon="10.332109">
        <ele>497.705892</ele>
        <time>2026-04-26T16:35:41.932Z</time>
      </trkpt>
      <trkpt lat="48.752479" lon="10.332061">
        <ele>497.734752</ele>
        <time>2026-04-26T16:35:44.004Z</time>
      </trkpt>
      <trkpt lat="48.752049" lon="10.331738">
        <ele>498.282477</ele>
        <time>2026-04-26T16:35:56.343Z</time>
      </trkpt>
      <trkpt lat="48.751660" lon="10.331173">
        <ele>499.162243</ele>
        <time>2026-04-26T16:36:10.149Z</time>
      </trkpt>
      <trkpt lat="48.752689" lon="10.327566">
        <ele>500.877586</ele>
        <time>2026-04-26T16:37:05.037Z</time>
      </trkpt>
      <trkpt lat="48.752907" lon="10.323635">
        <ele>501.872612</ele>
        <time>2026-04-26T16:38:01.157Z</time>
      </trkpt>
      <trkpt lat="48.752687" lon="10.321435">
        <ele>502.684402</ele>
        <time>2026-04-26T16:38:34.253Z</time>
      </trkpt>
      <trkpt lat="48.752664" lon="10.320640">
        <ele>502.639122</ele>
        <time>2026-04-26T16:38:45.540Z</time>
      </trkpt>
      <trkpt lat="48.752668" lon="10.320044">
        <ele>502.605207</ele>
        <time>2026-04-26T16:38:53.574Z</time>
      </trkpt>
      <trkpt lat="48.752913" lon="10.317389">
        <ele>501.839360</ele>
        <time>2026-04-26T16:39:28.164Z</time>
      </trkpt>
      <trkpt lat="48.752948" lon="10.317114">
        <ele>501.727899</ele>
        <time>2026-04-26T16:39:31.899Z</time>
      </trkpt>
      <trkpt lat="48.752808" lon="10.316479">
        <ele>501.475343</ele>
        <time>2026-04-26T16:39:40.949Z</time>
      </trkpt>
      <trkpt lat="48.753159" lon="10.315201">
        <ele>501.898906</ele>
        <time>2026-04-26T16:40:00.666Z</time>
      </trkpt>
      <trkpt lat="48.753883" lon="10.312807">
        <ele>503.197014</ele>
        <time>2026-04-26T16:40:39.369Z</time>
      </trkpt>
      <trkpt lat="48.754212" lon="10.311357">
        <ele>504.278777</ele>
        <time>2026-04-26T16:41:02.318Z</time>
      </trkpt>
      <trkpt lat="48.754318" lon="10.310623">
        <ele>505.027725</ele>
        <time>2026-04-26T16:41:13.705Z</time>
      </trkpt>
      <trkpt lat="48.754395" lon="10.309787">
        <ele>505.869085</ele>
        <time>2026-04-26T16:41:26.588Z</time>
      </trkpt>
      <trkpt lat="48.754448" lon="10.308873">
        <ele>506.783613</ele>
        <time>2026-04-26T16:41:40.591Z</time>
      </trkpt>
      <trkpt lat="48.754537" lon="10.305909">
        <ele>508.920977</ele>
        <time>2026-04-26T16:42:24.936Z</time>
      </trkpt>
      <trkpt lat="48.754507" lon="10.304110">
        <ele>509.266413</ele>
        <time>2026-04-26T16:42:50.182Z</time>
      </trkpt>
      <trkpt lat="48.754500" lon="10.303392">
        <ele>509.404252</ele>
        <time>2026-04-26T16:43:00.239Z</time>
      </trkpt>
      <trkpt lat="48.754657" lon="10.302053">
        <ele>509.601590</ele>
        <time>2026-04-26T16:43:19.573Z</time>
      </trkpt>
      <trkpt lat="48.754712" lon="10.300014">
        <ele>509.895763</ele>
        <time>2026-04-26T16:43:48.448Z</time>
      </trkpt>
      <trkpt lat="48.754780" lon="10.298038">
        <ele>510.188806</ele>
        <time>2026-04-26T16:44:16.261Z</time>
      </trkpt>
      <trkpt lat="48.754780" lon="10.296774">
        <ele>510.842342</ele>
        <time>2026-04-26T16:44:34.547Z</time>
      </trkpt>
      <trkpt lat="48.754743" lon="10.295277">
        <ele>511.690387</ele>
        <time>2026-04-26T16:44:56.934Z</time>
      </trkpt>
      <trkpt lat="48.754705" lon="10.294500">
        <ele>512.038778</ele>
        <time>2026-04-26T16:45:08.661Z</time>
      </trkpt>
      <trkpt lat="48.754597" lon="10.293314">
        <ele>512.549604</ele>
        <time>2026-04-26T16:45:26.158Z</time>
      </trkpt>
      <trkpt lat="48.754442" lon="10.292232">
        <ele>512.973158</ele>
        <time>2026-04-26T16:45:41.548Z</time>
      </trkpt>
      <trkpt lat="48.754247" lon="10.291170">
        <ele>513.219962</ele>
        <time>2026-04-26T16:45:57.181Z</time>
      </trkpt>
      <trkpt lat="48.753967" lon="10.290243">
        <ele>513.448238</ele>
        <time>2026-04-26T16:46:12.209Z</time>
      </trkpt>
      <trkpt lat="48.753710" lon="10.289242">
        <ele>512.399245</ele>
        <time>2026-04-26T16:46:27.648Z</time>
      </trkpt>
      <trkpt lat="48.753517" lon="10.288678">
        <ele>511.386008</ele>
        <time>2026-04-26T16:46:34.873Z</time>
      </trkpt>
      <trkpt lat="48.753485" lon="10.288380">
        <ele>510.904575</ele>
        <time>2026-04-26T16:46:37.988Z</time>
      </trkpt>
      <trkpt lat="48.753509" lon="10.288288">
        <ele>510.746812</ele>
        <time>2026-04-26T16:46:38.997Z</time>
      </trkpt>
      <trkpt lat="48.753620" lon="10.288169">
        <ele>510.418066</ele>
        <time>2026-04-26T16:46:41.100Z</time>
      </trkpt>
      <trkpt lat="48.753813" lon="10.288407">
        <ele>509.816486</ele>
        <time>2026-04-26T16:46:45.145Z</time>
      </trkpt>
      <trkpt lat="48.753960" lon="10.288540">
        <ele>509.402515</ele>
        <time>2026-04-26T16:46:47.919Z</time>
      </trkpt>
      <trkpt lat="48.754380" lon="10.288774">
        <ele>508.572920</ele>
        <time>2026-04-26T16:46:55.156Z</time>
      </trkpt>
      <trkpt lat="48.754410" lon="10.288621">
        <ele>508.393182</ele>
        <time>2026-04-26T16:46:56.773Z</time>
      </trkpt>
      <trkpt lat="48.754418" lon="10.288376">
        <ele>508.116971</ele>
        <time>2026-04-26T16:46:59.313Z</time>
      </trkpt>
      <trkpt lat="48.753322" lon="10.283135">
        <ele>506.081628</ele>
        <time>2026-04-26T16:48:14.023Z</time>
      </trkpt>
      <trkpt lat="48.753127" lon="10.282254">
        <ele>506.460364</ele>
        <time>2026-04-26T16:48:27.702Z</time>
      </trkpt>
      <trkpt lat="48.752203" lon="10.278716">
        <ele>509.576221</ele>
        <time>2026-04-26T16:49:25.167Z</time>
      </trkpt>
      <trkpt lat="48.751673" lon="10.276660">
        <ele>511.540217</ele>
        <time>2026-04-26T16:49:58.452Z</time>
      </trkpt>
      <trkpt lat="48.750289" lon="10.271369">
        <ele>515.677551</ele>
        <time>2026-04-26T16:51:23.513Z</time>
      </trkpt>
      <trkpt lat="48.749983" lon="10.269460">
        <ele>515.293582</ele>
        <time>2026-04-26T16:51:50.251Z</time>
      </trkpt>
      <trkpt lat="48.750044" lon="10.269436">
        <ele>515.274084</ele>
        <time>2026-04-26T16:51:51.502Z</time>
      </trkpt>
      <trkpt lat="48.750106" lon="10.269410">
        <ele>515.254182</ele>
        <time>2026-04-26T16:51:52.830Z</time>
      </trkpt>
      <trkpt lat="48.750112" lon="10.268605">
        <ele>515.022142</ele>
        <time>2026-04-26T16:52:03.505Z</time>
      </trkpt>
      <trkpt lat="48.750203" lon="10.266613">
        <ele>513.985841</ele>
        <time>2026-04-26T16:52:38.002Z</time>
      </trkpt>
      <trkpt lat="48.750296" lon="10.265309">
        <ele>513.921919</ele>
        <time>2026-04-26T16:52:55.966Z</time>
      </trkpt>
      <trkpt lat="48.750356" lon="10.263968">
        <ele>514.266172</ele>
        <time>2026-04-26T16:53:15.365Z</time>
      </trkpt>
      <trkpt lat="48.750382" lon="10.262704">
        <ele>514.867163</ele>
        <time>2026-04-26T16:53:34.128Z</time>
      </trkpt>
      <trkpt lat="48.750364" lon="10.261236">
        <ele>515.844615</ele>
        <time>2026-04-26T16:53:56.123Z</time>
      </trkpt>
      <trkpt lat="48.750352" lon="10.260193">
        <ele>516.313195</ele>
        <time>2026-04-26T16:54:11.554Z</time>
      </trkpt>
      <trkpt lat="48.750337" lon="10.257373">
        <ele>516.766627</ele>
        <time>2026-04-26T16:54:51.015Z</time>
      </trkpt>
      <trkpt lat="48.750352" lon="10.256530">
        <ele>516.854177</ele>
        <time>2026-04-26T16:55:02.265Z</time>
      </trkpt>
      <trkpt lat="48.750426" lon="10.255037">
        <ele>517.179646</ele>
        <time>2026-04-26T16:55:23.503Z</time>
      </trkpt>
      <trkpt lat="48.750684" lon="10.251515">
        <ele>521.216205</ele>
        <time>2026-04-26T16:56:18.104Z</time>
      </trkpt>
      <trkpt lat="48.750859" lon="10.248937">
        <ele>523.947383</ele>
        <time>2026-04-26T16:56:57.435Z</time>
      </trkpt>
      <trkpt lat="48.750839" lon="10.248258">
        <ele>524.533061</ele>
        <time>2026-04-26T16:57:07.780Z</time>
      </trkpt>
      <trkpt lat="48.750825" lon="10.248074">
        <ele>524.692666</ele>
        <time>2026-04-26T16:57:10.595Z</time>
      </trkpt>
      <trkpt lat="48.750806" lon="10.247902">
        <ele>524.842944</ele>
        <time>2026-04-26T16:57:13.227Z</time>
      </trkpt>
      <trkpt lat="48.750725" lon="10.247401">
        <ele>525.287446</ele>
        <time>2026-04-26T16:57:20.971Z</time>
      </trkpt>
      <trkpt lat="48.749465" lon="10.243734">
        <ele>528.293104</ele>
        <time>2026-04-26T16:58:20.309Z</time>
      </trkpt>
      <trkpt lat="48.749330" lon="10.242630">
        <ele>530.218647</ele>
        <time>2026-04-26T16:58:38.669Z</time>
      </trkpt>
      <trkpt lat="48.749399" lon="10.241474">
        <ele>533.044753</ele>
        <time>2026-04-26T16:58:59.104Z</time>
      </trkpt>
      <trkpt lat="48.750153" lon="10.238464">
        <ele>541.964736</ele>
        <time>2026-04-26T16:59:54.527Z</time>
      </trkpt>
      <trkpt lat="48.750955" lon="10.235587">
        <ele>545.649495</ele>
        <time>2026-04-26T17:00:43.938Z</time>
      </trkpt>
      <trkpt lat="48.750678" lon="10.235369">
        <ele>545.658485</ele>
        <time>2026-04-26T17:00:49.562Z</time>
      </trkpt>
      <trkpt lat="48.750616" lon="10.235213">
        <ele>545.661944</ele>
        <time>2026-04-26T17:00:51.566Z</time>
      </trkpt>
      <trkpt lat="48.750516" lon="10.234819">
        <ele>545.669962</ele>
        <time>2026-04-26T17:00:56.014Z</time>
      </trkpt>
      <trkpt lat="48.750375" lon="10.234404">
        <ele>545.055062</ele>
        <time>2026-04-26T17:01:00.657Z</time>
      </trkpt>
      <trkpt lat="48.749887" lon="10.233297">
        <ele>542.624650</ele>
        <time>2026-04-26T17:01:14.022Z</time>
      </trkpt>
      <trkpt lat="48.749744" lon="10.233093">
        <ele>542.081216</ele>
        <time>2026-04-26T17:01:17.267Z</time>
      </trkpt>
      <trkpt lat="48.749583" lon="10.232929">
        <ele>541.544360</ele>
        <time>2026-04-26T17:01:20.592Z</time>
      </trkpt>
      <trkpt lat="48.749857" lon="10.228741">
        <ele>545.289315</ele>
        <time>2026-04-26T17:02:25.000Z</time>
      </trkpt>
      <trkpt lat="48.749770" lon="10.228479">
        <ele>545.804810</ele>
        <time>2026-04-26T17:02:29.656Z</time>
      </trkpt>
      <trkpt lat="48.748643" lon="10.226154">
        <ele>552.549981</ele>
        <time>2026-04-26T17:03:16.402Z</time>
      </trkpt>
      <trkpt lat="48.748481" lon="10.225832">
        <ele>553.724412</ele>
        <time>2026-04-26T17:03:23.652Z</time>
      </trkpt>
      <trkpt lat="48.748125" lon="10.225117">
        <ele>556.342289</ele>
        <time>2026-04-26T17:03:40.230Z</time>
      </trkpt>
      <trkpt lat="48.748071" lon="10.224942">
        <ele>557.001934</ele>
        <time>2026-04-26T17:03:43.875Z</time>
      </trkpt>
      <trkpt lat="48.747651" lon="10.222579">
        <ele>565.357339</ele>
        <time>2026-04-26T17:04:28.105Z</time>
      </trkpt>
      <trkpt lat="48.747286" lon="10.221507">
        <ele>567.459609</ele>
        <time>2026-04-26T17:04:47.483Z</time>
      </trkpt>
      <trkpt lat="48.746699" lon="10.219479">
        <ele>570.582202</ele>
        <time>2026-04-26T17:05:21.305Z</time>
      </trkpt>
      <trkpt lat="48.746275" lon="10.218787">
        <ele>571.310280</ele>
        <time>2026-04-26T17:05:34.716Z</time>
      </trkpt>
      <trkpt lat="48.746278" lon="10.218680">
        <ele>571.392825</ele>
        <time>2026-04-26T17:05:36.253Z</time>
      </trkpt>
      <trkpt lat="48.746330" lon="10.218531">
        <ele>571.522761</ele>
        <time>2026-04-26T17:05:38.670Z</time>
      </trkpt>
      <trkpt lat="48.746603" lon="10.217982">
        <ele>572.052739</ele>
        <time>2026-04-26T17:05:48.714Z</time>
      </trkpt>
      <trkpt lat="48.747449" lon="10.216361">
        <ele>575.082012</ele>
        <time>2026-04-26T17:06:21.581Z</time>
      </trkpt>
      <trkpt lat="48.747729" lon="10.215895">
        <ele>576.046269</ele>
        <time>2026-04-26T17:06:31.702Z</time>
      </trkpt>
      <trkpt lat="48.747698" lon="10.215828">
        <ele>576.171454</ele>
        <time>2026-04-26T17:06:32.981Z</time>
      </trkpt>
      <trkpt lat="48.747052" lon="10.214450">
        <ele>575.804626</ele>
        <time>2026-04-26T17:06:57.502Z</time>
      </trkpt>
      <trkpt lat="48.746190" lon="10.212819">
        <ele>574.488515</ele>
        <time>2026-04-26T17:07:20.748Z</time>
      </trkpt>
      <trkpt lat="48.745859" lon="10.212284">
        <ele>573.774371</ele>
        <time>2026-04-26T17:07:29.117Z</time>
      </trkpt>
      <trkpt lat="48.745530" lon="10.211864">
        <ele>573.139503</ele>
        <time>2026-04-26T17:07:37.517Z</time>
      </trkpt>
      <trkpt lat="48.745265" lon="10.211541">
        <ele>572.844520</ele>
        <time>2026-04-26T17:07:44.789Z</time>
      </trkpt>
      <trkpt lat="48.744770" lon="10.211030">
        <ele>573.767364</ele>
        <time>2026-04-26T17:07:58.438Z</time>
      </trkpt>
      <trkpt lat="48.744240" lon="10.210357">
        <ele>574.832705</ele>
        <time>2026-04-26T17:08:14.683Z</time>
      </trkpt>
      <trkpt lat="48.744198" lon="10.210297">
        <ele>574.921630</ele>
        <time>2026-04-26T17:08:16.032Z</time>
      </trkpt>
      <trkpt lat="48.744029" lon="10.210019">
        <ele>575.305889</ele>
        <time>2026-04-26T17:08:21.888Z</time>
      </trkpt>
      <trkpt lat="48.743809" lon="10.209550">
        <ele>575.885546</ele>
        <time>2026-04-26T17:08:30.750Z</time>
      </trkpt>
      <trkpt lat="48.743279" lon="10.208245">
        <ele>577.421557</ele>
        <time>2026-04-26T17:08:54.061Z</time>
      </trkpt>
      <trkpt lat="48.742939" lon="10.207416">
        <ele>578.521303</ele>
        <time>2026-04-26T17:09:08.547Z</time>
      </trkpt>
      <trkpt lat="48.742754" lon="10.207032">
        <ele>579.369580</ele>
        <time>2026-04-26T17:09:15.633Z</time>
      </trkpt>
      <trkpt lat="48.742844" lon="10.206919">
        <ele>579.685637</ele>
        <time>2026-04-26T17:09:18.287Z</time>
      </trkpt>
      <trkpt lat="48.742900" lon="10.207041">
        <ele>579.950781</ele>
        <time>2026-04-26T17:09:21.032Z</time>
      </trkpt>
      <trkpt lat="48.742844" lon="10.206919">
        <ele>580.215925</ele>
        <time>2026-04-26T17:09:23.783Z</time>
      </trkpt>
      <trkpt lat="48.743092" lon="10.206585">
        <ele>581.113108</ele>
        <time>2026-04-26T17:09:31.620Z</time>
      </trkpt>
      <trkpt lat="48.743437" lon="10.206107">
        <ele>582.377156</ele>
        <time>2026-04-26T17:09:43.324Z</time>
      </trkpt>
      <trkpt lat="48.743536" lon="10.206018">
        <ele>582.688463</ele>
        <time>2026-04-26T17:09:46.380Z</time>
      </trkpt>
      <trkpt lat="48.743744" lon="10.205935">
        <ele>583.274399</ele>
        <time>2026-04-26T17:09:52.174Z</time>
      </trkpt>
      <trkpt lat="48.744352" lon="10.205798">
        <ele>584.980095</ele>
        <time>2026-04-26T17:10:08.524Z</time>
      </trkpt>
      <trkpt lat="48.744500" lon="10.205710">
        <ele>585.421229</ele>
        <time>2026-04-26T17:10:12.616Z</time>
      </trkpt>
      <trkpt lat="48.744608" lon="10.205595">
        <ele>585.787425</ele>
        <time>2026-04-26T17:10:16.003Z</time>
      </trkpt>
      <trkpt lat="48.745915" lon="10.204088">
        <ele>587.989102</ele>
        <time>2026-04-26T17:10:52.474Z</time>
      </trkpt>
      <trkpt lat="48.746458" lon="10.203378">
        <ele>587.890095</ele>
        <time>2026-04-26T17:11:05.667Z</time>
      </trkpt>
      <trkpt lat="48.747056" lon="10.202479">
        <ele>588.945596</ele>
        <time>2026-04-26T17:11:23.150Z</time>
      </trkpt>
      <trkpt lat="48.747825" lon="10.201657">
        <ele>590.754582</ele>
        <time>2026-04-26T17:11:45.747Z</time>
      </trkpt>
      <trkpt lat="48.748044" lon="10.201386">
        <ele>591.298058</ele>
        <time>2026-04-26T17:11:52.880Z</time>
      </trkpt>
      <trkpt lat="48.748269" lon="10.201048">
        <ele>592.221190</ele>
        <time>2026-04-26T17:12:00.859Z</time>
      </trkpt>
      <trkpt lat="48.748515" lon="10.200583">
        <ele>593.375317</ele>
        <time>2026-04-26T17:12:10.704Z</time>
      </trkpt>
      <trkpt lat="48.749041" lon="10.199424">
        <ele>596.099130</ele>
        <time>2026-04-26T17:12:33.052Z</time>
      </trkpt>
      <trkpt lat="48.749193" lon="10.199138">
        <ele>596.652228</ele>
        <time>2026-04-26T17:12:38.683Z</time>
      </trkpt>
      <trkpt lat="48.749349" lon="10.198879">
        <ele>596.840608</ele>
        <time>2026-04-26T17:12:44.021Z</time>
      </trkpt>
      <trkpt lat="48.749682" lon="10.198448">
        <ele>597.197150</ele>
        <time>2026-04-26T17:12:53.914Z</time>
      </trkpt>
      <trkpt lat="48.750324" lon="10.197888">
        <ele>597.800330</ele>
        <time>2026-04-26T17:13:10.272Z</time>
      </trkpt>
      <trkpt lat="48.750832" lon="10.197606">
        <ele>597.745516</ele>
        <time>2026-04-26T17:13:21.519Z</time>
      </trkpt>
      <trkpt lat="48.751338" lon="10.197451">
        <ele>597.036805</ele>
        <time>2026-04-26T17:13:31.437Z</time>
      </trkpt>
      <trkpt lat="48.751258" lon="10.197023">
        <ele>596.634116</ele>
        <time>2026-04-26T17:13:40.914Z</time>
      </trkpt>
      <trkpt lat="48.751012" lon="10.196756">
        <ele>596.218815</ele>
        <time>2026-04-26T17:13:50.474Z</time>
      </trkpt>
      <trkpt lat="48.750705" lon="10.196689">
        <ele>595.792995</ele>
        <time>2026-04-26T17:14:00.030Z</time>
      </trkpt>
      <trkpt lat="48.749729" lon="10.196476">
        <ele>595.130431</ele>
        <time>2026-04-26T17:14:30.930Z</time>
      </trkpt>
      <trkpt lat="48.749710" lon="10.195129">
        <ele>594.645211</ele>
        <time>2026-04-26T17:15:01.577Z</time>
      </trkpt>
      <trkpt lat="48.749438" lon="10.193712">
        <ele>596.654672</ele>
        <time>2026-04-26T17:15:34.196Z</time>
      </trkpt>
      <trkpt lat="48.748758" lon="10.191193">
        <ele>601.256043</ele>
        <time>2026-04-26T17:16:34.394Z</time>
      </trkpt>
      <trkpt lat="48.748726" lon="10.191052">
        <ele>601.536121</ele>
        <time>2026-04-26T17:16:37.685Z</time>
      </trkpt>
      <trkpt lat="48.748706" lon="10.190959">
        <ele>601.719851</ele>
        <time>2026-04-26T17:16:39.867Z</time>
      </trkpt>
      <trkpt lat="48.748663" lon="10.190252">
        <ele>603.053393</ele>
        <time>2026-04-26T17:16:55.573Z</time>
      </trkpt>
      <trkpt lat="48.748668" lon="10.189640">
        <ele>604.315494</ele>
        <time>2026-04-26T17:17:09.104Z</time>
      </trkpt>
      <trkpt lat="48.748847" lon="10.187947">
        <ele>608.508251</ele>
        <time>2026-04-26T17:17:47.381Z</time>
      </trkpt>
      <trkpt lat="48.748933" lon="10.186679">
        <ele>611.786450</ele>
        <time>2026-04-26T17:18:16.601Z</time>
      </trkpt>
      <trkpt lat="48.749033" lon="10.185817">
        <ele>614.233466</ele>
        <time>2026-04-26T17:18:36.890Z</time>
      </trkpt>
      <trkpt lat="48.749218" lon="10.184625">
        <ele>617.657153</ele>
        <time>2026-04-26T17:19:04.861Z</time>
      </trkpt>
      <trkpt lat="48.749414" lon="10.183663">
        <ele>619.173243</ele>
        <time>2026-04-26T17:19:27.109Z</time>
      </trkpt>
      <trkpt lat="48.749449" lon="10.183339">
        <ele>619.582698</ele>
        <time>2026-04-26T17:19:34.377Z</time>
      </trkpt>
      <trkpt lat="48.749411" lon="10.182624">
        <ele>620.477283</ele>
        <time>2026-04-26T17:19:50.358Z</time>
      </trkpt>
      <trkpt lat="48.748881" lon="10.179937">
        <ele>622.215236</ele>
        <time>2026-04-26T17:20:53.517Z</time>
      </trkpt>
      <trkpt lat="48.748748" lon="10.179261">
        <ele>622.462001</ele>
        <time>2026-04-26T17:21:09.577Z</time>
      </trkpt>
      <trkpt lat="48.748333" lon="10.176543">
        <ele>621.601538</ele>
        <time>2026-04-26T17:22:13.127Z</time>
      </trkpt>
      <trkpt lat="48.748227" lon="10.175817">
        <ele>621.435848</ele>
        <time>2026-04-26T17:22:30.089Z</time>
      </trkpt>
      <trkpt lat="48.748024" lon="10.175826">
        <ele>621.367218</ele>
        <time>2026-04-26T17:22:37.134Z</time>
      </trkpt>
      <trkpt lat="48.747994" lon="10.175305">
        <ele>621.250684</ele>
        <time>2026-04-26T17:22:44.956Z</time>
      </trkpt>
      <trkpt lat="48.747840" lon="10.174726">
        <ele>621.111566</ele>
        <time>2026-04-26T17:22:54.432Z</time>
      </trkpt>
      <trkpt lat="48.747805" lon="10.174521">
        <ele>621.064380</ele>
        <time>2026-04-26T17:22:57.692Z</time>
      </trkpt>
      <trkpt lat="48.747827" lon="10.173899">
        <ele>621.003713</ele>
        <time>2026-04-26T17:23:07.311Z</time>
      </trkpt>
      <trkpt lat="48.747842" lon="10.172941">
        <ele>621.034411</ele>
        <time>2026-04-26T17:23:22.317Z</time>
      </trkpt>
      <trkpt lat="48.747803" lon="10.171938">
        <ele>621.066598</ele>
        <time>2026-04-26T17:23:37.936Z</time>
      </trkpt>
      <trkpt lat="48.747711" lon="10.171056">
        <ele>621.105052</ele>
        <time>2026-04-26T17:23:51.506Z</time>
      </trkpt>
      <trkpt lat="48.747596" lon="10.170497">
        <ele>621.137076</ele>
        <time>2026-04-26T17:24:00.266Z</time>
      </trkpt>
      <trkpt lat="48.747859" lon="10.169986">
        <ele>621.172527</ele>
        <time>2026-04-26T17:24:08.859Z</time>
      </trkpt>
      <trkpt lat="48.747602" lon="10.167558">
        <ele>623.026977</ele>
        <time>2026-04-26T17:24:44.925Z</time>
      </trkpt>
      <trkpt lat="48.747629" lon="10.167243">
        <ele>623.434643</ele>
        <time>2026-04-26T17:24:49.931Z</time>
      </trkpt>
      <trkpt lat="48.747687" lon="10.167076">
        <ele>623.676879</ele>
        <time>2026-04-26T17:24:52.930Z</time>
      </trkpt>
      <trkpt lat="48.747763" lon="10.166958">
        <ele>623.888574</ele>
        <time>2026-04-26T17:24:55.566Z</time>
      </trkpt>
      <trkpt lat="48.747874" lon="10.166891">
        <ele>624.121102</ele>
        <time>2026-04-26T17:24:58.485Z</time>
      </trkpt>
      <trkpt lat="48.747977" lon="10.166877">
        <ele>624.322380</ele>
        <time>2026-04-26T17:25:01.033Z</time>
      </trkpt>
      <trkpt lat="48.748874" lon="10.167010">
        <ele>626.719609</ele>
        <time>2026-04-26T17:25:23.494Z</time>
      </trkpt>
      <trkpt lat="48.749175" lon="10.167005">
        <ele>627.585531</ele>
        <time>2026-04-26T17:25:30.865Z</time>
      </trkpt>
      <trkpt lat="48.749475" lon="10.167001">
        <ele>628.448559</ele>
        <time>2026-04-26T17:25:38.091Z</time>
      </trkpt>
      <trkpt lat="48.749487" lon="10.166911">
        <ele>628.622719</ele>
        <time>2026-04-26T17:25:39.540Z</time>
      </trkpt>
      <trkpt lat="48.749637" lon="10.166531">
        <ele>629.462764</ele>
        <time>2026-04-26T17:25:49.321Z</time>
      </trkpt>
      <trkpt lat="48.749759" lon="10.165126">
        <ele>630.742323</ele>
        <time>2026-04-26T17:26:20.846Z</time>
      </trkpt>
      <trkpt lat="48.749891" lon="10.163225">
        <ele>631.891554</ele>
        <time>2026-04-26T17:27:04.108Z</time>
      </trkpt>
      <trkpt lat="48.749903" lon="10.162685">
        <ele>631.976079</ele>
        <time>2026-04-26T17:27:16.381Z</time>
      </trkpt>
      <trkpt lat="48.749906" lon="10.162244">
        <ele>632.045072</ele>
        <time>2026-04-26T17:27:26.421Z</time>
      </trkpt>
      <trkpt lat="48.749882" lon="10.161040">
        <ele>632.233509</ele>
        <time>2026-04-26T17:27:53.808Z</time>
      </trkpt>
      <trkpt lat="48.749956" lon="10.159994">
        <ele>631.632187</ele>
        <time>2026-04-26T17:28:17.832Z</time>
      </trkpt>
      <trkpt lat="48.750046" lon="10.159213">
        <ele>631.064124</ele>
        <time>2026-04-26T17:28:35.816Z</time>
      </trkpt>
      <trkpt lat="48.750038" lon="10.158555">
        <ele>630.592592</ele>
        <time>2026-04-26T17:28:49.899Z</time>
      </trkpt>
      <trkpt lat="48.749938" lon="10.158120">
        <ele>630.168336</ele>
        <time>2026-04-26T17:28:59.376Z</time>
      </trkpt>
      <trkpt lat="48.749800" lon="10.157765">
        <ele>629.237787</ele>
        <time>2026-04-26T17:29:07.606Z</time>
      </trkpt>
      <trkpt lat="48.748000" lon="10.156320">
        <ele>622.921730</ele>
        <time>2026-04-26T17:30:06.073Z</time>
      </trkpt>
      <trkpt lat="48.747903" lon="10.156173">
        <ele>622.616337</ele>
        <time>2026-04-26T17:30:10.162Z</time>
      </trkpt>
      <trkpt lat="48.747568" lon="10.155424">
        <ele>621.287286</ele>
        <time>2026-04-26T17:30:28.781Z</time>
      </trkpt>
      <trkpt lat="48.747307" lon="10.154619">
        <ele>620.081110</ele>
        <time>2026-04-26T17:30:49.161Z</time>
      </trkpt>
      <trkpt lat="48.747212" lon="10.154412">
        <ele>619.951632</ele>
        <time>2026-04-26T17:30:54.928Z</time>
      </trkpt>
      <trkpt lat="48.746639" lon="10.153558">
        <ele>619.326126</ele>
        <time>2026-04-26T17:31:22.719Z</time>
      </trkpt>
      <trkpt lat="48.746598" lon="10.153288">
        <ele>619.183882</ele>
        <time>2026-04-26T17:31:29.036Z</time>
      </trkpt>
      <trkpt lat="48.746791" lon="10.150629">
        <ele>616.754445</ele>
        <time>2026-04-26T17:32:25.741Z</time>
      </trkpt>
      <trkpt lat="48.746805" lon="10.149952">
        <ele>616.011794</ele>
        <time>2026-04-26T17:32:39.849Z</time>
      </trkpt>
      <trkpt lat="48.746812" lon="10.149586">
        <ele>615.683201</ele>
        <time>2026-04-26T17:32:47.474Z</time>
      </trkpt>
      <trkpt lat="48.746809" lon="10.147843">
        <ele>614.771723</ele>
        <time>2026-04-26T17:33:25.562Z</time>
      </trkpt>
      <trkpt lat="48.746853" lon="10.147277">
        <ele>614.473693</ele>
        <time>2026-04-26T17:33:38.556Z</time>
      </trkpt>
      <trkpt lat="48.746930" lon="10.146784">
        <ele>614.342272</ele>
        <time>2026-04-26T17:33:45.876Z</time>
      </trkpt>
      <trkpt lat="48.746993" lon="10.146567">
        <ele>614.362916</ele>
        <time>2026-04-26T17:33:49.338Z</time>
      </trkpt>
      <trkpt lat="48.747044" lon="10.146485">
        <ele>614.372730</ele>
        <time>2026-04-26T17:33:50.999Z</time>
      </trkpt>
      <trkpt lat="48.747129" lon="10.146380">
        <ele>614.387206</ele>
        <time>2026-04-26T17:33:53.431Z</time>
      </trkpt>
      <trkpt lat="48.747272" lon="10.146180">
        <ele>614.412891</ele>
        <time>2026-04-26T17:33:57.765Z</time>
      </trkpt>
      <trkpt lat="48.747410" lon="10.145840">
        <ele>614.447653</ele>
        <time>2026-04-26T17:34:03.650Z</time>
      </trkpt>
      <trkpt lat="48.747453" lon="10.145455">
        <ele>614.481650</ele>
        <time>2026-04-26T17:34:09.334Z</time>
      </trkpt>
      <trkpt lat="48.747538" lon="10.145115">
        <ele>614.513309</ele>
        <time>2026-04-26T17:34:14.531Z</time>
      </trkpt>
      <trkpt lat="48.747647" lon="10.144929">
        <ele>614.534975</ele>
        <time>2026-04-26T17:34:17.852Z</time>
      </trkpt>
      <trkpt lat="48.747744" lon="10.144705">
        <ele>614.558307</ele>
        <time>2026-04-26T17:34:21.264Z</time>
      </trkpt>
      <trkpt lat="48.747822" lon="10.144653">
        <ele>614.452327</ele>
        <time>2026-04-26T17:34:22.869Z</time>
      </trkpt>
      <trkpt lat="48.747874" lon="10.144598">
        <ele>614.349764</ele>
        <time>2026-04-26T17:34:24.030Z</time>
      </trkpt>
      <trkpt lat="48.748142" lon="10.144220">
        <ele>613.757676</ele>
        <time>2026-04-26T17:34:30.626Z</time>
      </trkpt>
      <trkpt lat="48.748300" lon="10.143861">
        <ele>613.297252</ele>
        <time>2026-04-26T17:34:35.695Z</time>
      </trkpt>
      <trkpt lat="48.748321" lon="10.143738">
        <ele>613.161719</ele>
        <time>2026-04-26T17:34:37.189Z</time>
      </trkpt>
      <trkpt lat="48.748301" lon="10.143477">
        <ele>612.881432</ele>
        <time>2026-04-26T17:34:40.287Z</time>
      </trkpt>
      <trkpt lat="48.748227" lon="10.142758">
        <ele>612.105174</ele>
        <time>2026-04-26T17:34:48.813Z</time>
      </trkpt>
      <trkpt lat="48.748232" lon="10.142627">
        <ele>611.965199</ele>
        <time>2026-04-26T17:34:50.330Z</time>
      </trkpt>
      <trkpt lat="48.748271" lon="10.142276">
        <ele>611.593983</ele>
        <time>2026-04-26T17:34:54.479Z</time>
      </trkpt>
      <trkpt lat="48.748423" lon="10.141706">
        <ele>611.023181</ele>
        <time>2026-04-26T17:35:01.757Z</time>
      </trkpt>
      <trkpt lat="48.748233" lon="10.141364">
        <ele>610.608009</ele>
        <time>2026-04-26T17:35:07.085Z</time>
      </trkpt>
      <trkpt lat="48.748139" lon="10.141194">
        <ele>610.402039</ele>
        <time>2026-04-26T17:35:09.733Z</time>
      </trkpt>
      <trkpt lat="48.748271" lon="10.141083">
        <ele>610.189532</ele>
        <time>2026-04-26T17:35:12.500Z</time>
      </trkpt>
      <trkpt lat="48.748363" lon="10.141057">
        <ele>610.057771</ele>
        <time>2026-04-26T17:35:14.212Z</time>
      </trkpt>
      <trkpt lat="48.748385" lon="10.140566">
        <ele>609.600896</ele>
        <time>2026-04-26T17:35:20.279Z</time>
      </trkpt>
      <trkpt lat="48.748514" lon="10.139997">
        <ele>609.130963</ele>
        <time>2026-04-26T17:35:28.080Z</time>
      </trkpt>
      <trkpt lat="48.748622" lon="10.139551">
        <ele>609.203245</ele>
        <time>2026-04-26T17:35:34.382Z</time>
      </trkpt>
      <trkpt lat="48.748659" lon="10.139397">
        <ele>609.228181</ele>
        <time>2026-04-26T17:35:36.589Z</time>
      </trkpt>
      <trkpt lat="48.748743" lon="10.139058">
        <ele>609.283275</ele>
        <time>2026-04-26T17:35:41.527Z</time>
      </trkpt>
      <trkpt lat="48.748834" lon="10.138693">
        <ele>609.342641</ele>
        <time>2026-04-26T17:35:47.027Z</time>
      </trkpt>
      <trkpt lat="48.748915" lon="10.138364">
        <ele>609.396068</ele>
        <time>2026-04-26T17:35:52.068Z</time>
      </trkpt>
      <trkpt lat="48.749009" lon="10.137980">
        <ele>609.458383</ele>
        <time>2026-04-26T17:35:58.054Z</time>
      </trkpt>
      <trkpt lat="48.749069" lon="10.137666">
        <ele>609.508118</ele>
        <time>2026-04-26T17:36:02.938Z</time>
      </trkpt>
      <trkpt lat="48.749054" lon="10.137271">
        <ele>609.801911</ele>
        <time>2026-04-26T17:36:08.931Z</time>
      </trkpt>
      <trkpt lat="48.749209" lon="10.137123">
        <ele>610.127583</ele>
        <time>2026-04-26T17:36:13.128Z</time>
      </trkpt>
      <trkpt lat="48.749396" lon="10.136841">
        <ele>610.596475</ele>
        <time>2026-04-26T17:36:19.214Z</time>
      </trkpt>
      <trkpt lat="48.749436" lon="10.136727">
        <ele>610.747872</ele>
        <time>2026-04-26T17:36:21.179Z</time>
      </trkpt>
      <trkpt lat="48.749688" lon="10.135448">
        <ele>612.312852</ele>
        <time>2026-04-26T17:36:41.685Z</time>
      </trkpt>
      <trkpt lat="48.749726" lon="10.135219">
        <ele>612.589696</ele>
        <time>2026-04-26T17:36:45.349Z</time>
      </trkpt>
      <trkpt lat="48.749823" lon="10.134339">
        <ele>613.999856</ele>
        <time>2026-04-26T17:36:59.191Z</time>
      </trkpt>
      <trkpt lat="48.749891" lon="10.132479">
        <ele>617.063462</ele>
        <time>2026-04-26T17:37:28.194Z</time>
      </trkpt>
      <trkpt lat="48.749925" lon="10.131884">
        <ele>618.507014</ele>
        <time>2026-04-26T17:37:38.088Z</time>
      </trkpt>
      <trkpt lat="48.749986" lon="10.131505">
        <ele>619.506188</ele>
        <time>2026-04-26T17:37:44.776Z</time>
      </trkpt>
      <trkpt lat="48.750084" lon="10.131135">
        <ele>620.527410</ele>
        <time>2026-04-26T17:37:51.790Z</time>
      </trkpt>
      <trkpt lat="48.750453" lon="10.130281">
        <ele>623.142422</ele>
        <time>2026-04-26T17:38:09.405Z</time>
      </trkpt>
      <trkpt lat="48.750706" lon="10.129830">
        <ele>624.304147</ele>
        <time>2026-04-26T17:38:19.024Z</time>
      </trkpt>
      <trkpt lat="48.750911" lon="10.129397">
        <ele>624.603643</ele>
        <time>2026-04-26T17:38:27.310Z</time>
      </trkpt>
      <trkpt lat="48.751350" lon="10.128576">
        <ele>625.197532</ele>
        <time>2026-04-26T17:38:42.672Z</time>
      </trkpt>
      <trkpt lat="48.751442" lon="10.128413">
        <ele>625.318082</ele>
        <time>2026-04-26T17:38:45.531Z</time>
      </trkpt>
      <trkpt lat="48.751585" lon="10.128089">
        <ele>625.537135</ele>
        <time>2026-04-26T17:38:50.643Z</time>
      </trkpt>
      <trkpt lat="48.751632" lon="10.127922">
        <ele>625.639151</ele>
        <time>2026-04-26T17:38:53.031Z</time>
      </trkpt>
      <trkpt lat="48.751794" lon="10.127174">
        <ele>625.321011</ele>
        <time>2026-04-26T17:39:03.340Z</time>
      </trkpt>
      <trkpt lat="48.751844" lon="10.126835">
        <ele>625.085211</ele>
        <time>2026-04-26T17:39:07.899Z</time>
      </trkpt>
      <trkpt lat="48.752001" lon="10.125039">
        <ele>623.814727</ele>
        <time>2026-04-26T17:39:30.912Z</time>
      </trkpt>
      <trkpt lat="48.752202" lon="10.122745">
        <ele>620.105999</ele>
        <time>2026-04-26T17:39:57.395Z</time>
      </trkpt>
      <trkpt lat="48.752381" lon="10.121431">
        <ele>616.244209</ele>
        <time>2026-04-26T17:40:11.182Z</time>
      </trkpt>
      <trkpt lat="48.752558" lon="10.120178">
        <ele>611.934110</ele>
        <time>2026-04-26T17:40:23.719Z</time>
      </trkpt>
      <trkpt lat="48.752592" lon="10.119655">
        <ele>610.079878</ele>
        <time>2026-04-26T17:40:28.842Z</time>
      </trkpt>
      <trkpt lat="48.752405" lon="10.117854">
        <ele>600.843212</ele>
        <time>2026-04-26T17:40:46.068Z</time>
      </trkpt>
      <trkpt lat="48.752357" lon="10.117410">
        <ele>598.563779</ele>
        <time>2026-04-26T17:40:50.168Z</time>
      </trkpt>
      <trkpt lat="48.752343" lon="10.117355">
        <ele>598.265092</ele>
        <time>2026-04-26T17:40:50.703Z</time>
      </trkpt>
      <trkpt lat="48.752235" lon="10.117223">
        <ele>597.199302</ele>
        <time>2026-04-26T17:40:52.609Z</time>
      </trkpt>
      <trkpt lat="48.751896" lon="10.116948">
        <ele>593.215683</ele>
        <time>2026-04-26T17:40:57.810Z</time>
      </trkpt>
      <trkpt lat="48.751783" lon="10.116763">
        <ele>591.358928</ele>
        <time>2026-04-26T17:41:00.050Z</time>
      </trkpt>
      <trkpt lat="48.751694" lon="10.116466">
        <ele>588.956980</ele>
        <time>2026-04-26T17:41:02.925Z</time>
      </trkpt>
      <trkpt lat="48.751646" lon="10.116199">
        <ele>586.919399</ele>
        <time>2026-04-26T17:41:05.348Z</time>
      </trkpt>
      <trkpt lat="48.751577" lon="10.115421">
        <ele>581.139699</ele>
        <time>2026-04-26T17:41:12.229Z</time>
      </trkpt>
      <trkpt lat="48.751509" lon="10.115104">
        <ele>578.685328</ele>
        <time>2026-04-26T17:41:15.162Z</time>
      </trkpt>
      <trkpt lat="48.751427" lon="10.114902">
        <ele>576.938790</ele>
        <time>2026-04-26T17:41:17.250Z</time>
      </trkpt>
      <trkpt lat="48.751309" lon="10.114694">
        <ele>574.866959</ele>
        <time>2026-04-26T17:41:19.672Z</time>
      </trkpt>
      <trkpt lat="48.750424" lon="10.113666">
        <ele>561.994821</ele>
        <time>2026-04-26T17:41:34.612Z</time>
      </trkpt>
      <trkpt lat="48.750281" lon="10.113578">
        <ele>560.212812</ele>
        <time>2026-04-26T17:41:36.689Z</time>
      </trkpt>
      <trkpt lat="48.750112" lon="10.113538">
        <ele>558.237703</ele>
        <time>2026-04-26T17:41:38.965Z</time>
      </trkpt>
      <trkpt lat="48.749143" lon="10.113603">
        <ele>546.880419</ele>
        <time>2026-04-26T17:41:51.773Z</time>
      </trkpt>
      <trkpt lat="48.748783" lon="10.113566">
        <ele>542.638001</ele>
        <time>2026-04-26T17:41:56.546Z</time>
      </trkpt>
      <trkpt lat="48.748573" lon="10.113489">
        <ele>540.097785</ele>
        <time>2026-04-26T17:41:59.424Z</time>
      </trkpt>
      <trkpt lat="48.748289" lon="10.113293">
        <ele>536.429174</ele>
        <time>2026-04-26T17:42:03.599Z</time>
      </trkpt>
      <trkpt lat="48.748004" lon="10.112972">
        <ele>532.832139</ele>
        <time>2026-04-26T17:42:08.396Z</time>
      </trkpt>
      <trkpt lat="48.747299" lon="10.111910">
        <ele>524.132291</ele>
        <time>2026-04-26T17:42:22.184Z</time>
      </trkpt>
      <trkpt lat="48.747100" lon="10.111534">
        <ele>521.348878</ele>
        <time>2026-04-26T17:42:26.696Z</time>
      </trkpt>
      <trkpt lat="48.747006" lon="10.111306">
        <ele>519.796507</ele>
        <time>2026-04-26T17:42:29.208Z</time>
      </trkpt>
      <trkpt lat="48.746880" lon="10.110882">
        <ele>517.626796</ele>
        <time>2026-04-26T17:42:33.451Z</time>
      </trkpt>
      <trkpt lat="48.746819" lon="10.110765">
        <ele>517.033718</ele>
        <time>2026-04-26T17:42:34.817Z</time>
      </trkpt>
      <trkpt lat="48.746686" lon="10.110654">
        <ele>516.118271</ele>
        <time>2026-04-26T17:42:36.930Z</time>
      </trkpt>
      <trkpt lat="48.746265" lon="10.110583">
        <ele>513.563890</ele>
        <time>2026-04-26T17:42:42.968Z</time>
      </trkpt>
      <trkpt lat="48.746087" lon="10.110526">
        <ele>512.466839</ele>
        <time>2026-04-26T17:42:45.655Z</time>
      </trkpt>
      <trkpt lat="48.745929" lon="10.110476">
        <ele>511.493538</ele>
        <time>2026-04-26T17:42:48.058Z</time>
      </trkpt>
      <trkpt lat="48.745802" lon="10.110427">
        <ele>510.703301</ele>
        <time>2026-04-26T17:42:50.030Z</time>
      </trkpt>
      <trkpt lat="48.745461" lon="10.110229">
        <ele>508.501417</ele>
        <time>2026-04-26T17:42:55.618Z</time>
      </trkpt>
      <trkpt lat="48.745451" lon="10.110222">
        <ele>508.435000</ele>
        <time>2026-04-26T17:42:55.788Z</time>
      </trkpt>
      <trkpt lat="48.745294" lon="10.110325">
        <ele>507.782403</ele>
        <time>2026-04-26T17:42:59.519Z</time>
      </trkpt>
      <trkpt lat="48.744662" lon="10.109840">
        <ele>506.640989</ele>
        <time>2026-04-26T17:43:16.861Z</time>
      </trkpt>
      <trkpt lat="48.744586" lon="10.109735">
        <ele>506.475314</ele>
        <time>2026-04-26T17:43:19.650Z</time>
      </trkpt>
      <trkpt lat="48.744330" lon="10.110129">
        <ele>505.887546</ele>
        <time>2026-04-26T17:43:26.996Z</time>
      </trkpt>
      <trkpt lat="48.744285" lon="10.110232">
        <ele>505.756252</ele>
        <time>2026-04-26T17:43:28.624Z</time>
      </trkpt>
      <trkpt lat="48.744077" lon="10.110710">
        <ele>505.147690</ele>
        <time>2026-04-26T17:43:36.001Z</time>
      </trkpt>
      <trkpt lat="48.743986" lon="10.110926">
        <ele>504.940715</ele>
        <time>2026-04-26T17:43:39.258Z</time>
      </trkpt>
      <trkpt lat="48.743646" lon="10.111724">
        <ele>504.380758</ele>
        <time>2026-04-26T17:43:51.229Z</time>
      </trkpt>
      <trkpt lat="48.743475" lon="10.111979">
        <ele>504.166406</ele>
        <time>2026-04-26T17:43:55.898Z</time>
      </trkpt>
      <trkpt lat="48.743386" lon="10.111812">
        <ele>504.039853</ele>
        <time>2026-04-26T17:43:58.686Z</time>
      </trkpt>
      <trkpt lat="48.743045" lon="10.112182">
        <ele>503.665093</ele>
        <time>2026-04-26T17:44:06.973Z</time>
      </trkpt>
      <trkpt lat="48.743004" lon="10.112226">
        <ele>503.620200</ele>
        <time>2026-04-26T17:44:07.966Z</time>
      </trkpt>
      <trkpt lat="48.742829" lon="10.112390">
        <ele>503.436331</ele>
        <time>2026-04-26T17:44:12.043Z</time>
      </trkpt>
      <trkpt lat="48.742773" lon="10.112442">
        <ele>503.386129</ele>
        <time>2026-04-26T17:44:13.353Z</time>
      </trkpt>
      <trkpt lat="48.742660" lon="10.112554">
        <ele>503.293199</ele>
        <time>2026-04-26T17:44:16.048Z</time>
      </trkpt>
      <trkpt lat="48.742446" lon="10.112780">
        <ele>503.113679</ele>
        <time>2026-04-26T17:44:21.246Z</time>
      </trkpt>
      <trkpt lat="48.742212" lon="10.113051">
        <ele>502.910990</ele>
        <time>2026-04-26T17:44:27.124Z</time>
      </trkpt>
      <trkpt lat="48.742020" lon="10.113311">
        <ele>502.733790</ele>
        <time>2026-04-26T17:44:32.306Z</time>
      </trkpt>
      <trkpt lat="48.741873" lon="10.113508">
        <ele>502.598742</ele>
        <time>2026-04-26T17:44:36.225Z</time>
      </trkpt>
      <trkpt lat="48.741782" lon="10.113632">
        <ele>502.514522</ele>
        <time>2026-04-26T17:44:38.702Z</time>
      </trkpt>
      <trkpt lat="48.741759" lon="10.113665">
        <ele>502.492725</ele>
        <time>2026-04-26T17:44:39.326Z</time>
      </trkpt>
      <trkpt lat="48.741603" lon="10.113883">
        <ele>502.346690</ele>
        <time>2026-04-26T17:44:43.511Z</time>
      </trkpt>
      <trkpt lat="48.741514" lon="10.114009">
        <ele>502.262872</ele>
        <time>2026-04-26T17:44:45.846Z</time>
      </trkpt>
      <trkpt lat="48.741340" lon="10.114246">
        <ele>502.099027</ele>
        <time>2026-04-26T17:44:50.460Z</time>
      </trkpt>
      <trkpt lat="48.741197" lon="10.114430">
        <ele>501.965005</ele>
        <time>2026-04-26T17:44:54.093Z</time>
      </trkpt>
      <trkpt lat="48.740973" lon="10.114720">
        <ele>501.754527</ele>
        <time>2026-04-26T17:44:59.845Z</time>
      </trkpt>
      <trkpt lat="48.740914" lon="10.114800">
        <ele>501.697967</ele>
        <time>2026-04-26T17:45:01.399Z</time>
      </trkpt>
      <trkpt lat="48.740637" lon="10.114702">
        <ele>501.494702</ele>
        <time>2026-04-26T17:45:07.002Z</time>
      </trkpt>
      <trkpt lat="48.740538" lon="10.114913">
        <ele>501.372665</ele>
        <time>2026-04-26T17:45:11.532Z</time>
      </trkpt>
      <trkpt lat="48.740385" lon="10.114710">
        <ele>501.227384</ele>
        <time>2026-04-26T17:45:15.474Z</time>
      </trkpt>
      <trkpt lat="48.740362" lon="10.114690">
        <ele>501.208437</ele>
        <time>2026-04-26T17:45:15.977Z</time>
      </trkpt>
      <trkpt lat="48.740144" lon="10.114575">
        <ele>501.043493</ele>
        <time>2026-04-26T17:45:20.491Z</time>
      </trkpt>
      <trkpt lat="48.739938" lon="10.114513">
        <ele>500.893410</ele>
        <time>2026-04-26T17:45:24.696Z</time>
      </trkpt>
      <trkpt lat="48.739882" lon="10.114488">
        <ele>500.898384</ele>
        <time>2026-04-26T17:45:25.889Z</time>
      </trkpt>
      <trkpt lat="48.739668" lon="10.114381">
        <ele>500.928320</ele>
        <time>2026-04-26T17:45:30.744Z</time>
      </trkpt>
      <trkpt lat="48.739457" lon="10.114229">
        <ele>500.959354</ele>
        <time>2026-04-26T17:45:35.859Z</time>
      </trkpt>
      <trkpt lat="48.739122" lon="10.113986">
        <ele>501.008690</ele>
        <time>2026-04-26T17:45:43.902Z</time>
      </trkpt>
      <trkpt lat="48.738752" lon="10.113663">
        <ele>501.065409</ele>
        <time>2026-04-26T17:45:52.703Z</time>
      </trkpt>
      <trkpt lat="48.738449" lon="10.113447">
        <ele>501.109890</ele>
        <time>2026-04-26T17:45:59.999Z</time>
      </trkpt>
      <trkpt lat="48.738360" lon="10.113444">
        <ele>501.121716</ele>
        <time>2026-04-26T17:46:02.032Z</time>
      </trkpt>
      <trkpt lat="48.738248" lon="10.113750">
        <ele>501.098157</ele>
        <time>2026-04-26T17:46:07.224Z</time>
      </trkpt>
      <trkpt lat="48.738087" lon="10.113858">
        <ele>501.064833</ele>
        <time>2026-04-26T17:46:11.154Z</time>
      </trkpt>
      <trkpt lat="48.738042" lon="10.113893">
        <ele>501.055261</ele>
        <time>2026-04-26T17:46:12.259Z</time>
      </trkpt>
      <trkpt lat="48.737969" lon="10.113950">
        <ele>501.039719</ele>
        <time>2026-04-26T17:46:13.984Z</time>
      </trkpt>
      <trkpt lat="48.738042" lon="10.113893">
        <ele>501.024176</ele>
        <time>2026-04-26T17:46:15.734Z</time>
      </trkpt>
      <trkpt lat="48.738087" lon="10.113858">
        <ele>501.014604</ele>
        <time>2026-04-26T17:46:16.729Z</time>
      </trkpt>
      <trkpt lat="48.738248" lon="10.113750">
        <ele>500.981280</ele>
        <time>2026-04-26T17:46:20.180Z</time>
      </trkpt>
      <trkpt lat="48.738360" lon="10.113444">
        <ele>500.937593</ele>
        <time>2026-04-26T17:46:24.673Z</time>
      </trkpt>
      <trkpt lat="48.738449" lon="10.113447">
        <ele>500.920743</ele>
        <time>2026-04-26T17:46:26.361Z</time>
      </trkpt>
      <trkpt lat="48.738752" lon="10.113663">
        <ele>500.857369</ele>
        <time>2026-04-26T17:46:33.184Z</time>
      </trkpt>
      <trkpt lat="48.739122" lon="10.113986">
        <ele>500.833633</ele>
        <time>2026-04-26T17:46:42.358Z</time>
      </trkpt>
      <trkpt lat="48.739457" lon="10.114229">
        <ele>501.071730</ele>
        <time>2026-04-26T17:46:49.856Z</time>
      </trkpt>
      <trkpt lat="48.739668" lon="10.114381">
        <ele>501.221504</ele>
        <time>2026-04-26T17:46:54.383Z</time>
      </trkpt>
      <trkpt lat="48.739882" lon="10.114488">
        <ele>501.365978</ele>
        <time>2026-04-26T17:46:58.801Z</time>
      </trkpt>
      <trkpt lat="48.739938" lon="10.114513">
        <ele>501.403406</ele>
        <time>2026-04-26T17:46:59.978Z</time>
      </trkpt>
      <trkpt lat="48.740144" lon="10.114575">
        <ele>501.538060</ele>
        <time>2026-04-26T17:47:04.458Z</time>
      </trkpt>
      <trkpt lat="48.740164" lon="10.114496">
        <ele>501.573840</ele>
        <time>2026-04-26T17:47:05.711Z</time>
      </trkpt>
      <trkpt lat="48.740524" lon="10.113822">
        <ele>501.940570</ele>
        <time>2026-04-26T17:47:19.024Z</time>
      </trkpt>
      <trkpt lat="48.740684" lon="10.113528">
        <ele>502.763831</ele>
        <time>2026-04-26T17:47:25.103Z</time>
      </trkpt>
      <trkpt lat="48.741297" lon="10.112413">
        <ele>505.933940</ele>
        <time>2026-04-26T17:47:49.985Z</time>
      </trkpt>
      <trkpt lat="48.741422" lon="10.112137">
        <ele>506.665118</ele>
        <time>2026-04-26T17:47:55.654Z</time>
      </trkpt>
      <trkpt lat="48.741468" lon="10.111945">
        <ele>507.111217</ele>
        <time>2026-04-26T17:47:58.991Z</time>
      </trkpt>
      <trkpt lat="48.741488" lon="10.111698">
        <ele>507.654663</ele>
        <time>2026-04-26T17:48:02.979Z</time>
      </trkpt>
      <trkpt lat="48.741565" lon="10.111695">
        <ele>507.897572</ele>
        <time>2026-04-26T17:48:04.773Z</time>
      </trkpt>
      <trkpt lat="48.741645" lon="10.111629">
        <ele>507.859041</ele>
        <time>2026-04-26T17:48:06.924Z</time>
      </trkpt>
      <trkpt lat="48.741883" lon="10.111242">
        <ele>507.711402</ele>
        <time>2026-04-26T17:48:14.809Z</time>
      </trkpt>
      <trkpt lat="48.742843" lon="10.109439">
        <ele>507.162923</ele>
        <time>2026-04-26T17:48:42.540Z</time>
      </trkpt>
      <trkpt lat="48.742948" lon="10.109242">
        <ele>507.187032</ele>
        <time>2026-04-26T17:48:45.750Z</time>
      </trkpt>
      <trkpt lat="48.743693" lon="10.107934">
        <ele>507.351534</ele>
        <time>2026-04-26T17:49:09.939Z</time>
      </trkpt>
      <trkpt lat="48.743888" lon="10.107480">
        <ele>507.448778</ele>
        <time>2026-04-26T17:49:18.263Z</time>
      </trkpt>
      <trkpt lat="48.743967" lon="10.107135">
        <ele>507.771295</ele>
        <time>2026-04-26T17:49:23.910Z</time>
      </trkpt>
      <trkpt lat="48.743980" lon="10.107056">
        <ele>507.843199</ele>
        <time>2026-04-26T17:49:25.176Z</time>
      </trkpt>
      <trkpt lat="48.744006" lon="10.106903">
        <ele>507.982728</ele>
        <time>2026-04-26T17:49:27.624Z</time>
      </trkpt>
      <trkpt lat="48.744086" lon="10.106079">
        <ele>508.718246</ele>
        <time>2026-04-26T17:49:40.549Z</time>
      </trkpt>
      <trkpt lat="48.744114" lon="10.105214">
        <ele>509.483046</ele>
        <time>2026-04-26T17:49:53.624Z</time>
      </trkpt>
      <trkpt lat="48.744156" lon="10.104861">
        <ele>509.799813</ele>
        <time>2026-04-26T17:49:58.710Z</time>
      </trkpt>
      <trkpt lat="48.744219" lon="10.104577">
        <ele>509.613957</ele>
        <time>2026-04-26T17:50:02.774Z</time>
      </trkpt>
      <trkpt lat="48.744554" lon="10.104680">
        <ele>509.272777</ele>
        <time>2026-04-26T17:50:09.502Z</time>
      </trkpt>
      <trkpt lat="48.744655" lon="10.104684">
        <ele>509.171931</ele>
        <time>2026-04-26T17:50:11.442Z</time>
      </trkpt>
      <trkpt lat="48.744856" lon="10.104694">
        <ele>508.971197</ele>
        <time>2026-04-26T17:50:15.226Z</time>
      </trkpt>
      <trkpt lat="48.745140" lon="10.104603">
        <ele>508.681468</ele>
        <time>2026-04-26T17:50:20.488Z</time>
      </trkpt>
      <trkpt lat="48.745242" lon="10.104791">
        <ele>508.521229</ele>
        <time>2026-04-26T17:50:23.375Z</time>
      </trkpt>
      <trkpt lat="48.745782" lon="10.104980">
        <ele>507.965463</ele>
        <time>2026-04-26T17:50:33.509Z</time>
      </trkpt>
      <trkpt lat="48.745931" lon="10.104998">
        <ele>507.807229</ele>
        <time>2026-04-26T17:50:36.321Z</time>
      </trkpt>
      <trkpt lat="48.746255" lon="10.104701">
        <ele>507.406449</ele>
        <time>2026-04-26T17:50:43.616Z</time>
      </trkpt>
      <trkpt lat="48.746623" lon="10.104353">
        <ele>506.947347</ele>
        <time>2026-04-26T17:50:52.050Z</time>
      </trkpt>
      <trkpt lat="48.746704" lon="10.104262">
        <ele>506.840634</ele>
        <time>2026-04-26T17:50:54.001Z</time>
      </trkpt>
      <trkpt lat="48.746783" lon="10.104078">
        <ele>506.687367</ele>
        <time>2026-04-26T17:50:56.788Z</time>
      </trkpt>
      <trkpt lat="48.746926" lon="10.103044">
        <ele>506.079858</ele>
        <time>2026-04-26T17:51:10.199Z</time>
      </trkpt>
      <trkpt lat="48.747022" lon="10.102034">
        <ele>505.956954</ele>
        <time>2026-04-26T17:51:23.686Z</time>
      </trkpt>
      <trkpt lat="48.747036" lon="10.101700">
        <ele>505.916645</ele>
        <time>2026-04-26T17:51:28.258Z</time>
      </trkpt>
      <trkpt lat="48.746985" lon="10.100322">
        <ele>505.938981</ele>
        <time>2026-04-26T17:51:47.965Z</time>
      </trkpt>
      <trkpt lat="48.747051" lon="10.099753">
        <ele>506.337891</ele>
        <time>2026-04-26T17:51:56.543Z</time>
      </trkpt>
      <trkpt lat="48.747633" lon="10.098957">
        <ele>507.158553</ele>
        <time>2026-04-26T17:52:14.492Z</time>
      </trkpt>
      <trkpt lat="48.747831" lon="10.098744">
        <ele>507.412751</ele>
        <time>2026-04-26T17:52:20.115Z</time>
      </trkpt>
      <trkpt lat="48.748388" lon="10.098392">
        <ele>507.741566</ele>
        <time>2026-04-26T17:52:33.523Z</time>
      </trkpt>
      <trkpt lat="48.748785" lon="10.098199">
        <ele>507.832474</ele>
        <time>2026-04-26T17:52:42.475Z</time>
      </trkpt>
      <trkpt lat="48.749072" lon="10.098052">
        <ele>507.898530</ele>
        <time>2026-04-26T17:52:48.844Z</time>
      </trkpt>
      <trkpt lat="48.749384" lon="10.097999">
        <ele>507.966991</ele>
        <time>2026-04-26T17:52:55.351Z</time>
      </trkpt>
      <trkpt lat="48.749877" lon="10.097981">
        <ele>508.118588</ele>
        <time>2026-04-26T17:53:05.389Z</time>
      </trkpt>
      <trkpt lat="48.750120" lon="10.097907">
        <ele>508.289056</ele>
        <time>2026-04-26T17:53:10.526Z</time>
      </trkpt>
      <trkpt lat="48.750460" lon="10.097680">
        <ele>508.544560</ele>
        <time>2026-04-26T17:53:18.755Z</time>
      </trkpt>
      <trkpt lat="48.750685" lon="10.097448">
        <ele>508.731689</ele>
        <time>2026-04-26T17:53:24.863Z</time>
      </trkpt>
      <trkpt lat="48.750790" lon="10.097302">
        <ele>508.829663</ele>
        <time>2026-04-26T17:53:28.070Z</time>
      </trkpt>
      <trkpt lat="48.750885" lon="10.097049">
        <ele>508.961696</ele>
        <time>2026-04-26T17:53:32.393Z</time>
      </trkpt>
      <trkpt lat="48.751029" lon="10.096812">
        <ele>509.107847</ele>
        <time>2026-04-26T17:53:37.162Z</time>
      </trkpt>
      <trkpt lat="48.751203" lon="10.096628">
        <ele>509.253739</ele>
        <time>2026-04-26T17:53:41.935Z</time>
      </trkpt>
      <trkpt lat="48.751315" lon="10.096576">
        <ele>509.345158</ele>
        <time>2026-04-26T17:53:44.604Z</time>
      </trkpt>
      <trkpt lat="48.751772" lon="10.096540">
        <ele>509.739119</ele>
        <time>2026-04-26T17:53:55.084Z</time>
      </trkpt>
      <trkpt lat="48.752024" lon="10.096487">
        <ele>509.958141</ele>
        <time>2026-04-26T17:54:00.986Z</time>
      </trkpt>
      <trkpt lat="48.752211" lon="10.096404">
        <ele>510.125881</ele>
        <time>2026-04-26T17:54:05.490Z</time>
      </trkpt>
      <trkpt lat="48.752467" lon="10.096233">
        <ele>510.366697</ele>
        <time>2026-04-26T17:54:11.794Z</time>
      </trkpt>
      <trkpt lat="48.752734" lon="10.096079">
        <ele>510.612616</ele>
        <time>2026-04-26T17:54:17.863Z</time>
      </trkpt>
      <trkpt lat="48.752804" lon="10.096067">
        <ele>510.673263</ele>
        <time>2026-04-26T17:54:19.339Z</time>
      </trkpt>
      <trkpt lat="48.752861" lon="10.096049">
        <ele>510.723386</ele>
        <time>2026-04-26T17:54:20.567Z</time>
      </trkpt>
      <trkpt lat="48.752938" lon="10.096033">
        <ele>510.790295</ele>
        <time>2026-04-26T17:54:22.189Z</time>
      </trkpt>
      <trkpt lat="48.752991" lon="10.096044">
        <ele>510.836348</ele>
        <time>2026-04-26T17:54:23.293Z</time>
      </trkpt>
      <trkpt lat="48.753142" lon="10.096030">
        <ele>510.661600</ele>
        <time>2026-04-26T17:54:26.421Z</time>
      </trkpt>
      <trkpt lat="48.753228" lon="10.096038">
        <ele>510.557614</ele>
        <time>2026-04-26T17:54:28.179Z</time>
      </trkpt>
      <trkpt lat="48.753386" lon="10.096063">
        <ele>510.365893</ele>
        <time>2026-04-26T17:54:31.396Z</time>
      </trkpt>
      <trkpt lat="48.753670" lon="10.096198">
        <ele>510.006704</ele>
        <time>2026-04-26T17:54:37.162Z</time>
      </trkpt>
      <trkpt lat="48.754713" lon="10.096477">
        <ele>508.728511</ele>
        <time>2026-04-26T17:54:55.845Z</time>
      </trkpt>
      <trkpt lat="48.754968" lon="10.096582">
        <ele>508.499328</ele>
        <time>2026-04-26T17:55:00.974Z</time>
      </trkpt>
      <trkpt lat="48.755492" lon="10.096889">
        <ele>508.055969</ele>
        <time>2026-04-26T17:55:12.048Z</time>
      </trkpt>
      <trkpt lat="48.755739" lon="10.096971">
        <ele>507.856404</ele>
        <time>2026-04-26T17:55:17.103Z</time>
      </trkpt>
      <trkpt lat="48.755932" lon="10.096985">
        <ele>507.703900</ele>
        <time>2026-04-26T17:55:20.971Z</time>
      </trkpt>
      <trkpt lat="48.756556" lon="10.096941">
        <ele>507.243569</ele>
        <time>2026-04-26T17:55:33.581Z</time>
      </trkpt>
      <trkpt lat="48.757035" lon="10.096799">
        <ele>507.186520</ele>
        <time>2026-04-26T17:55:43.550Z</time>
      </trkpt>
      <trkpt lat="48.757208" lon="10.096805">
        <ele>507.166293</ele>
        <time>2026-04-26T17:55:47.105Z</time>
      </trkpt>
      <trkpt lat="48.757375" lon="10.096890">
        <ele>507.145703</ele>
        <time>2026-04-26T17:55:50.737Z</time>
      </trkpt>
      <trkpt lat="48.758010" lon="10.097481">
        <ele>507.058621</ele>
        <time>2026-04-26T17:56:06.481Z</time>
      </trkpt>
      <trkpt lat="48.758144" lon="10.097666">
        <ele>507.040678</ele>
        <time>2026-04-26T17:56:10.392Z</time>
      </trkpt>
      <trkpt lat="48.758565" lon="10.098535">
        <ele>507.128664</ele>
        <time>2026-04-26T17:56:25.675Z</time>
      </trkpt>
      <trkpt lat="48.758669" lon="10.098654">
        <ele>507.144787</ele>
        <time>2026-04-26T17:56:28.459Z</time>
      </trkpt>
      <trkpt lat="48.758807" lon="10.098701">
        <ele>507.162291</ele>
        <time>2026-04-26T17:56:31.457Z</time>
      </trkpt>
      <trkpt lat="48.759171" lon="10.098676">
        <ele>507.207386</ele>
        <time>2026-04-26T17:56:39.237Z</time>
      </trkpt>
      <trkpt lat="48.759558" lon="10.098793">
        <ele>507.256223</ele>
        <time>2026-04-26T17:56:47.574Z</time>
      </trkpt>
      <trkpt lat="48.762771" lon="10.099430">
        <ele>507.385943</ele>
        <time>2026-04-26T17:57:55.427Z</time>
      </trkpt>
      <trkpt lat="48.762896" lon="10.099395">
        <ele>507.409262</ele>
        <time>2026-04-26T17:57:58.259Z</time>
      </trkpt>
      <trkpt lat="48.762961" lon="10.099313">
        <ele>507.424771</ele>
        <time>2026-04-26T17:58:00.149Z</time>
      </trkpt>
      <trkpt lat="48.762973" lon="10.099175">
        <ele>507.441604</ele>
        <time>2026-04-26T17:58:02.200Z</time>
      </trkpt>
      <trkpt lat="48.762838" lon="10.097599">
        <ele>508.126864</ele>
        <time>2026-04-26T17:58:25.752Z</time>
      </trkpt>
      <trkpt lat="48.762852" lon="10.097478">
        <ele>508.183729</ele>
        <time>2026-04-26T17:58:27.576Z</time>
      </trkpt>
      <trkpt lat="48.762926" lon="10.097303">
        <ele>508.279970</ele>
        <time>2026-04-26T17:58:30.633Z</time>
      </trkpt>
      <trkpt lat="48.762979" lon="10.097262">
        <ele>508.321747</ele>
        <time>2026-04-26T17:58:31.947Z</time>
      </trkpt>
      <trkpt lat="48.763223" lon="10.097238">
        <ele>508.493449</ele>
        <time>2026-04-26T17:58:37.346Z</time>
      </trkpt>
      <trkpt lat="48.764063" lon="10.097267">
        <ele>508.708749</ele>
        <time>2026-04-26T17:58:55.481Z</time>
      </trkpt>
      <trkpt lat="48.764474" lon="10.097331">
        <ele>508.697720</ele>
        <time>2026-04-26T17:59:04.183Z</time>
      </trkpt>
      <trkpt lat="48.764752" lon="10.097437">
        <ele>508.690068</ele>
        <time>2026-04-26T17:59:10.197Z</time>
      </trkpt>
      <trkpt lat="48.765256" lon="10.097794">
        <ele>508.675220</ele>
        <time>2026-04-26T17:59:21.707Z</time>
      </trkpt>
      <trkpt lat="48.765908" lon="10.098422">
        <ele>508.001818</ele>
        <time>2026-04-26T17:59:37.082Z</time>
      </trkpt>
      <trkpt lat="48.767092" lon="10.099679">
        <ele>506.580806</ele>
        <time>2026-04-26T18:00:04.578Z</time>
      </trkpt>
      <trkpt lat="48.767203" lon="10.099769">
        <ele>506.430180</ele>
        <time>2026-04-26T18:00:06.955Z</time>
      </trkpt>
      <trkpt lat="48.767380" lon="10.099812">
        <ele>506.215649</ele>
        <time>2026-04-26T18:00:10.351Z</time>
      </trkpt>
      <trkpt lat="48.769148" lon="10.099739">
        <ele>504.246852</ele>
        <time>2026-04-26T18:00:44.150Z</time>
      </trkpt>
      <trkpt lat="48.771155" lon="10.099524">
        <ele>502.361628</ele>
        <time>2026-04-26T18:01:23.535Z</time>
      </trkpt>
      <trkpt lat="48.771560" lon="10.099497">
        <ele>502.001376</ele>
        <time>2026-04-26T18:01:31.743Z</time>
      </trkpt>
      <trkpt lat="48.771791" lon="10.099433">
        <ele>501.792702</ele>
        <time>2026-04-26T18:01:36.394Z</time>
      </trkpt>
      <trkpt lat="48.772207" lon="10.099211">
        <ele>501.411856</ele>
        <time>2026-04-26T18:01:44.638Z</time>
      </trkpt>
      <trkpt lat="48.772415" lon="10.099175">
        <ele>501.240140</ele>
        <time>2026-04-26T18:01:48.483Z</time>
      </trkpt>
      <trkpt lat="48.772660" lon="10.099189">
        <ele>501.039039</ele>
        <time>2026-04-26T18:01:53.060Z</time>
      </trkpt>
      <trkpt lat="48.772728" lon="10.099075">
        <ele>500.955920</ele>
        <time>2026-04-26T18:01:55.182Z</time>
      </trkpt>
      <trkpt lat="48.772865" lon="10.099037">
        <ele>500.841686</ele>
        <time>2026-04-26T18:01:58.121Z</time>
      </trkpt>
      <trkpt lat="48.772951" lon="10.098935">
        <ele>500.752152</ele>
        <time>2026-04-26T18:02:00.427Z</time>
      </trkpt>
      <trkpt lat="48.772836" lon="10.098571">
        <ele>500.533942</ele>
        <time>2026-04-26T18:02:06.063Z</time>
      </trkpt>
      <trkpt lat="48.772667" lon="10.098226">
        <ele>500.301569</ele>
        <time>2026-04-26T18:02:12.229Z</time>
      </trkpt>
      <trkpt lat="48.772165" lon="10.097534">
        <ele>500.447541</ele>
        <time>2026-04-26T18:02:28.354Z</time>
      </trkpt>
      <trkpt lat="48.772258" lon="10.097385">
        <ele>500.577401</ele>
        <time>2026-04-26T18:02:32.872Z</time>
      </trkpt>
      <trkpt lat="48.772198" lon="10.096414">
        <ele>501.194546</ele>
        <time>2026-04-26T18:02:49.162Z</time>
      </trkpt>
      <trkpt lat="48.772214" lon="10.096211">
        <ele>501.323920</ele>
        <time>2026-04-26T18:02:52.478Z</time>
      </trkpt>
      <trkpt lat="48.772292" lon="10.095806">
        <ele>501.590923</ele>
        <time>2026-04-26T18:02:59.211Z</time>
      </trkpt>
      <trkpt lat="48.772206" lon="10.095598">
        <ele>501.746304</ele>
        <time>2026-04-26T18:03:03.096Z</time>
      </trkpt>
      <trkpt lat="48.772174" lon="10.095608">
        <ele>501.777674</ele>
        <time>2026-04-26T18:03:04.223Z</time>
      </trkpt>
      <trkpt lat="48.772206" lon="10.095598">
        <ele>501.782448</ele>
        <time>2026-04-26T18:03:05.349Z</time>
      </trkpt>
      <trkpt lat="48.772292" lon="10.095806">
        <ele>501.625858</ele>
        <time>2026-04-26T18:03:09.030Z</time>
      </trkpt>
      <trkpt lat="48.772214" lon="10.096211">
        <ele>501.356776</ele>
        <time>2026-04-26T18:03:15.221Z</time>
      </trkpt>
      <trkpt lat="48.772198" lon="10.096414">
        <ele>501.226395</ele>
        <time>2026-04-26T18:03:18.127Z</time>
      </trkpt>
      <trkpt lat="48.772258" lon="10.097385">
        <ele>500.604445</ele>
        <time>2026-04-26T18:03:30.520Z</time>
      </trkpt>
      <trkpt lat="48.772165" lon="10.097534">
        <ele>500.473574</ele>
        <time>2026-04-26T18:03:34.727Z</time>
      </trkpt>
      <trkpt lat="48.772667" lon="10.098226">
        <ele>500.252341</ele>
        <time>2026-04-26T18:03:50.272Z</time>
      </trkpt>
      <trkpt lat="48.772836" lon="10.098571">
        <ele>500.479167</ele>
        <time>2026-04-26T18:03:57.196Z</time>
      </trkpt>
      <trkpt lat="48.772951" lon="10.098935">
        <ele>500.692168</ele>
        <time>2026-04-26T18:04:03.746Z</time>
      </trkpt>
      <trkpt lat="48.772865" lon="10.099037">
        <ele>500.779564</ele>
        <time>2026-04-26T18:04:06.419Z</time>
      </trkpt>
      <trkpt lat="48.772728" lon="10.099075">
        <ele>500.891072</ele>
        <time>2026-04-26T18:04:09.842Z</time>
      </trkpt>
      <trkpt lat="48.772660" lon="10.099189">
        <ele>500.972207</ele>
        <time>2026-04-26T18:04:12.343Z</time>
      </trkpt>
      <trkpt lat="48.772415" lon="10.099175">
        <ele>501.168507</ele>
        <time>2026-04-26T18:04:17.957Z</time>
      </trkpt>
      <trkpt lat="48.772207" lon="10.099211">
        <ele>501.336123</ele>
        <time>2026-04-26T18:04:22.780Z</time>
      </trkpt>
      <trkpt lat="48.771791" lon="10.099433">
        <ele>501.659680</ele>
        <time>2026-04-26T18:04:32.761Z</time>
      </trkpt>
      <trkpt lat="48.771560" lon="10.099497">
        <ele>501.819047</ele>
        <time>2026-04-26T18:04:37.897Z</time>
      </trkpt>
      <trkpt lat="48.771155" lon="10.099524">
        <ele>502.094177</ele>
        <time>2026-04-26T18:04:46.547Z</time>
      </trkpt>
      <trkpt lat="48.771045" lon="10.099355">
        <ele>502.200420</ele>
        <time>2026-04-26T18:04:49.922Z</time>
      </trkpt>
      <trkpt lat="48.770373" lon="10.098419">
        <ele>502.944098</ele>
        <time>2026-04-26T18:05:10.100Z</time>
      </trkpt>
      <trkpt lat="48.769733" lon="10.097705">
        <ele>504.132973</ele>
        <time>2026-04-26T18:05:28.258Z</time>
      </trkpt>
      <trkpt lat="48.769390" lon="10.097475">
        <ele>504.694203</ele>
        <time>2026-04-26T18:05:36.930Z</time>
      </trkpt>
      <trkpt lat="48.769073" lon="10.097318">
        <ele>505.193260</ele>
        <time>2026-04-26T18:05:44.660Z</time>
      </trkpt>
      <trkpt lat="48.768131" lon="10.096995">
        <ele>507.841717</ele>
        <time>2026-04-26T18:06:07.221Z</time>
      </trkpt>
      <trkpt lat="48.767908" lon="10.096827">
        <ele>508.578628</ele>
        <time>2026-04-26T18:06:13.310Z</time>
      </trkpt>
      <trkpt lat="48.767501" lon="10.096296">
        <ele>510.167382</ele>
        <time>2026-04-26T18:06:27.024Z</time>
      </trkpt>
      <trkpt lat="48.767372" lon="10.096081">
        <ele>510.734407</ele>
        <time>2026-04-26T18:06:31.893Z</time>
      </trkpt>
      <trkpt lat="48.767101" lon="10.095617">
        <ele>511.882310</ele>
        <time>2026-04-26T18:06:42.444Z</time>
      </trkpt>
      <trkpt lat="48.767009" lon="10.095457">
        <ele>512.275453</ele>
        <time>2026-04-26T18:06:46.036Z</time>
      </trkpt>
      <trkpt lat="48.766894" lon="10.095116">
        <ele>512.984697</ele>
        <time>2026-04-26T18:06:52.442Z</time>
      </trkpt>
      <trkpt lat="48.766798" lon="10.094524">
        <ele>514.113535</ele>
        <time>2026-04-26T18:07:02.533Z</time>
      </trkpt>
      <trkpt lat="48.766642" lon="10.092206">
        <ele>517.121008</ele>
        <time>2026-04-26T18:07:38.534Z</time>
      </trkpt>
      <trkpt lat="48.766572" lon="10.091318">
        <ele>517.958346</ele>
        <time>2026-04-26T18:07:52.448Z</time>
      </trkpt>
      <trkpt lat="48.766330" lon="10.090138">
        <ele>519.249889</ele>
        <time>2026-04-26T18:08:11.824Z</time>
      </trkpt>
      <trkpt lat="48.765986" lon="10.087598">
        <ele>522.259298</ele>
        <time>2026-04-26T18:08:52.495Z</time>
      </trkpt>
      <trkpt lat="48.765931" lon="10.087361">
        <ele>522.593627</ele>
        <time>2026-04-26T18:08:56.452Z</time>
      </trkpt>
      <trkpt lat="48.765778" lon="10.086521">
        <ele>523.753228</ele>
        <time>2026-04-26T18:09:15.731Z</time>
      </trkpt>
      <trkpt lat="48.765502" lon="10.084551">
        <ele>527.164320</ele>
        <time>2026-04-26T18:10:00.195Z</time>
      </trkpt>
      <trkpt lat="48.765410" lon="10.083899">
        <ele>528.494261</ele>
        <time>2026-04-26T18:10:14.945Z</time>
      </trkpt>
      <trkpt lat="48.765130" lon="10.082638">
        <ele>531.662395</ele>
        <time>2026-04-26T18:10:44.776Z</time>
      </trkpt>
      <trkpt lat="48.764436" lon="10.079881">
        <ele>541.493972</ele>
        <time>2026-04-26T18:11:54.751Z</time>
      </trkpt>
      <trkpt lat="48.764371" lon="10.079494">
        <ele>542.740304</ele>
        <time>2026-04-26T18:12:04.293Z</time>
      </trkpt>
      <trkpt lat="48.764333" lon="10.079098">
        <ele>543.989160</ele>
        <time>2026-04-26T18:12:13.753Z</time>
      </trkpt>
      <trkpt lat="48.764314" lon="10.078352">
        <ele>546.319000</ele>
        <time>2026-04-26T18:12:31.027Z</time>
      </trkpt>
      <trkpt lat="48.764337" lon="10.077606">
        <ele>548.325440</ele>
        <time>2026-04-26T18:12:47.801Z</time>
      </trkpt>
      <trkpt lat="48.764440" lon="10.076738">
        <ele>549.251944</ele>
        <time>2026-04-26T18:13:07.289Z</time>
      </trkpt>
      <trkpt lat="48.764524" lon="10.076367">
        <ele>549.664036</ele>
        <time>2026-04-26T18:13:16.177Z</time>
      </trkpt>
      <trkpt lat="48.764931" lon="10.075341">
        <ele>550.921985</ele>
        <time>2026-04-26T18:13:43.385Z</time>
      </trkpt>
      <trkpt lat="48.765123" lon="10.074996">
        <ele>551.776603</ele>
        <time>2026-04-26T18:13:53.500Z</time>
      </trkpt>
      <trkpt lat="48.765688" lon="10.074248">
        <ele>554.203896</ele>
        <time>2026-04-26T18:14:18.638Z</time>
      </trkpt>
      <trkpt lat="48.765958" lon="10.073830">
        <ele>555.452575</ele>
        <time>2026-04-26T18:14:31.968Z</time>
      </trkpt>
      <trkpt lat="48.766112" lon="10.073522">
        <ele>556.277392</ele>
        <time>2026-04-26T18:14:41.284Z</time>
      </trkpt>
      <trkpt lat="48.767012" lon="10.071305">
        <ele>565.290857</ele>
        <time>2026-04-26T18:15:44.099Z</time>
      </trkpt>
      <trkpt lat="48.767439" lon="10.070417">
        <ele>568.517644</ele>
        <time>2026-04-26T18:16:09.197Z</time>
      </trkpt>
      <trkpt lat="48.768127" lon="10.069294">
        <ele>572.438890</ele>
        <time>2026-04-26T18:16:43.229Z</time>
      </trkpt>
      <trkpt lat="48.768405" lon="10.068889">
        <ele>574.043438</ele>
        <time>2026-04-26T18:16:56.287Z</time>
      </trkpt>
      <trkpt lat="48.768913" lon="10.068335">
        <ele>577.560389</ele>
        <time>2026-04-26T18:17:18.411Z</time>
      </trkpt>
      <trkpt lat="48.769500" lon="10.067853">
        <ele>581.312536</ele>
        <time>2026-04-26T18:17:43.312Z</time>
      </trkpt>
      <trkpt lat="48.769622" lon="10.067782">
        <ele>582.047093</ele>
        <time>2026-04-26T18:17:48.287Z</time>
      </trkpt>
      <trkpt lat="48.769941" lon="10.067598">
        <ele>583.949457</ele>
        <time>2026-04-26T18:18:01.178Z</time>
      </trkpt>
      <trkpt lat="48.770226" lon="10.067562">
        <ele>585.397896</ele>
        <time>2026-04-26T18:18:11.890Z</time>
      </trkpt>
      <trkpt lat="48.770447" lon="10.067588">
        <ele>586.520558</ele>
        <time>2026-04-26T18:18:19.996Z</time>
      </trkpt>
      <trkpt lat="48.770611" lon="10.067659">
        <ele>587.384323</ele>
        <time>2026-04-26T18:18:26.119Z</time>
      </trkpt>
      <trkpt lat="48.770882" lon="10.067836">
        <ele>588.878627</ele>
        <time>2026-04-26T18:18:36.638Z</time>
      </trkpt>
      <trkpt lat="48.771012" lon="10.067987">
        <ele>589.707822</ele>
        <time>2026-04-26T18:18:42.399Z</time>
      </trkpt>
      <trkpt lat="48.771378" lon="10.068553">
        <ele>592.354636</ele>
        <time>2026-04-26T18:19:00.318Z</time>
      </trkpt>
      <trkpt lat="48.771601" lon="10.068728">
        <ele>593.307499</ele>
        <time>2026-04-26T18:19:08.901Z</time>
      </trkpt>
      <trkpt lat="48.771739" lon="10.068836">
        <ele>593.742867</ele>
        <time>2026-04-26T18:19:14.198Z</time>
      </trkpt>
      <trkpt lat="48.772203" lon="10.069080">
        <ele>595.119768</ele>
        <time>2026-04-26T18:19:30.737Z</time>
      </trkpt>
      <trkpt lat="48.772688" lon="10.069429">
        <ele>596.624806</ele>
        <time>2026-04-26T18:19:48.721Z</time>
      </trkpt>
      <trkpt lat="48.773231" lon="10.069891">
        <ele>598.217015</ele>
        <time>2026-04-26T18:20:09.623Z</time>
      </trkpt>
      <trkpt lat="48.773507" lon="10.070176">
        <ele>598.807237</ele>
        <time>2026-04-26T18:20:20.828Z</time>
      </trkpt>
      <trkpt lat="48.774118" lon="10.070714">
        <ele>600.056149</ele>
        <time>2026-04-26T18:20:44.600Z</time>
      </trkpt>
      <trkpt lat="48.774283" lon="10.070902">
        <ele>600.420943</ele>
        <time>2026-04-26T18:20:51.750Z</time>
      </trkpt>
      <trkpt lat="48.774635" lon="10.071461">
        <ele>601.663781</ele>
        <time>2026-04-26T18:21:08.944Z</time>
      </trkpt>
      <trkpt lat="48.774948" lon="10.071507">
        <ele>603.239428</ele>
        <time>2026-04-26T18:21:19.535Z</time>
      </trkpt>
      <trkpt lat="48.775163" lon="10.071430">
        <ele>604.346298</ele>
        <time>2026-04-26T18:21:27.082Z</time>
      </trkpt>
      <trkpt lat="48.775828" lon="10.070632">
        <ele>608.594322</ele>
        <time>2026-04-26T18:21:57.754Z</time>
      </trkpt>
      <trkpt lat="48.776146" lon="10.070197">
        <ele>610.909330</ele>
        <time>2026-04-26T18:22:15.095Z</time>
      </trkpt>
      <trkpt lat="48.776252" lon="10.069900">
        <ele>612.344461</ele>
        <time>2026-04-26T18:22:24.183Z</time>
      </trkpt>
      <trkpt lat="48.776324" lon="10.069501">
        <ele>614.102209</ele>
        <time>2026-04-26T18:22:34.955Z</time>
      </trkpt>
      <trkpt lat="48.776592" lon="10.068163">
        <ele>620.044109</ele>
        <time>2026-04-26T18:23:08.740Z</time>
      </trkpt>
      <trkpt lat="48.776786" lon="10.067018">
        <ele>624.915579</ele>
        <time>2026-04-26T18:23:36.826Z</time>
      </trkpt>
      <trkpt lat="48.777381" lon="10.064555">
        <ele>635.015228</ele>
        <time>2026-04-26T18:24:41.724Z</time>
      </trkpt>
      <trkpt lat="48.777541" lon="10.062401">
        <ele>641.887977</ele>
        <time>2026-04-26T18:25:31.664Z</time>
      </trkpt>
      <trkpt lat="48.777606" lon="10.059908">
        <ele>645.789801</ele>
        <time>2026-04-26T18:26:26.739Z</time>
      </trkpt>
      <trkpt lat="48.777621" lon="10.059224">
        <ele>646.146544</ele>
        <time>2026-04-26T18:26:42.290Z</time>
      </trkpt>
      <trkpt lat="48.777614" lon="10.058959">
        <ele>646.225832</ele>
        <time>2026-04-26T18:26:48.327Z</time>
      </trkpt>
      <trkpt lat="48.777821" lon="10.057985">
        <ele>646.531786</ele>
        <time>2026-04-26T18:27:11.637Z</time>
      </trkpt>
      <trkpt lat="48.778200" lon="10.057233">
        <ele>647.043935</ele>
        <time>2026-04-26T18:27:33.255Z</time>
      </trkpt>
      <trkpt lat="48.778579" lon="10.056625">
        <ele>650.033274</ele>
        <time>2026-04-26T18:27:51.873Z</time>
      </trkpt>
      <trkpt lat="48.778776" lon="10.056386">
        <ele>651.400353</ele>
        <time>2026-04-26T18:28:00.878Z</time>
      </trkpt>
      <trkpt lat="48.779093" lon="10.056131">
        <ele>653.345049</ele>
        <time>2026-04-26T18:28:11.689Z</time>
      </trkpt>
      <trkpt lat="48.779395" lon="10.055868">
        <ele>655.232352</ele>
        <time>2026-04-26T18:28:23.059Z</time>
      </trkpt>
      <trkpt lat="48.779790" lon="10.055409">
        <ele>657.912290</ele>
        <time>2026-04-26T18:28:39.547Z</time>
      </trkpt>
      <trkpt lat="48.779869" lon="10.055269">
        <ele>658.562709</ele>
        <time>2026-04-26T18:28:43.387Z</time>
      </trkpt>
      <trkpt lat="48.780069" lon="10.054918">
        <ele>660.200159</ele>
        <time>2026-04-26T18:28:52.425Z</time>
      </trkpt>
      <trkpt lat="48.780822" lon="10.053101">
        <ele>667.151699</ele>
        <time>2026-04-26T18:29:28.272Z</time>
      </trkpt>
      <trkpt lat="48.780983" lon="10.052550">
        <ele>668.450442</ele>
        <time>2026-04-26T18:29:37.706Z</time>
      </trkpt>
      <trkpt lat="48.781187" lon="10.051889">
        <ele>670.023186</ele>
        <time>2026-04-26T18:29:49.238Z</time>
      </trkpt>
      <trkpt lat="48.782419" lon="10.048345">
        <ele>679.249638</ele>
        <time>2026-04-26T18:30:54.924Z</time>
      </trkpt>
      <trkpt lat="48.782434" lon="10.048028">
        <ele>679.989007</ele>
        <time>2026-04-26T18:31:00.117Z</time>
      </trkpt>
      <trkpt lat="48.782372" lon="10.045775">
        <ele>685.289025</ele>
        <time>2026-04-26T18:31:36.625Z</time>
      </trkpt>
      <trkpt lat="48.781865" lon="10.045560">
        <ele>687.392021</ele>
        <time>2026-04-26T18:31:55.310Z</time>
      </trkpt>
      <trkpt lat="48.781682" lon="10.045422">
        <ele>688.208365</ele>
        <time>2026-04-26T18:32:02.580Z</time>
      </trkpt>
      <trkpt lat="48.781460" lon="10.045232">
        <ele>689.226540</ele>
        <time>2026-04-26T18:32:11.545Z</time>
      </trkpt>
      <trkpt lat="48.781254" lon="10.044622">
        <ele>691.030887</ele>
        <time>2026-04-26T18:32:27.020Z</time>
      </trkpt>
      <trkpt lat="48.781080" lon="10.043760">
        <ele>692.008712</ele>
        <time>2026-04-26T18:32:46.955Z</time>
      </trkpt>
      <trkpt lat="48.780930" lon="10.043287">
        <ele>692.008232</ele>
        <time>2026-04-26T18:32:58.785Z</time>
      </trkpt>
      <trkpt lat="48.780694" lon="10.042586">
        <ele>692.007513</ele>
        <time>2026-04-26T18:33:15.450Z</time>
      </trkpt>
      <trkpt lat="48.780409" lon="10.041974">
        <ele>692.006828</ele>
        <time>2026-04-26T18:33:31.173Z</time>
      </trkpt>
      <trkpt lat="48.780047" lon="10.041198">
        <ele>691.704134</ele>
        <time>2026-04-26T18:33:52.833Z</time>
      </trkpt>
      <trkpt lat="48.779432" lon="10.040370">
        <ele>691.239574</ele>
        <time>2026-04-26T18:34:21.307Z</time>
      </trkpt>
      <trkpt lat="48.779207" lon="10.039967">
        <ele>691.042898</ele>
        <time>2026-04-26T18:34:33.351Z</time>
      </trkpt>
      <trkpt lat="48.779165" lon="10.039820">
        <ele>690.958218</ele>
        <time>2026-04-26T18:34:37.002Z</time>
      </trkpt>
      <trkpt lat="48.779141" lon="10.039530">
        <ele>690.467118</ele>
        <time>2026-04-26T18:34:43.669Z</time>
      </trkpt>
      <trkpt lat="48.779157" lon="10.039230">
        <ele>689.961394</ele>
        <time>2026-04-26T18:34:50.326Z</time>
      </trkpt>
      <trkpt lat="48.779053" lon="10.039080">
        <ele>689.595546</ele>
        <time>2026-04-26T18:34:54.880Z</time>
      </trkpt>
      <trkpt lat="48.779003" lon="10.039059">
        <ele>689.463261</ele>
        <time>2026-04-26T18:34:56.490Z</time>
      </trkpt>
      <trkpt lat="48.778891" lon="10.039108">
        <ele>689.166047</ele>
        <time>2026-04-26T18:34:58.457Z</time>
      </trkpt>
      <trkpt lat="48.778772" lon="10.039113">
        <ele>688.862500</ele>
        <time>2026-04-26T18:35:00.435Z</time>
      </trkpt>
      <trkpt lat="48.778456" lon="10.039010">
        <ele>688.038373</ele>
        <time>2026-04-26T18:35:05.616Z</time>
      </trkpt>
      <trkpt lat="48.778235" lon="10.039009">
        <ele>687.474856</ele>
        <time>2026-04-26T18:35:09.097Z</time>
      </trkpt>
      <trkpt lat="48.778144" lon="10.039046">
        <ele>687.234636</ele>
        <time>2026-04-26T18:35:10.583Z</time>
      </trkpt>
      <trkpt lat="48.777948" lon="10.039127">
        <ele>686.716666</ele>
        <time>2026-04-26T18:35:13.848Z</time>
      </trkpt>
      <trkpt lat="48.777810" lon="10.039271">
        <ele>686.315478</ele>
        <time>2026-04-26T18:35:18.715Z</time>
      </trkpt>
      <trkpt lat="48.777635" lon="10.039366">
        <ele>685.948582</ele>
        <time>2026-04-26T18:35:24.138Z</time>
      </trkpt>
      <trkpt lat="48.777492" lon="10.039388">
        <ele>685.664847</ele>
        <time>2026-04-26T18:35:28.297Z</time>
      </trkpt>
      <trkpt lat="48.777089" lon="10.039375">
        <ele>684.869128</ele>
        <time>2026-04-26T18:35:39.991Z</time>
      </trkpt>
      <trkpt lat="48.773090" lon="10.039638">
        <ele>677.029262</ele>
        <time>2026-04-26T18:37:02.450Z</time>
      </trkpt>
      <trkpt lat="48.771888" lon="10.038783">
        <ele>673.733166</ele>
        <time>2026-04-26T18:37:27.738Z</time>
      </trkpt>
      <trkpt lat="48.771467" lon="10.038393">
        <ele>672.269165</ele>
        <time>2026-04-26T18:37:36.807Z</time>
      </trkpt>
      <trkpt lat="48.770755" lon="10.037503">
        <ele>669.654628</ele>
        <time>2026-04-26T18:37:53.829Z</time>
      </trkpt>
      <trkpt lat="48.770513" lon="10.037299">
        <ele>668.936823</ele>
        <time>2026-04-26T18:37:59.007Z</time>
      </trkpt>
      <trkpt lat="48.770266" lon="10.037168">
        <ele>668.258393</ele>
        <time>2026-04-26T18:38:03.933Z</time>
      </trkpt>
      <trkpt lat="48.769990" lon="10.037113">
        <ele>667.536624</ele>
        <time>2026-04-26T18:38:09.228Z</time>
      </trkpt>
      <trkpt lat="48.768875" lon="10.037069">
        <ele>665.154203</ele>
        <time>2026-04-26T18:38:31.122Z</time>
      </trkpt>
      <trkpt lat="48.768211" lon="10.037170">
        <ele>664.158929</ele>
        <time>2026-04-26T18:38:45.182Z</time>
      </trkpt>
      <trkpt lat="48.767551" lon="10.037214">
        <ele>663.173635</ele>
        <time>2026-04-26T18:38:59.609Z</time>
      </trkpt>
      <trkpt lat="48.767167" lon="10.037164">
        <ele>662.472558</ele>
        <time>2026-04-26T18:39:07.706Z</time>
      </trkpt>
      <trkpt lat="48.767007" lon="10.037089">
        <ele>662.166771</ele>
        <time>2026-04-26T18:39:11.161Z</time>
      </trkpt>
      <trkpt lat="48.766149" lon="10.035955">
        <ele>660.088940</ele>
        <time>2026-04-26T18:39:33.543Z</time>
      </trkpt>
      <trkpt lat="48.765995" lon="10.035604">
        <ele>659.577515</ele>
        <time>2026-04-26T18:39:38.916Z</time>
      </trkpt>
      <trkpt lat="48.765903" lon="10.035170">
        <ele>659.021513</ele>
        <time>2026-04-26T18:39:44.940Z</time>
      </trkpt>
      <trkpt lat="48.765783" lon="10.034159">
        <ele>657.768671</ele>
        <time>2026-04-26T18:39:59.136Z</time>
      </trkpt>
      <trkpt lat="48.765747" lon="10.033097">
        <ele>656.469694</ele>
        <time>2026-04-26T18:40:12.938Z</time>
      </trkpt>
      <trkpt lat="48.765866" lon="10.031393">
        <ele>654.324571</ele>
        <time>2026-04-26T18:40:35.153Z</time>
      </trkpt>
      <trkpt lat="48.765878" lon="10.031279">
        <ele>654.180050</ele>
        <time>2026-04-26T18:40:36.654Z</time>
      </trkpt>
      <trkpt lat="48.765963" lon="10.030446">
        <ele>653.127200</ele>
        <time>2026-04-26T18:40:47.980Z</time>
      </trkpt>
      <trkpt lat="48.766006" lon="10.029761">
        <ele>652.508225</ele>
        <time>2026-04-26T18:40:57.890Z</time>
      </trkpt>
      <trkpt lat="48.766100" lon="10.027725">
        <ele>650.673414</ele>
        <time>2026-04-26T18:41:26.020Z</time>
      </trkpt>
      <trkpt lat="48.766093" lon="10.027430">
        <ele>650.455805</ele>
        <time>2026-04-26T18:41:29.987Z</time>
      </trkpt>
      <trkpt lat="48.766029" lon="10.027070">
        <ele>650.180937</ele>
        <time>2026-04-26T18:41:35.053Z</time>
      </trkpt>
      <trkpt lat="48.765666" lon="10.025246">
        <ele>648.776364</ele>
        <time>2026-04-26T18:42:02.172Z</time>
      </trkpt>
      <trkpt lat="48.765594" lon="10.024313">
        <ele>648.390395</ele>
        <time>2026-04-26T18:42:16.076Z</time>
      </trkpt>
      <trkpt lat="48.765425" lon="10.023671">
        <ele>648.148661</ele>
        <time>2026-04-26T18:42:26.451Z</time>
      </trkpt>
      <trkpt lat="48.765369" lon="10.023419">
        <ele>648.055668</ele>
        <time>2026-04-26T18:42:30.465Z</time>
      </trkpt>
      <trkpt lat="48.765141" lon="10.022715">
        <ele>647.781383</ele>
        <time>2026-04-26T18:42:42.320Z</time>
      </trkpt>
      <trkpt lat="48.764609" lon="10.021287">
        <ele>646.475732</ele>
        <time>2026-04-26T18:43:06.100Z</time>
      </trkpt>
      <trkpt lat="48.764569" lon="10.021213">
        <ele>646.393755</ele>
        <time>2026-04-26T18:43:08.137Z</time>
      </trkpt>
      <trkpt lat="48.763964" lon="10.019595">
        <ele>644.762251</ele>
        <time>2026-04-26T18:43:46.899Z</time>
      </trkpt>
      <trkpt lat="48.763677" lon="10.018473">
        <ele>643.663088</ele>
        <time>2026-04-26T18:44:12.300Z</time>
      </trkpt>
      <trkpt lat="48.763088" lon="10.016334">
        <ele>643.230033</ele>
        <time>2026-04-26T18:45:05.177Z</time>
      </trkpt>
      <trkpt lat="48.762602" lon="10.015140">
        <ele>643.687648</ele>
        <time>2026-04-26T18:45:36.521Z</time>
      </trkpt>
      <trkpt lat="48.762121" lon="10.014222">
        <ele>645.022899</ele>
        <time>2026-04-26T18:46:02.462Z</time>
      </trkpt>
      <trkpt lat="48.761631" lon="10.013613">
        <ele>646.117083</ele>
        <time>2026-04-26T18:46:23.687Z</time>
      </trkpt>
      <trkpt lat="48.761395" lon="10.013087">
        <ele>646.622874</ele>
        <time>2026-04-26T18:46:37.832Z</time>
      </trkpt>
      <trkpt lat="48.761144" lon="10.012565">
        <ele>646.574996</ele>
        <time>2026-04-26T18:46:52.372Z</time>
      </trkpt>
      <trkpt lat="48.760882" lon="10.011681">
        <ele>646.503174</ele>
        <time>2026-04-26T18:47:14.481Z</time>
      </trkpt>
      <trkpt lat="48.760452" lon="10.010077">
        <ele>645.640836</ele>
        <time>2026-04-26T18:47:51.667Z</time>
      </trkpt>
      <trkpt lat="48.760404" lon="10.009785">
        <ele>645.341975</ele>
        <time>2026-04-26T18:47:57.984Z</time>
      </trkpt>
      <trkpt lat="48.760403" lon="10.009112">
        <ele>644.673626</ele>
        <time>2026-04-26T18:48:12.204Z</time>
      </trkpt>
      <trkpt lat="48.760341" lon="10.008824">
        <ele>644.372752</ele>
        <time>2026-04-26T18:48:18.712Z</time>
      </trkpt>
      <trkpt lat="48.760040" lon="10.008125">
        <ele>643.484603</ele>
        <time>2026-04-26T18:48:37.002Z</time>
      </trkpt>
      <trkpt lat="48.759352" lon="10.006559">
        <ele>641.005900</ele>
        <time>2026-04-26T18:49:17.280Z</time>
      </trkpt>
      <trkpt lat="48.758420" lon="10.004666">
        <ele>637.207898</ele>
        <time>2026-04-26T18:49:43.677Z</time>
      </trkpt>
      <trkpt lat="48.758100" lon="10.003727">
        <ele>635.447798</ele>
        <time>2026-04-26T18:49:56.266Z</time>
      </trkpt>
      <trkpt lat="48.757966" lon="10.003213">
        <ele>635.714242</ele>
        <time>2026-04-26T18:50:03.931Z</time>
      </trkpt>
      <trkpt lat="48.757795" lon="10.002526">
        <ele>636.068230</ele>
        <time>2026-04-26T18:50:15.098Z</time>
      </trkpt>
      <trkpt lat="48.757421" lon="10.001327">
        <ele>636.707645</ele>
        <time>2026-04-26T18:50:36.045Z</time>
      </trkpt>
      <trkpt lat="48.756383" lon="9.998480">
        <ele>639.515557</ele>
        <time>2026-04-26T18:51:26.486Z</time>
      </trkpt>
      <trkpt lat="48.756297" lon="9.998190">
        <ele>639.728471</ele>
        <time>2026-04-26T18:51:31.402Z</time>
      </trkpt>
      <trkpt lat="48.755894" lon="9.997135">
        <ele>640.544876</ele>
        <time>2026-04-26T18:51:50.178Z</time>
      </trkpt>
      <trkpt lat="48.755487" lon="9.996100">
        <ele>641.082902</ele>
        <time>2026-04-26T18:52:08.321Z</time>
      </trkpt>
      <trkpt lat="48.755289" lon="9.995569">
        <ele>641.127887</ele>
        <time>2026-04-26T18:52:17.266Z</time>
      </trkpt>
      <trkpt lat="48.755060" lon="9.994935">
        <ele>641.181195</ele>
        <time>2026-04-26T18:52:27.733Z</time>
      </trkpt>
      <trkpt lat="48.755317" lon="9.994875">
        <ele>641.210278</ele>
        <time>2026-04-26T18:52:33.380Z</time>
      </trkpt>
      <trkpt lat="48.755388" lon="9.994826">
        <ele>641.219003</ele>
        <time>2026-04-26T18:52:35.050Z</time>
      </trkpt>
      <trkpt lat="48.755481" lon="9.994623">
        <ele>641.237231</ele>
        <time>2026-04-26T18:52:38.507Z</time>
      </trkpt>
      <trkpt lat="48.755535" lon="9.994226">
        <ele>641.226124</ele>
        <time>2026-04-26T18:52:44.231Z</time>
      </trkpt>
      <trkpt lat="48.755544" lon="9.993527">
        <ele>641.148179</ele>
        <time>2026-04-26T18:52:54.373Z</time>
      </trkpt>
      <trkpt lat="48.755596" lon="9.993226">
        <ele>641.113488</ele>
        <time>2026-04-26T18:52:58.809Z</time>
      </trkpt>
      <trkpt lat="48.755646" lon="9.993149">
        <ele>641.101439</ele>
        <time>2026-04-26T18:53:00.342Z</time>
      </trkpt>
      <trkpt lat="48.755724" lon="9.993097">
        <ele>641.087031</ele>
        <time>2026-04-26T18:53:02.181Z</time>
      </trkpt>
      <trkpt lat="48.756171" lon="9.993123">
        <ele>641.011384</ele>
        <time>2026-04-26T18:53:11.798Z</time>
      </trkpt>
      <trkpt lat="48.756189" lon="9.992487">
        <ele>640.974936</ele>
        <time>2026-04-26T18:53:20.749Z</time>
      </trkpt>
      <trkpt lat="48.756274" lon="9.991952">
        <ele>641.253904</ele>
        <time>2026-04-26T18:53:28.757Z</time>
      </trkpt>
      <trkpt lat="48.756272" lon="9.991054">
        <ele>641.709125</ele>
        <time>2026-04-26T18:53:41.984Z</time>
      </trkpt>
      <trkpt lat="48.756295" lon="9.990812">
        <ele>641.833069</ele>
        <time>2026-04-26T18:53:45.697Z</time>
      </trkpt>
      <trkpt lat="48.756117" lon="9.990732">
        <ele>641.975819</ele>
        <time>2026-04-26T18:53:50.032Z</time>
      </trkpt>
      <trkpt lat="48.755846" lon="9.990491">
        <ele>642.217370</ele>
        <time>2026-04-26T18:53:57.479Z</time>
      </trkpt>
      <trkpt lat="48.755684" lon="9.990438">
        <ele>642.373715</ele>
        <time>2026-04-26T18:54:01.460Z</time>
      </trkpt>
      <trkpt lat="48.755704" lon="9.989945">
        <ele>643.102234</ele>
        <time>2026-04-26T18:54:09.387Z</time>
      </trkpt>
      <trkpt lat="48.755621" lon="9.988257">
        <ele>645.598844</ele>
        <time>2026-04-26T18:54:36.849Z</time>
      </trkpt>
      <trkpt lat="48.755638" lon="9.987664">
        <ele>646.353625</ele>
        <time>2026-04-26T18:54:46.242Z</time>
      </trkpt>
      <trkpt lat="48.755506" lon="9.987626">
        <ele>646.353625</ele>
        <time>2026-04-26T18:54:49.291Z</time>
      </trkpt>
      <trkpt lat="48.754999" lon="9.987477">
        <ele>646.353625</ele>
        <time>2026-04-26T18:55:00.631Z</time>
      </trkpt>
      <trkpt lat="48.754571" lon="9.987389">
        <ele>646.353625</ele>
        <time>2026-04-26T18:55:09.491Z</time>
      </trkpt>
      <trkpt lat="48.753831" lon="9.987320">
        <ele>646.353625</ele>
        <time>2026-04-26T18:55:24.399Z</time>
      </trkpt>
      <trkpt lat="48.753924" lon="9.987014">
        <ele>646.353625</ele>
        <time>2026-04-26T18:55:29.053Z</time>
      </trkpt>
    </trkseg>
  </trk>
</gpx>